ftp/pub/palmer/observations_modified/2019/October/original_files/AR191005_BASE.txt
Download
Sample DateTime Unit Id WS Avg 2min WD Avg 2min WGS 10min WGD 10min Air Temp Rel Humidity Dew Point Pyranometer Quantum Air Pressure Snow Level Rainfall PW Current Visibility CBase 1 CBase 2 CBase 3 Vert Vis
2019/10/05 00:00:01 BASE 11.78 224 16.87 224 -11.2 75 -14.7 0 0 985.4 NA 0.0000 9999 2300 0 0 0
2019/10/05 00:01:01 BASE 10.02 230 16.87 224 -11.2 75 -14.7 0 0 985.4 NA 0.0000 9999 2300 0 0 0
2019/10/05 00:02:01 BASE 10.40 233 16.87 224 -11.2 75 -14.8 0 0 985.4 NA 0.0000 9999 2300 0 0 0
2019/10/05 00:03:01 BASE 14.17 228 17.85 232 -11.2 75 -14.7 0 0 985.4 NA 0.0000 9999 2300 0 0 0
2019/10/05 00:04:01 BASE 15.88 225 17.85 232 -11.2 75 -14.7 0 0 985.4 NA 0.0000 9999 2230 0 0 0
2019/10/05 00:05:01 BASE 15.36 229 17.85 232 -11.2 76 -14.6 0 0 985.4 NA 0.0000 9999 2200 0 0 0
2019/10/05 00:06:01 BASE 15.10 234 17.85 232 -11.2 76 -14.6 0 0 985.4 NA 0.0000 9999 2330 0 0 0
2019/10/05 00:07:00 BASE 14.83 234 17.85 232 -11.1 76 -14.5 0 0 985.4 NA 0.0000 9999 2530 0 0 0
2019/10/05 00:08:01 BASE 14.97 233 17.85 232 -11.1 76 -14.5 0 0 985.4 NA 0.0000 9999 2330 0 0 0
2019/10/05 00:09:00 BASE 15.41 232 17.85 232 -11.1 76 -14.5 0 0 985.4 NA 0.0000 9999 2430 0 0 0
2019/10/05 00:10:00 BASE 15.20 232 18.16 235 -11.1 76 -14.5 0 0 985.5 NA 0.0000 9999 2360 0 0 0
2019/10/05 00:11:00 BASE 15.65 234 19.75 234 -11.1 76 -14.4 0 0 985.4 NA 0.0000 9999 2360 3150 0 0
2019/10/05 00:12:00 BASE 15.01 236 19.75 234 -11.1 77 -14.4 0 0 985.5 NA 0.0000 9999 2620 0 0 0
2019/10/05 00:13:00 BASE 14.43 236 19.75 234 -11.2 77 -14.4 0 0 985.4 NA 0.0000 9999 2300 0 0 0
2019/10/05 00:14:00 BASE 14.21 233 19.75 234 -11.2 77 -14.4 0 0 985.4 NA 0.0000 9999 2660 0 0 0
2019/10/05 00:15:00 BASE 14.47 233 19.75 234 -11.2 77 -14.4 0 0 985.4 NA 0.0000 9999 3250 0 0 0
2019/10/05 00:16:01 BASE 15.84 232 19.75 234 -11.2 77 -14.4 0 0 985.4 NA 0.0000 9999 2130 2890 0 0
2019/10/05 00:17:00 BASE 15.37 231 19.75 234 -11.2 77 -14.4 0 0 985.4 NA 0.0000 9999 3120 0 0 0
2019/10/05 00:18:00 BASE 13.60 234 19.75 234 -11.2 77 -14.4 0 0 985.5 NA 0.0000 9999 3150 0 0 0
2019/10/05 00:19:00 BASE 13.64 236 19.75 234 -11.2 77 -14.5 0 0 985.5 NA 0.0000 9999 3180 0 0 0
2019/10/05 00:20:00 BASE 14.89 236 19.75 234 -11.2 77 -14.5 0 0 985.5 NA 0.0000 9999 2790 3310 3810 0
2019/10/05 00:21:00 BASE 13.68 237 18.31 229 -11.2 76 -14.5 0 0 985.6 NA 0.0000 9999 2620 0 0 0
2019/10/05 00:22:00 BASE 13.04 240 18.31 229 -11.2 76 -14.6 0 0 985.6 NA 0.0000 9999 2660 0 0 0
2019/10/05 00:23:00 BASE 13.86 243 18.31 229 -11.2 76 -14.6 0 0 985.6 NA 0.0000 9999 2690 0 0 0
2019/10/05 00:24:01 BASE 14.26 246 18.31 229 -11.2 76 -14.6 0 0 985.6 NA 0.0000 9999 2100 2890 0 0
2019/10/05 00:25:00 BASE 14.55 247 17.75 234 -11.2 76 -14.6 0 0 985.6 NA 0.0000 9999 2200 0 0 0
2019/10/05 00:26:00 BASE 14.13 247 17.18 232 -11.3 76 -14.6 0 0 985.6 NA 0.0000 9999 2260 0 0 0
2019/10/05 00:27:00 BASE 13.29 249 17.18 232 -11.3 76 -14.7 0 0 985.6 NA 0.0000 9999 2230 0 0 0
2019/10/05 00:28:00 BASE 13.05 251 17.18 232 -11.3 76 -14.7 0 0 985.6 NA 0.0000 9999 2230 0 0 0
2019/10/05 00:29:00 BASE 13.93 251 17.08 230 -11.3 75 -14.8 0 0 985.6 NA 0.0000 9999 2260 0 0 0
2019/10/05 00:30:00 BASE 14.04 247 16.46 248 -11.3 75 -14.8 0 0 985.6 NA 0.0000 9999 2170 0 0 0
2019/10/05 00:31:00 BASE 13.43 246 16.46 248 -11.2 75 -14.8 0 0 985.6 NA 0.0000 9999 2300 0 0 0
2019/10/05 00:32:00 BASE 13.22 245 16.46 248 -11.2 75 -14.8 0 0 985.7 NA 0.0000 9999 2230 0 0 0
2019/10/05 00:33:01 BASE 12.50 241 16.46 248 -11.2 75 -14.7 0 0 985.7 NA 0.0000 9999 2130 0 0 0
2019/10/05 00:34:00 BASE 12.14 237 16.46 248 -11.2 75 -14.6 0 0 985.7 NA 0.0000 9999 2260 0 0 0
2019/10/05 00:35:00 BASE 11.74 236 16.46 248 -11.1 76 -14.6 0 0 985.7 NA 0.0000 9999 2170 0 0 0
2019/10/05 00:36:00 BASE 13.06 238 17.85 241 -11.1 76 -14.5 0 0 985.6 NA 0.0000 9999 2200 0 0 0
2019/10/05 00:37:00 BASE 13.91 238 17.85 241 -11.1 76 -14.5 0 0 985.6 NA 0.0000 9999 2200 0 0 0
2019/10/05 00:38:00 BASE 12.22 238 17.85 241 -11.1 76 -14.5 0 0 985.7 NA 0.0000 9999 2030 0 0 0
2019/10/05 00:39:00 BASE 11.42 241 17.85 241 -11.1 76 -14.5 0 0 985.7 NA 0.0000 9999 2030 0 0 0
2019/10/05 00:40:00 BASE 11.06 246 17.85 241 -11.1 76 -14.5 0 0 985.7 NA 0.0000 9999 2000 0 0 0
2019/10/05 00:41:00 BASE 11.52 251 17.85 241 -11.1 76 -14.5 0 0 985.7 NA 0.0000 9999 2000 0 0 0
2019/10/05 00:42:00 BASE 12.68 253 17.85 241 -11.1 76 -14.5 0 0 985.7 NA 0.0000 9999 2030 0 0 0
2019/10/05 00:43:00 BASE 12.79 253 17.85 241 -11.1 76 -14.5 0 0 985.7 NA 0.0000 9999 1940 0 0 0
2019/10/05 00:44:00 BASE 11.76 252 17.85 241 -11.1 76 -14.5 0 0 985.7 NA 0.0000 9999 1940 0 0 0
2019/10/05 00:45:00 BASE 11.98 250 17.85 241 -11.1 76 -14.5 0 0 985.6 NA 0.0000 9999 2030 0 0 0
2019/10/05 00:46:00 BASE 12.94 246 15.54 227 -11.1 76 -14.5 0 0 985.6 NA 0.0000 9999 2030 0 0 0
2019/10/05 00:47:00 BASE 12.63 248 15.28 246 -11.1 76 -14.4 0 0 985.6 NA 0.0000 9999 1940 0 0 0
2019/10/05 00:48:00 BASE 11.78 249 15.28 246 -11.1 77 -14.4 0 0 985.6 NA 0.0000 9999 2070 0 0 0
2019/10/05 00:49:00 BASE 10.41 248 15.28 246 -11.0 77 -14.3 0 0 985.7 NA 0.0000 9999 2130 0 0 0
2019/10/05 00:50:00 BASE 9.50 245 15.28 246 -11.0 77 -14.3 0 0 985.7 NA 0.0000 9999 2000 0 0 0
2019/10/05 00:51:00 BASE 9.33 246 15.28 246 -11.0 77 -14.2 0 0 985.6 NA 0.0000 9999 2130 0 0 0
2019/10/05 00:52:00 BASE 11.88 249 17.03 237 -11.0 77 -14.2 0 0 985.6 NA 0.0000 9999 2170 0 0 0
2019/10/05 00:53:00 BASE 14.28 243 17.03 237 -11.0 77 -14.2 0 0 985.6 NA 0.0000 9999 2260 0 0 0
2019/10/05 00:54:00 BASE 13.48 243 17.03 237 -11.0 77 -14.1 0 0 985.6 NA 0.0000 9999 2260 0 0 0
2019/10/05 00:55:00 BASE 12.45 251 17.03 237 -10.9 78 -14.1 0 0 985.6 NA 0.0000 9999 2030 2890 0 0
2019/10/05 00:56:00 BASE 13.68 255 17.13 256 -10.9 78 -14.0 0 0 985.6 NA 0.0000 9999 2260 0 0 0
2019/10/05 00:57:00 BASE 14.57 254 17.13 256 -10.9 78 -14.0 0 0 985.6 NA 0.0000 9999 2030 0 0 0
2019/10/05 00:58:00 BASE 14.42 254 17.23 247 -10.9 78 -14.0 0 0 985.6 NA 0.0000 9999 2030 0 0 0
2019/10/05 00:59:00 BASE 15.49 254 17.34 258 -10.9 78 -14.0 0 0 985.6 NA 0.0000 9999 2130 0 0 0
2019/10/05 01:00:00 BASE 15.52 254 17.34 258 -10.9 78 -14.0 0 0 985.6 NA 0.0000 9999 2070 0 0 0
2019/10/05 01:01:00 BASE 13.85 249 17.34 258 -10.9 78 -14.1 0 0 985.6 NA 0.0000 9999 2130 0 0 0
2019/10/05 01:02:01 BASE 12.98 247 17.34 258 -10.9 77 -14.1 0 0 985.6 NA 0.0000 9999 2200 0 0 0
2019/10/05 01:03:00 BASE 12.66 248 17.34 258 -10.9 77 -14.1 0 0 985.6 NA 0.0000 9999 2200 0 0 0
2019/10/05 01:04:00 BASE 13.58 247 18.11 251 -10.9 77 -14.1 0 0 985.6 NA 0.0000 9999 2170 0 0 0
2019/10/05 01:05:00 BASE 15.35 244 18.11 251 -10.9 77 -14.1 0 0 985.6 NA 0.0000 9999 2100 0 0 0
2019/10/05 01:06:00 BASE 15.04 244 18.11 251 -10.9 77 -14.1 0 0 985.6 NA 0.0000 9999 2130 0 0 0
2019/10/05 01:07:00 BASE 14.66 251 18.11 251 -10.9 77 -14.1 0 0 985.6 NA 0.0000 9999 2030 0 0 0
2019/10/05 01:08:00 BASE 15.36 252 18.11 251 -10.9 77 -14.1 0 0 985.6 NA 0.0000 9999 2000 0 0 0
2019/10/05 01:09:00 BASE 15.97 251 18.11 251 -10.9 77 -14.1 0 0 985.6 NA 0.0000 9999 2130 0 0 0
2019/10/05 01:10:00 BASE 15.64 250 18.11 251 -10.9 77 -14.1 0 0 985.6 NA 0.0000 9999 2130 0 0 0
2019/10/05 01:11:00 BASE 15.56 245 18.11 251 -10.9 77 -14.1 0 0 985.6 NA 0.0000 9999 2070 0 0 0
2019/10/05 01:12:00 BASE 14.74 241 18.11 251 -10.9 77 -14.1 0 0 985.6 NA 0.0000 9999 2100 0 0 0
2019/10/05 01:13:00 BASE 13.96 248 18.11 251 -10.9 77 -14.1 0 0 985.6 NA 0.0000 9999 2030 0 0 0
2019/10/05 01:14:00 BASE 15.11 252 18.47 251 -10.9 77 -14.1 0 0 985.6 NA 0.0000 9999 2170 0 0 0
2019/10/05 01:15:00 BASE 15.33 246 18.47 251 -10.8 77 -14.1 0 0 985.6 NA 0.0000 9999 2170 0 0 0
2019/10/05 01:16:00 BASE 14.38 238 18.47 251 -10.8 77 -14.1 0 0 985.6 NA 0.0000 9999 2460 0 0 0
2019/10/05 01:17:00 BASE 13.68 239 18.47 251 -10.8 77 -14.0 0 0 985.7 NA 0.0000 9999 1870 0 0 0
2019/10/05 01:18:00 BASE 14.56 246 18.47 251 -10.8 77 -14.0 0 0 985.7 NA 0.0000 9999 1900 0 0 0
2019/10/05 01:19:00 BASE 15.96 251 18.47 251 -10.8 78 -13.9 0 0 985.6 NA 0.0000 9999 1740 0 0 0
2019/10/05 01:20:00 BASE 15.45 252 18.47 251 -10.8 78 -13.9 0 0 985.6 NA 0.0000 -SN 9000 1870 0 0 0
2019/10/05 01:21:00 BASE 15.40 250 18.47 251 -10.9 78 -13.9 0 0 985.7 NA 0.0000 -SN 9999 2130 0 0 0
2019/10/05 01:22:00 BASE 15.42 249 18.47 251 -10.9 78 -14.0 0 0 985.7 NA 0.0000 -SN 9999 2030 0 0 0
2019/10/05 01:23:00 BASE 14.78 249 18.47 251 -11.0 78 -14.0 0 0 985.7 NA 0.0000 -SN 9999 2070 0 0 0
2019/10/05 01:24:00 BASE 14.39 251 17.59 257 -11.0 78 -14.0 0 0 985.7 NA 0.0000 -SN 9999 2100 0 0 0
2019/10/05 01:25:00 BASE 14.85 252 18.06 251 -11.0 78 -14.0 0 0 985.7 NA 0.0000 -SN 9999 2170 0 0 0
2019/10/05 01:26:00 BASE 15.62 252 18.06 251 -11.0 78 -14.0 0 0 985.8 NA 0.0000 -SN 9999 2260 0 0 0
2019/10/05 01:27:00 BASE 14.93 249 18.06 251 -11.0 78 -14.0 0 0 985.8 NA 0.0000 -SN 9999 2200 0 0 0
2019/10/05 01:28:00 BASE 15.32 245 18.06 251 -11.0 78 -14.0 0 0 985.7 NA 0.0000 -SN 9999 2170 0 0 0
2019/10/05 01:29:00 BASE 16.62 241 18.67 242 -11.0 78 -14.0 0 0 985.7 NA 0.0000 -SN 9999 2200 0 0 0
2019/10/05 01:30:00 BASE 16.06 242 18.67 242 -10.9 78 -14.1 0 0 985.8 NA 0.0000 9999 2070 0 0 0
2019/10/05 01:31:00 BASE 14.42 245 18.67 242 -10.9 78 -14.1 0 0 985.8 NA 0.0000 9999 2070 0 0 0
2019/10/05 01:32:00 BASE 13.68 248 18.67 242 -10.9 77 -14.1 0 0 985.8 NA 0.0000 9999 2330 0 0 0
2019/10/05 01:33:00 BASE 14.44 244 18.67 242 -10.9 77 -14.1 0 0 985.8 NA 0.0000 9999 2200 0 0 0
2019/10/05 01:34:00 BASE 14.92 240 18.67 242 -10.9 77 -14.2 0 0 985.9 NA 0.0000 9999 1940 0 0 0
2019/10/05 01:35:00 BASE 14.59 243 18.67 242 -10.9 76 -14.2 0 0 985.9 NA 0.0000 9999 1940 0 0 0
2019/10/05 01:36:00 BASE 13.08 246 18.67 242 -10.9 76 -14.3 0 0 985.9 NA 0.0000 9999 1940 0 0 0
2019/10/05 01:37:00 BASE 11.79 250 18.67 242 -10.9 76 -14.3 0 0 985.9 NA 0.0000 9999 1970 0 0 0
2019/10/05 01:38:00 BASE 11.86 250 18.67 242 -10.9 76 -14.3 0 0 985.9 NA 0.0000 9999 2130 0 0 0
2019/10/05 01:39:00 BASE 12.12 250 17.18 232 -10.9 76 -14.3 0 0 985.9 NA 0.0000 9999 2100 0 0 0
2019/10/05 01:40:00 BASE 12.33 250 17.18 232 -10.9 76 -14.3 0 0 985.9 NA 0.0000 9999 2130 0 0 0
2019/10/05 01:41:00 BASE 12.29 252 17.18 232 -10.9 76 -14.3 0 0 985.9 NA 0.0000 9999 2100 0 0 0
2019/10/05 01:42:00 BASE 13.03 251 17.18 232 -10.9 76 -14.3 0 0 985.8 NA 0.0000 9999 2100 0 0 0
2019/10/05 01:43:00 BASE 14.09 247 16.10 240 -10.9 76 -14.3 0 0 985.9 NA 0.0000 9999 2070 0 0 0
2019/10/05 01:44:00 BASE 13.94 246 16.10 240 -10.9 76 -14.2 0 0 985.9 NA 0.0000 9999 2030 0 0 0
2019/10/05 01:45:00 BASE 12.89 248 16.10 240 -10.9 77 -14.2 0 0 985.9 NA 0.0000 9999 1970 0 0 0
2019/10/05 01:46:00 BASE 12.50 249 16.10 240 -10.9 77 -14.2 0 0 985.9 NA 0.0000 9999 2070 0 0 0
2019/10/05 01:47:00 BASE 12.89 248 16.10 251 -10.9 77 -14.1 0 0 985.8 NA 0.0000 9999 1970 0 0 0
2019/10/05 01:48:00 BASE 12.89 244 16.10 251 -10.9 77 -14.1 0 0 985.8 NA 0.0000 9999 1970 0 0 0
2019/10/05 01:49:00 BASE 12.26 241 16.10 251 -10.9 77 -14.1 0 0 985.9 NA 0.0000 9999 2070 0 0 0
2019/10/05 01:50:00 BASE 12.38 245 16.10 251 -10.9 77 -14.1 0 0 985.8 NA 0.0000 9999 2000 0 0 0
2019/10/05 01:51:00 BASE 13.55 246 16.10 251 -10.8 77 -14.1 0 0 985.8 NA 0.0000 9999 1800 0 0 0
2019/10/05 01:52:00 BASE 12.88 245 16.10 251 -10.8 77 -14.1 0 0 985.8 NA 0.0000 9999 1840 0 0 0
2019/10/05 01:53:00 BASE 11.95 245 16.10 251 -10.8 77 -14.0 0 0 985.8 NA 0.0000 9999 1970 0 0 0
2019/10/05 01:54:00 BASE 11.69 247 16.10 251 -10.8 77 -14.0 0 0 985.8 NA 0.0000 9999 2030 0 0 0
2019/10/05 01:55:00 BASE 11.59 243 16.10 251 -10.8 77 -14.0 0 0 985.8 NA 0.0000 9999 2100 0 0 0
2019/10/05 01:56:00 BASE 13.75 241 17.23 241 -10.8 77 -14.0 0 0 985.7 NA 0.0000 9999 2170 0 0 0
2019/10/05 01:57:00 BASE 15.08 242 17.23 241 -10.8 77 -14.0 0 0 985.7 NA 0.0000 9999 2200 0 0 0
2019/10/05 01:58:00 BASE 13.94 243 17.23 241 -10.8 77 -14.0 0 0 985.7 NA 0.0000 9999 2200 0 0 0
2019/10/05 01:59:00 BASE 12.78 240 17.23 241 -10.8 77 -14.0 0 0 985.8 NA 0.0000 9999 2100 0 0 0
2019/10/05 02:00:00 BASE 12.18 239 17.23 241 -10.8 77 -14.0 0 0 985.8 NA 0.0000 9999 2260 0 0 0
2019/10/05 02:01:00 BASE 11.67 241 17.23 241 -10.7 77 -14.0 0 0 985.8 NA 0.0000 9999 2030 0 0 0
2019/10/05 02:02:00 BASE 10.71 241 17.23 241 -10.7 77 -14.0 0 0 985.8 NA 0.0000 9999 1870 0 0 0
2019/10/05 02:03:00 BASE 10.40 242 17.23 241 -10.7 77 -13.9 0 0 985.8 NA 0.0000 9999 1870 0 0 0
2019/10/05 02:04:00 BASE 11.19 245 17.23 241 -10.7 77 -13.9 0 0 985.8 NA 0.0000 9999 1900 0 0 0
2019/10/05 02:05:00 BASE 12.98 246 17.23 241 -10.7 77 -13.9 0 0 985.8 NA 0.0000 -SN 9999 1900 0 0 0
2019/10/05 02:06:00 BASE 13.86 246 16.15 238 -10.7 77 -13.9 0 0 985.8 NA 0.0000 -SN 9999 1840 0 0 0
2019/10/05 02:07:00 BASE 13.09 244 16.00 234 -10.7 78 -13.9 0 0 985.8 NA 0.0000 -SN 9999 1870 0 0 0
2019/10/05 02:08:00 BASE 13.22 247 15.64 243 -10.7 78 -13.8 0 0 985.8 NA 0.0000 -SN 9999 1670 0 0 0
2019/10/05 02:09:00 BASE 13.09 248 15.64 243 -10.7 78 -13.8 0 0 985.8 NA 0.0000 -SN 9999 1280 0 0 0
2019/10/05 02:10:00 BASE 12.29 246 15.64 243 -10.7 78 -13.8 0 0 985.8 NA 0.0000 -SN 9999 430 0 0 0
2019/10/05 02:11:00 BASE 12.39 255 15.64 243 -10.8 78 -13.8 0 0 985.8 NA 0.0000 -SN 9000 1670 0 0 0
2019/10/05 02:12:00 BASE 11.61 262 15.64 243 -10.8 78 -13.8 0 0 985.9 NA 0.0000 -SN 9999 1670 0 0 0
2019/10/05 02:13:00 BASE 11.10 261 15.64 243 -10.9 79 -13.8 0 0 985.9 NA 0.0000 -SN 8000 300 1570 0 0
2019/10/05 02:14:00 BASE 10.52 264 15.64 243 -10.9 79 -13.8 0 0 985.9 NA 0.0000 -SN 4300 0 0 0 2850
2019/10/05 02:15:00 BASE 9.76 268 15.43 247 -10.9 80 -13.7 0 0 985.9 NA 0.0000 -SN 3800 0 0 0 2460
2019/10/05 02:16:00 BASE 10.80 269 15.43 247 -11.0 80 -13.7 0 0 985.9 NA 0.0000 -SN 4500 0 0 0 1940
2019/10/05 02:17:00 BASE 11.54 265 15.43 247 -11.0 81 -13.7 0 0 985.9 NA 0.0000 -SN 2900 0 0 0 1770
2019/10/05 02:18:01 BASE 12.68 259 15.48 253 -11.1 81 -13.6 0 0 985.9 NA 0.0000 -SN 3000 0 0 0 1870
2019/10/05 02:19:00 BASE 13.23 259 15.48 253 -11.1 82 -13.6 0 0 985.9 NA 0.0000 -SN 3600 0 0 0 2170
2019/10/05 02:20:00 BASE 12.70 260 15.48 253 -11.1 82 -13.5 0 0 985.9 NA 0.0000 -SN 4500 0 0 0 2230
2019/10/05 02:21:00 BASE 12.46 261 15.48 253 -11.0 83 -13.4 0 0 985.9 NA 0.0000 -SN 4400 330 0 0 0
2019/10/05 02:22:00 BASE 12.71 258 15.48 253 -11.0 83 -13.3 0 0 985.9 NA 0.0000 -SN 6000 330 0 0 0
2019/10/05 02:23:00 BASE 14.17 247 16.87 237 -11.0 83 -13.2 0 0 985.8 NA 0.0000 -SN 6000 260 0 0 0
2019/10/05 02:24:00 BASE 14.74 246 18.78 246 -11.0 84 -13.2 0 0 985.8 NA 0.0000 -SN 8000 300 0 0 0
2019/10/05 02:25:00 BASE 14.66 251 18.78 246 -11.0 84 -13.2 0 0 985.8 NA 0.0000 -SN BR 6000 0 0 0 2560
2019/10/05 02:26:00 BASE 14.39 253 18.78 246 -11.0 84 -13.2 0 0 985.9 NA 0.0000 -SN BR 4000 0 0 0 1840
2019/10/05 02:27:00 BASE 13.50 258 18.78 246 -11.1 84 -13.2 0 0 985.8 NA 0.0000 -SN BR 4400 0 0 0 2070
2019/10/05 02:28:00 BASE 14.13 259 18.78 246 -11.1 84 -13.2 0 0 985.8 NA 0.0000 -SN BR 6000 0 0 0 2890
2019/10/05 02:29:00 BASE 14.41 258 18.78 246 -11.2 85 -13.2 0 0 985.8 NA 0.0000 -SN BR 5000 2620 0 0 0
2019/10/05 02:30:00 BASE 13.13 256 18.78 246 -11.2 85 -13.2 0 0 985.8 NA 0.0000 -SN BR 5000 0 0 0 1610
2019/10/05 02:31:00 BASE 12.23 254 18.78 246 -11.2 85 -13.2 0 0 985.8 NA 0.0000 -SN BR 5000 0 0 0 3080
2019/10/05 02:32:00 BASE 11.38 252 18.78 246 -11.2 86 -13.1 0 0 985.9 NA 0.0000 -SN BR 5000 260 0 0 0
2019/10/05 02:33:00 BASE 10.21 249 18.78 246 -11.2 86 -13.0 0 0 985.9 NA 0.0000 -SN BR 9999 2330 0 0 0
2019/10/05 02:34:00 BASE 11.11 247 17.39 252 -11.2 87 -13.0 0 0 985.8 NA 0.0000 -SN BR 9999 2330 0 0 0
2019/10/05 02:35:00 BASE 13.10 245 16.46 262 -11.1 87 -12.9 0 0 985.8 NA 0.0000 -SN BR 9999 2330 0 0 0
2019/10/05 02:36:00 BASE 12.69 241 16.46 262 -11.1 87 -12.8 0 0 985.8 NA 0.0000 -SN BR 9999 2430 0 0 0
2019/10/05 02:37:00 BASE 12.35 243 16.46 262 -11.1 88 -12.7 0 0 985.8 NA 0.0000 -SN BR 9999 2620 0 0 0
2019/10/05 02:38:00 BASE 13.25 245 15.54 246 -11.0 88 -12.6 0 0 985.8 NA 0.0000 -SN BR 9999 2490 0 0 0
2019/10/05 02:39:00 BASE 13.73 248 15.54 250 -11.0 88 -12.6 0 0 985.8 NA 0.0000 -SN BR 9999 2590 3020 0 0
2019/10/05 02:40:00 BASE 13.57 253 15.54 250 -11.0 88 -12.6 0 0 985.8 NA 0.0000 -SN 9999 2100 2950 0 0
2019/10/05 02:41:00 BASE 12.50 253 15.54 250 -11.0 87 -12.7 0 0 985.8 NA 0.0000 -SN 9999 360 1710 0 0
2019/10/05 02:42:00 BASE 12.88 253 16.10 252 -11.0 87 -12.7 0 0 985.8 NA 0.0000 -SN 9999 2430 0 0 0
2019/10/05 02:43:00 BASE 14.06 256 16.10 252 -11.1 87 -12.8 0 0 985.8 NA 0.0000 -SN 9999 2330 0 0 0
2019/10/05 02:44:00 BASE 14.36 256 16.31 252 -11.1 87 -12.8 0 0 985.7 NA 0.0000 -SN 9999 2130 0 0 0
2019/10/05 02:45:00 BASE 13.96 257 16.31 252 -11.1 87 -12.8 0 0 985.8 NA 0.0000 -SN 9999 2200 0 0 0
2019/10/05 02:46:00 BASE 13.31 252 16.31 252 -11.1 87 -12.8 0 0 985.8 NA 0.0000 -SN 9999 1380 0 0 0
2019/10/05 02:47:00 BASE 13.52 244 16.31 252 -11.1 87 -12.8 0 0 985.8 NA 0.0000 -SN 9999 390 0 0 0
2019/10/05 02:48:00 BASE 14.55 247 17.23 245 -11.1 88 -12.7 0 0 985.7 NA 0.0000 -SN 9999 1350 2720 0 0
2019/10/05 02:49:00 BASE 15.71 248 17.70 247 -11.1 88 -12.7 0 0 985.7 NA 0.0000 -SN 9999 2460 0 0 0
2019/10/05 02:50:00 BASE 16.10 244 17.75 243 -11.1 88 -12.7 0 0 985.8 NA 0.0000 -SN 9999 390 3280 0 0
2019/10/05 02:51:00 BASE 14.46 241 17.75 243 -11.1 88 -12.7 0 0 985.8 NA 0.0000 -SN 9999 330 0 0 0
2019/10/05 02:52:00 BASE 12.80 242 17.75 243 -11.1 88 -12.7 0 0 985.8 NA 0.0000 -SN 9000 260 0 0 0
2019/10/05 02:53:00 BASE 13.12 247 17.75 243 -11.1 88 -12.7 0 0 985.8 NA 0.0000 -SN 6000 230 0 0 0
2019/10/05 02:54:00 BASE 14.00 247 17.75 243 -11.1 88 -12.7 0 0 985.8 NA 0.0000 -SN 8000 330 0 0 0
2019/10/05 02:55:00 BASE 13.88 251 17.75 243 -11.1 88 -12.7 0 0 985.8 NA 0.0000 -SN 9999 390 2300 0 0
2019/10/05 02:56:00 BASE 13.48 255 17.75 243 -11.1 88 -12.7 0 0 985.8 NA 0.0000 -SN 9999 330 0 0 0
2019/10/05 02:57:00 BASE 13.43 249 17.75 243 -11.2 88 -12.7 0 0 985.8 NA 0.0000 -SN BR 9000 260 1310 0 0
2019/10/05 02:58:00 BASE 13.55 249 17.75 243 -11.2 89 -12.7 0 0 985.8 NA 0.0000 -SN BR 8000 300 0 0 0
2019/10/05 02:59:00 BASE 14.19 250 17.75 243 -11.2 89 -12.7 0 0 985.8 NA 0.0000 -SN BR 8000 460 2200 0 0
2019/10/05 03:00:00 BASE 14.31 247 16.67 245 -11.2 89 -12.6 0 0 985.8 NA 0.0000 -SN BR 9000 200 2760 0 0
2019/10/05 03:01:00 BASE 13.91 248 16.67 245 -11.2 89 -12.6 0 0 985.8 NA 0.0000 -SN BR 6000 3120 0 0 0
2019/10/05 03:02:00 BASE 14.25 253 16.93 255 -11.1 89 -12.6 0 0 985.9 NA 0.0000 -SN BR 9999 1020 2950 0 0
2019/10/05 03:03:00 BASE 14.74 250 16.93 255 -11.1 89 -12.6 0 0 985.8 NA 0.0000 -SN BR 9999 2260 2760 0 0
2019/10/05 03:04:00 BASE 14.15 246 16.93 255 -11.1 89 -12.5 0 0 985.9 NA 0.0000 -SN BR 9000 0 0 0 2200
2019/10/05 03:05:00 BASE 14.31 248 17.34 259 -11.1 89 -12.5 0 0 985.9 NA 0.0000 -SN BR 6000 230 1970 0 0
2019/10/05 03:06:00 BASE 16.01 251 19.45 252 -11.1 89 -12.5 0 0 985.8 NA 0.0000 -SN BR 9999 2130 0 0 0
2019/10/05 03:07:00 BASE 16.25 250 19.45 252 -11.1 89 -12.5 0 0 985.9 NA 0.0000 -SN BR 9999 2200 0 0 0
2019/10/05 03:08:00 BASE 15.80 249 19.45 252 -11.1 89 -12.5 0 0 985.8 NA 0.0000 -SN BR 9999 2300 0 0 0
2019/10/05 03:09:00 BASE 16.18 250 19.45 252 -11.1 89 -12.6 0 0 985.8 NA 0.0000 -SN BR 9999 1840 2490 0 0
2019/10/05 03:10:00 BASE 14.55 252 19.45 252 -11.1 89 -12.6 0 0 985.9 NA 0.0000 -SN 9999 2130 2720 0 0
2019/10/05 03:11:00 BASE 11.94 253 19.45 252 -11.1 89 -12.6 0 0 985.9 NA 0.0000 -SN 9999 1710 0 0 0
2019/10/05 03:12:00 BASE 11.52 255 19.45 252 -11.1 89 -12.6 0 0 985.9 NA 0.0000 -SN 9999 2430 0 0 0
2019/10/05 03:13:00 BASE 12.60 257 19.45 252 -11.1 89 -12.6 0 0 985.9 NA 0.0000 -SN 9999 3120 0 0 0
2019/10/05 03:14:00 BASE 12.51 253 19.45 252 -11.1 89 -12.5 0 0 986.0 NA 0.0000 -SN 9999 3380 0 0 0
2019/10/05 03:15:00 BASE 11.36 249 19.45 252 -11.1 89 -12.5 0 0 986.0 NA 0.0000 9999 2130 2820 0 0
2019/10/05 03:16:00 BASE 11.43 246 18.88 247 -11.0 89 -12.5 0 0 986.0 NA 0.0000 9999 1510 2400 0 0
2019/10/05 03:17:00 BASE 11.79 238 18.88 247 -11.0 89 -12.4 0 0 986.0 NA 0.0000 9999 1870 0 0 0
2019/10/05 03:18:00 BASE 11.62 239 18.88 247 -11.0 89 -12.4 0 0 986.0 NA 0.0000 9999 1280 0 0 0
2019/10/05 03:19:00 BASE 12.87 247 15.18 238 -10.9 89 -12.4 0 0 986.0 NA 0.0000 9999 2300 0 0 0
2019/10/05 03:20:00 BASE 14.03 245 15.18 238 -10.9 89 -12.4 0 0 986.0 NA 0.0000 9999 430 2360 0 0
2019/10/05 03:21:00 BASE 13.25 245 15.18 238 -10.9 88 -12.4 0 0 986.0 NA 0.0000 9999 590 0 0 0
2019/10/05 03:22:00 BASE 12.95 253 15.74 255 -10.9 88 -12.5 0 0 986.0 NA 0.0000 9999 2230 0 0 0
2019/10/05 03:23:00 BASE 13.89 259 16.87 254 -10.9 88 -12.5 0 0 985.9 NA 0.0000 9999 2170 3350 0 0
2019/10/05 03:24:00 BASE 14.59 257 16.87 254 -11.0 88 -12.6 0 0 986.0 NA 0.0000 9999 3120 0 0 0
2019/10/05 03:25:00 BASE 14.69 254 16.87 254 -11.0 88 -12.6 0 0 986.0 NA 0.0000 9999 1900 3020 0 0
2019/10/05 03:26:00 BASE 13.57 259 16.87 254 -11.1 88 -12.7 0 0 986.0 NA 0.0000 9999 1900 0 0 0
2019/10/05 03:27:00 BASE 12.67 258 16.87 254 -11.1 88 -12.7 0 0 986.0 NA 0.0000 9999 1350 2260 0 0
2019/10/05 03:28:00 BASE 12.91 255 16.87 254 -11.1 88 -12.7 0 0 986.0 NA 0.0000 9999 1380 0 0 0
2019/10/05 03:29:00 BASE 11.81 261 16.87 254 -11.1 88 -12.7 0 0 986.1 NA 0.0000 9999 1410 2330 0 0
2019/10/05 03:30:00 BASE 10.69 267 16.87 254 -11.1 88 -12.7 0 0 986.1 NA 0.0000 9999 1770 0 0 0
2019/10/05 03:31:00 BASE 10.42 270 16.87 254 -11.1 88 -12.7 0 0 986.1 NA 0.0000 9999 460 1900 0 0
2019/10/05 03:32:00 BASE 9.75 269 16.87 254 -11.2 88 -12.8 0 0 986.2 NA 0.0000 9999 2000 0 0 0
2019/10/05 03:33:00 BASE 9.88 266 16.10 250 -11.2 88 -12.8 0 0 986.2 NA 0.0000 9999 1840 0 0 0
2019/10/05 03:34:00 BASE 11.33 262 15.64 253 -11.2 88 -12.8 0 0 986.2 NA 0.0000 9999 2130 0 0 0
2019/10/05 03:35:00 BASE 12.13 260 15.12 260 -11.3 89 -12.8 0 0 986.2 NA 0.0000 9999 2130 0 0 0
2019/10/05 03:36:00 BASE 11.79 260 15.12 260 -11.3 89 -12.7 0 0 986.2 NA 0.0000 9999 2400 0 0 0
2019/10/05 03:37:00 BASE 10.69 260 15.12 260 -11.2 89 -12.7 0 0 986.2 NA 0.0000 9999 2460 0 0 0
2019/10/05 03:38:00 BASE 10.26 272 14.82 260 -11.2 89 -12.6 0 0 986.1 NA 0.0000 9999 2620 0 0 0
2019/10/05 03:39:00 BASE 11.00 274 14.82 260 -11.3 89 -12.7 0 0 986.1 NA 0.0000 9999 2720 0 0 0
2019/10/05 03:40:00 BASE 11.94 267 14.82 260 -11.4 90 -12.7 0 0 986.1 NA 0.0000 -SN 9999 2230 0 0 0
2019/10/05 03:41:00 BASE 12.53 268 14.82 260 -11.5 90 -12.8 0 0 986.1 NA 0.0000 -SN 9999 2560 0 0 0
2019/10/05 03:42:00 BASE 11.68 273 14.82 260 -11.6 90 -12.9 0 0 986.2 NA 0.0000 -SN 9999 2560 0 0 0
2019/10/05 03:43:00 BASE 10.89 272 14.82 260 -11.7 90 -13.1 0 0 986.2 NA 0.0000 -SN 9999 2130 0 0 0
2019/10/05 03:44:00 BASE 10.95 268 14.82 260 -11.8 90 -13.1 0 0 986.2 NA 0.0000 -SN 9999 2260 0 0 0
2019/10/05 03:45:00 BASE 10.28 266 14.35 259 -11.8 90 -13.1 0 0 986.2 NA 0.0000 -SN 9999 2490 0 0 0
2019/10/05 03:46:00 BASE 8.71 267 14.35 259 -11.8 91 -13.1 0 0 986.2 NA 0.0000 -SN 9999 2790 0 0 0
2019/10/05 03:47:00 BASE 9.29 259 14.35 259 -11.8 91 -13.0 0 0 986.2 NA 0.0000 -SN 9999 2170 0 0 0
2019/10/05 03:48:01 BASE 11.47 246 14.71 249 -11.8 91 -12.9 0 0 986.2 NA 0.0000 -SN 9999 2260 0 0 0
2019/10/05 03:49:01 BASE 11.20 244 14.71 249 -11.7 92 -12.8 0 0 986.2 NA 0.0000 -SN 9999 2100 0 0 0
2019/10/05 03:50:01 BASE 11.56 248 14.71 249 -11.5 92 -12.6 0 0 986.2 NA 0.0000 9999 2070 0 0 0
2019/10/05 03:51:01 BASE 13.47 253 14.87 259 -11.4 93 -12.4 0 0 986.2 NA 0.0000 9999 1970 0 0 0
2019/10/05 03:52:01 BASE 13.90 261 15.38 261 -11.3 93 -12.3 0 0 986.2 NA 0.0000 9999 390 2030 0 0
2019/10/05 03:53:01 BASE 13.14 265 15.38 261 -11.2 93 -12.2 0 0 986.3 NA 0.0000 9999 360 2230 0 0
2019/10/05 03:54:01 BASE 11.89 265 15.38 261 -11.2 92 -12.2 0 0 986.2 NA 0.0000 -SN 8000 2030 0 0 0
2019/10/05 03:55:01 BASE 11.85 270 15.38 261 -11.2 92 -12.3 0 0 986.3 NA 0.0000 -SN 9999 1970 0 0 0
2019/10/05 03:56:01 BASE 11.73 272 15.38 261 -11.3 91 -12.4 0 0 986.3 NA 0.0000 -SN 9999 2230 0 0 0
2019/10/05 03:57:01 BASE 10.70 271 15.38 261 -11.3 91 -12.4 0 0 986.3 NA 0.0000 -SN 9999 2230 0 0 0
2019/10/05 03:58:01 BASE 9.61 272 15.38 261 -11.3 91 -12.5 0 0 986.3 NA 0.0000 -SN 9999 2300 0 0 0
2019/10/05 03:59:01 BASE 8.12 270 15.38 261 -11.3 91 -12.5 0 0 986.4 NA 0.0000 -SN 9999 2300 0 0 0
2019/10/05 04:00:01 BASE 7.64 268 15.38 261 -11.3 91 -12.5 0 0 986.4 NA 0.0000 -SN 9999 2170 0 0 0
2019/10/05 04:01:01 BASE 8.13 270 15.38 261 -11.3 91 -12.5 0 0 986.4 NA 0.0000 -SN 9999 2130 0 0 0
2019/10/05 04:02:00 BASE 7.49 274 15.33 260 -11.3 91 -12.5 0 0 986.4 NA 0.0000 -SN 9999 2100 0 0 0
2019/10/05 04:03:00 BASE 7.71 270 15.33 260 -11.3 91 -12.5 0 0 986.4 NA 0.0000 -SN 9999 1570 2300 0 0
2019/10/05 04:04:00 BASE 9.66 258 13.84 273 -11.4 91 -12.5 0 0 986.4 NA 0.0000 -SN 9999 2100 0 0 0
2019/10/05 04:05:00 BASE 10.20 251 12.76 256 -11.3 92 -12.4 0 0 986.4 NA 0.0000 -SN 9999 2200 0 0 0
2019/10/05 04:06:00 BASE 9.65 242 12.71 268 -11.3 92 -12.4 0 0 986.4 NA 0.0000 -SN 9999 2100 0 0 0
2019/10/05 04:07:00 BASE 9.46 241 12.30 252 -11.2 92 -12.3 0 0 986.4 NA 0.0000 -SN 9999 2200 0 0 0
2019/10/05 04:08:00 BASE 9.88 248 12.30 252 -11.2 92 -12.2 0 0 986.4 NA 0.0000 -SN 9999 2360 0 0 0
2019/10/05 04:09:00 BASE 10.74 248 12.45 257 -11.1 92 -12.2 0 0 986.4 NA 0.0000 9999 2400 0 0 0
2019/10/05 04:10:00 BASE 10.81 247 12.45 257 -11.1 92 -12.2 0 0 986.4 NA 0.0000 9999 2490 0 0 0
2019/10/05 04:11:00 BASE 9.96 246 12.45 257 -11.1 91 -12.2 0 0 986.4 NA 0.0000 9999 2260 0 0 0
2019/10/05 04:12:00 BASE 10.20 246 12.91 243 -11.1 91 -12.3 0 0 986.4 NA 0.0000 9999 1610 2360 0 0
2019/10/05 04:13:00 BASE 11.29 249 13.17 247 -11.1 90 -12.4 0 0 986.4 NA 0.0000 -SN 9999 390 1670 0 0
2019/10/05 04:14:00 BASE 11.53 254 13.17 247 -11.1 89 -12.5 0 0 986.4 NA 0.0000 -SN 9999 1570 2130 0 0
2019/10/05 04:15:00 BASE 10.34 261 13.17 247 -11.1 88 -12.7 0 0 986.4 NA 0.0000 -SN 9999 1510 0 0 0
2019/10/05 04:16:00 BASE 9.07 265 13.17 247 -11.1 87 -12.8 0 0 986.4 NA 0.0000 -SN 9999 2170 0 0 0
2019/10/05 04:17:00 BASE 10.39 267 14.40 290 -11.1 86 -13.0 0 0 986.4 NA 0.0000 -SN 9999 1480 2560 0 0
2019/10/05 04:18:00 BASE 10.82 266 14.40 290 -11.1 86 -13.1 0 0 986.5 NA 0.0000 -SN 9999 520 2330 0 0
2019/10/05 04:19:00 BASE 10.79 268 15.18 262 -11.2 85 -13.2 0 0 986.5 NA 0.0000 -SN 9999 1900 0 0 0
2019/10/05 04:20:00 BASE 11.62 274 15.18 262 -11.3 85 -13.2 0 0 986.5 NA 0.0000 -SN 9999 2230 0 0 0
2019/10/05 04:21:00 BASE 10.84 282 15.18 262 -11.4 86 -13.3 0 0 986.5 NA 0.0000 -SN 9999 1440 2260 0 0
2019/10/05 04:22:00 BASE 11.41 281 15.18 262 -11.5 86 -13.3 0 0 986.4 NA 0.0000 -SN 9999 2170 0 0 0
2019/10/05 04:23:00 BASE 12.74 277 15.18 262 -11.6 87 -13.3 0 0 986.5 NA 0.0000 9999 260 1510 0 0
2019/10/05 04:24:00 BASE 13.37 281 17.08 277 -11.7 87 -13.4 0 0 986.4 NA 0.0000 9999 260 1250 0 0
2019/10/05 04:25:00 BASE 14.71 283 17.08 277 -11.8 88 -13.4 0 0 986.4 NA 0.0000 -SN 7000 2100 0 0 0
2019/10/05 04:26:00 BASE 15.26 284 17.08 277 -11.9 88 -13.4 0 0 986.4 NA 0.0000 -SN 5000 2400 0 0 0
2019/10/05 04:27:00 BASE 15.33 283 18.11 278 -11.9 89 -13.4 0 0 986.5 NA 0.0000 -SN BR 5000 0 0 0 2690
2019/10/05 04:28:00 BASE 15.27 283 18.11 278 -12.0 89 -13.4 0 0 986.5 NA 0.0000 -SN BR 7000 2400 0 0 0
2019/10/05 04:29:00 BASE 15.13 283 18.11 278 -12.0 90 -13.3 0 0 986.5 NA 0.0000 -SN BR 8000 230 2260 0 0
2019/10/05 04:30:00 BASE 14.26 281 18.11 278 -12.0 90 -13.3 0 0 986.6 NA 0.0000 -SN BR 9000 260 2460 0 0
2019/10/05 04:31:00 BASE 12.75 280 18.11 278 -12.0 91 -13.3 0 0 986.6 NA 0.0000 -SN BR 7000 260 2360 0 0
2019/10/05 04:32:00 BASE 12.66 280 18.11 278 -12.0 91 -13.2 0 0 986.5 NA 0.0000 -SN BR 7000 300 1250 0 0
2019/10/05 04:33:00 BASE 13.32 280 18.11 278 -12.0 91 -13.1 0 0 986.6 NA 0.0000 -SN BR 8000 260 1180 0 0
2019/10/05 04:34:00 BASE 13.68 281 18.11 278 -12.0 92 -13.1 0 0 986.6 NA 0.0000 -SN BR 9000 260 1120 0 0
2019/10/05 04:35:00 BASE 14.27 284 18.11 278 -12.0 92 -13.1 0 0 986.6 NA 0.0000 -SN BR 9000 300 0 0 0
2019/10/05 04:36:00 BASE 14.00 287 18.11 278 -12.0 92 -13.0 0 0 986.6 NA 0.0000 -SN BR 8000 230 0 0 0
2019/10/05 04:37:00 BASE 13.94 288 17.90 280 -12.0 92 -13.0 0 0 986.6 NA 0.0000 -SN BR 6000 230 2260 0 0
2019/10/05 04:38:00 BASE 14.55 286 17.90 280 -12.0 93 -13.0 0 0 986.6 NA 0.0000 -SN BR 6000 230 1800 0 0
2019/10/05 04:39:00 BASE 14.37 283 17.90 280 -12.1 93 -13.0 0 0 986.6 NA 0.0000 -SN BR 5000 2170 0 0 0
2019/10/05 04:40:00 BASE 13.60 280 17.90 280 -12.1 93 -13.0 0 0 986.6 NA 0.0000 -SN BR 4500 2200 0 0 0
2019/10/05 04:41:00 BASE 14.08 277 17.90 280 -12.1 93 -13.0 0 0 986.6 NA 0.0000 -SN BR 5000 1870 0 0 0
2019/10/05 04:42:00 BASE 14.01 280 17.90 280 -12.1 94 -12.9 0 0 986.6 NA 0.0000 -SN BR 5000 0 0 0 2130
2019/10/05 04:43:00 BASE 12.92 282 17.90 280 -12.1 94 -12.9 0 0 986.6 NA 0.0000 -SN BR 6000 260 2030 0 0
2019/10/05 04:44:00 BASE 13.19 279 17.90 280 -12.1 94 -12.9 0 0 986.6 NA 0.0000 -SN BR 6000 230 1570 0 0
2019/10/05 04:45:00 BASE 13.35 277 16.67 274 -12.1 94 -12.9 0 0 986.6 NA 0.0000 -SN BR 6000 0 0 0 2560
2019/10/05 04:46:00 BASE 12.77 278 16.67 274 -12.1 94 -12.8 0 0 986.6 NA 0.0000 -SN BR 7000 230 1210 0 0
2019/10/05 04:47:00 BASE 12.71 279 16.67 274 -12.1 95 -12.8 0 0 986.6 NA 0.0000 -SN BR 7000 230 1870 0 0
2019/10/05 04:48:00 BASE 12.76 275 16.67 274 -12.1 95 -12.8 0 0 986.6 NA 0.0000 -SN BR 5000 0 0 0 2070
2019/10/05 04:49:00 BASE 12.36 271 16.67 274 -12.1 95 -12.7 0 0 986.7 NA 0.0000 -SN BR 3800 0 0 0 2070
2019/10/05 04:50:00 BASE 12.42 272 16.67 274 -12.1 95 -12.7 0 0 986.7 NA 0.0000 -SN BR 4300 0 0 0 1770
2019/10/05 04:51:00 BASE 13.88 274 17.54 274 -12.0 95 -12.7 0 0 986.7 NA 0.0000 -SN BR 5000 0 0 0 1770
2019/10/05 04:52:00 BASE 14.19 276 17.54 274 -12.0 95 -12.6 0 0 986.7 NA 0.0000 -SN BR 5000 0 0 0 2100
2019/10/05 04:53:01 BASE 13.07 277 17.54 274 -12.1 96 -12.6 0 0 986.6 NA 0.0000 -SN BR 4800 0 0 0 2130
2019/10/05 04:54:00 BASE 13.76 276 17.54 274 -12.1 96 -12.6 0 0 986.7 NA 0.0000 -SN BR 5000 0 0 0 2400
2019/10/05 04:55:00 BASE 13.87 274 17.54 274 -12.1 96 -12.6 0 0 986.7 NA 0.0000 -SN BR 5000 0 0 0 2130
2019/10/05 04:56:00 BASE 14.51 273 17.75 262 -12.1 96 -12.6 0 0 986.6 NA 0.0000 -SN BR 3900 0 0 0 890
2019/10/05 04:57:00 BASE 14.54 272 17.75 262 -12.1 96 -12.6 0 0 986.7 NA 0.0000 -SN BR 1800 0 0 0 1080
2019/10/05 04:58:00 BASE 13.74 273 17.75 262 -12.1 96 -12.6 0 0 986.7 NA 0.0000 -SN BR 1900 0 0 0 2360
2019/10/05 04:59:00 BASE 13.23 272 17.75 262 -12.1 96 -12.6 0 0 986.7 NA 0.0000 -SN BR 3000 0 0 0 2260
2019/10/05 05:00:00 BASE 12.24 277 17.75 262 -12.1 96 -12.6 0 0 986.7 NA 0.0000 -SN BR 3200 0 0 0 2030
2019/10/05 05:01:00 BASE 12.71 281 17.75 262 -12.1 96 -12.7 0 0 986.7 NA 0.0000 -SN BR 3400 0 0 0 2070
2019/10/05 05:02:00 BASE 13.39 283 17.75 262 -12.2 96 -12.7 0 0 986.7 NA 0.0000 -SN BR 3900 0 0 0 1870
2019/10/05 05:03:00 BASE 13.37 284 17.75 262 -12.2 96 -12.7 0 0 986.7 NA 0.0000 -SN BR 2600 0 0 0 3080
2019/10/05 05:04:00 BASE 13.73 281 17.75 262 -12.2 96 -12.7 0 0 986.6 NA 0.0000 -SN BR 3400 0 0 0 1800
2019/10/05 05:05:00 BASE 13.85 278 17.75 262 -12.2 96 -12.7 0 0 986.7 NA 0.0000 -SN BR 5000 0 0 0 2330
2019/10/05 05:06:00 BASE 13.66 280 17.65 276 -12.2 97 -12.7 0 0 986.7 NA 0.0000 -SN BR 6000 0 0 0 2720
2019/10/05 05:07:00 BASE 13.08 276 17.65 276 -12.2 97 -12.6 0 0 986.7 NA 0.0000 -SN BR 7000 0 0 0 2490
2019/10/05 05:08:00 BASE 13.14 275 16.05 277 -12.2 97 -12.5 0 0 986.6 NA 0.0000 -SN BR 8000 260 0 0 0
2019/10/05 05:09:00 BASE 13.41 278 16.05 277 -12.1 97 -12.5 0 0 986.6 NA 0.0000 -SN BR 8000 300 0 0 0
2019/10/05 05:10:00 BASE 13.29 279 16.05 277 -12.1 97 -12.5 0 0 986.6 NA 0.0000 -SN BR 7000 300 1540 0 0
2019/10/05 05:11:00 BASE 13.04 280 16.05 277 -12.0 97 -12.4 0 0 986.6 NA 0.0000 -SN BR 7000 330 1940 0 0
2019/10/05 05:12:00 BASE 12.09 276 16.05 277 -12.0 97 -12.4 0 0 986.6 NA 0.0000 -SN BR 7000 330 1800 0 0
2019/10/05 05:13:00 BASE 12.26 273 16.05 277 -12.0 97 -12.3 0 0 986.6 NA 0.0000 -SN BR 7000 390 1510 0 0
2019/10/05 05:14:00 BASE 12.12 270 16.05 277 -12.0 97 -12.3 0 0 986.6 NA 0.0000 -SN BR 6000 300 1540 0 0
2019/10/05 05:15:00 BASE 12.56 265 16.62 262 -11.9 98 -12.2 0 0 986.6 NA 0.0000 -SN BR 7000 330 1410 0 0
2019/10/05 05:16:00 BASE 12.61 270 16.62 262 -11.9 98 -12.2 0 0 986.7 NA 0.0000 -SN BR 7000 0 0 0 2660
2019/10/05 05:17:00 BASE 12.41 277 16.62 262 -11.9 98 -12.1 0 0 986.7 NA 0.0000 -SN BR 7000 330 1350 0 0
2019/10/05 05:18:00 BASE 13.09 277 16.62 262 -11.9 98 -12.1 0 0 986.7 NA 0.0000 -SN BR 7000 330 2000 0 0
2019/10/05 05:19:00 BASE 13.47 276 16.62 262 -11.9 98 -12.1 0 0 986.7 NA 0.0000 -SN BR 7000 260 0 0 0
2019/10/05 05:20:00 BASE 14.47 274 16.77 273 -11.9 98 -12.1 0 0 986.7 NA 0.0000 -SN BR 7000 0 0 0 2330
2019/10/05 05:21:00 BASE 14.82 273 17.39 270 -11.9 98 -12.1 0 0 986.7 NA 0.0000 -SN BR 5000 0 0 0 2490
2019/10/05 05:22:00 BASE 15.11 278 17.39 275 -11.9 98 -12.2 0 0 986.7 NA 0.0000 -SN BR 5000 0 0 0 2490
2019/10/05 05:23:00 BASE 15.59 281 17.54 273 -11.9 98 -12.2 0 0 986.6 NA 0.0000 -SN BR 4900 0 0 0 2490
2019/10/05 05:24:00 BASE 15.60 283 17.54 273 -11.9 98 -12.2 0 0 986.6 NA 0.0000 -SN BR 4000 0 0 0 2330
2019/10/05 05:25:00 BASE 15.70 281 17.54 273 -11.9 98 -12.2 0 0 986.6 NA 0.0000 -SN BR 2100 0 0 0 2230
2019/10/05 05:26:00 BASE 15.45 274 17.54 273 -11.9 98 -12.2 0 0 986.6 NA 0.0000 -SN BR 1900 0 0 0 2230
2019/10/05 05:27:00 BASE 14.49 271 17.54 273 -12.0 98 -12.2 0 0 986.6 NA 0.0000 -SN BR 2600 0 0 0 2260
2019/10/05 05:28:00 BASE 14.09 275 17.54 273 -12.0 98 -12.3 0 0 986.6 NA 0.0000 -SN BR 2200 0 0 0 2100
2019/10/05 05:29:00 BASE 14.30 275 17.54 273 -12.1 98 -12.3 0 0 986.6 NA 0.0000 -SN BR 2000 0 0 0 2360
2019/10/05 05:30:00 BASE 14.65 275 17.54 273 -12.1 98 -12.3 0 0 986.6 NA 0.0000 -SN BR 3200 0 0 0 2620
2019/10/05 05:31:00 BASE 13.52 277 17.54 273 -12.1 98 -12.4 0 0 986.6 NA 0.0000 -SN BR 5000 0 0 0 2170
2019/10/05 05:32:00 BASE 11.85 280 17.54 273 -12.1 98 -12.4 0 0 986.6 NA 0.0000 -SN BR 3600 0 0 0 2330
2019/10/05 05:33:00 BASE 11.60 279 17.39 272 -12.1 98 -12.3 0 0 986.7 NA 0.0000 -SN BR 3200 0 0 0 2260
2019/10/05 05:34:00 BASE 11.37 276 17.39 272 -12.1 98 -12.3 0 0 986.7 NA 0.0000 -SN BR 2000 0 0 0 1940
2019/10/05 05:35:00 BASE 12.19 271 17.39 272 -12.0 98 -12.3 0 0 986.7 NA 0.0000 -SN BR 2100 0 0 0 2070
2019/10/05 05:36:00 BASE 12.37 269 17.39 272 -12.0 98 -12.3 0 0 986.7 NA 0.0000 -SN BR 3200 0 0 0 2590
2019/10/05 05:37:00 BASE 11.65 270 17.39 272 -12.0 98 -12.3 0 0 986.7 NA 0.0000 -SN BR 4800 0 0 0 2330
2019/10/05 05:38:00 BASE 11.48 271 17.39 272 -12.0 98 -12.3 0 0 986.7 NA 0.0000 -SN BR 5000 0 0 0 2230
2019/10/05 05:39:00 BASE 11.06 270 16.87 277 -12.0 98 -12.2 0 0 986.8 NA 0.0000 -SN BR 6000 0 0 0 2100
2019/10/05 05:40:00 BASE 11.12 271 14.87 270 -12.0 98 -12.2 0 0 986.7 NA 0.0000 -SN BR 5000 0 0 0 2300
2019/10/05 05:41:00 BASE 12.64 274 17.08 270 -12.0 98 -12.2 0 0 986.7 NA 0.0000 -SN BR 5000 0 0 0 2300
2019/10/05 05:42:00 BASE 14.56 265 17.80 246 -11.9 98 -12.2 0 0 986.7 NA 0.0000 -SN BR 4600 0 0 0 2260
2019/10/05 05:43:00 BASE 15.04 258 17.80 254 -11.9 98 -12.1 0 0 986.7 NA 0.0000 -SN BR 3300 0 0 0 2330
2019/10/05 05:44:00 BASE 13.90 260 17.80 254 -11.9 99 -12.1 0 0 986.8 NA 0.0000 -SN BR 3500 0 0 0 2200
2019/10/05 05:45:00 BASE 11.00 267 17.80 254 -11.9 99 -12.1 0 0 986.8 NA 0.0000 -SN BR 5000 0 0 0 1970
2019/10/05 05:46:00 BASE 10.40 271 17.80 254 -11.9 99 -12.1 0 0 986.8 NA 0.0000 -SN BR 5000 0 0 0 2070
2019/10/05 05:47:00 BASE 11.83 271 17.80 254 -11.9 98 -12.1 0 0 986.8 NA 0.0000 -SN BR 4800 0 0 0 2070
2019/10/05 05:48:00 BASE 11.28 272 17.80 254 -11.9 98 -12.2 0 0 986.8 NA 0.0000 -SN BR 5000 0 0 0 2000
2019/10/05 05:49:00 BASE 11.33 269 17.80 254 -12.0 98 -12.2 0 0 986.8 NA 0.0000 -SN BR 4800 0 0 0 2100
2019/10/05 05:50:00 BASE 12.91 263 17.80 254 -12.0 98 -12.2 0 0 986.8 NA 0.0000 -SN BR 4800 0 0 0 2170
2019/10/05 05:51:00 BASE 14.90 262 18.31 266 -12.0 98 -12.2 0 0 986.9 NA 0.0000 -SN BR 5000 0 0 0 2000
2019/10/05 05:52:00 BASE 14.63 263 18.31 266 -12.0 99 -12.2 0 0 986.9 NA 0.0000 -SN BR 4100 0 0 0 1900
2019/10/05 05:53:00 BASE 13.71 262 18.31 266 -12.0 99 -12.2 0 0 986.9 NA 0.0000 -SN BR 4200 0 0 0 1870
2019/10/05 05:54:00 BASE 13.70 260 18.31 266 -12.0 99 -12.1 0 0 986.9 NA 0.0000 -SN BR 4000 0 0 0 1900
2019/10/05 05:55:00 BASE 14.43 262 18.83 266 -12.0 99 -12.1 0 0 986.9 NA 0.0000 -SN BR 3100 0 0 0 2300
2019/10/05 05:56:00 BASE 14.33 267 18.83 266 -12.0 99 -12.1 0 0 986.9 NA 0.0000 -SN BR 3500 0 0 0 2200
2019/10/05 05:57:01 BASE 14.17 265 20.11 254 -12.0 99 -12.1 0 0 986.9 NA 0.0000 -SN BR 4200 0 0 0 2400
2019/10/05 05:58:01 BASE 16.44 260 20.11 254 -12.0 99 -12.1 0 0 987.0 NA 0.0000 -SN BR 4500 0 0 0 2300
2019/10/05 05:59:01 BASE 18.65 256 21.97 240 -12.0 99 -12.1 0 0 986.9 NA 0.0000 -SN BR 4000 0 0 0 2260
2019/10/05 06:00:01 BASE 19.21 257 21.97 240 -12.0 99 -12.2 0 0 987.0 NA 0.0000 -SN BR 4200 0 0 0 2360
2019/10/05 06:01:01 BASE 18.50 259 21.97 240 -12.0 99 -12.2 0 0 987.0 NA 0.0000 -SN BR 2900 0 0 0 2400
2019/10/05 06:02:01 BASE 17.98 261 21.97 240 -12.0 98 -12.2 0 0 987.0 NA 0.0000 -SN BR 3200 0 0 0 2460
2019/10/05 06:03:01 BASE 17.32 259 21.97 240 -12.0 98 -12.2 0 0 987.0 NA 0.0000 -SN BR 3300 0 0 0 2460
2019/10/05 06:04:01 BASE 16.88 257 21.97 240 -12.0 98 -12.3 0 0 987.1 NA 0.0000 -SN BR 3200 330 1640 0 0
2019/10/05 06:05:01 BASE 16.17 258 21.97 240 -12.0 98 -12.3 0 0 987.1 NA 0.0000 -SN BR 3200 360 1840 0 0
2019/10/05 06:06:01 BASE 15.48 257 21.97 240 -12.0 98 -12.3 0 0 987.0 NA 0.0000 -SN BR 3100 360 0 0 0
2019/10/05 06:07:00 BASE 16.98 258 21.97 240 -12.0 98 -12.3 0 0 987.0 NA 0.0000 -SN BR 3000 0 0 0 2620
2019/10/05 06:08:00 BASE 18.04 261 21.97 240 -12.0 98 -12.3 0 0 987.0 NA 0.0000 -SN BR 3000 0 0 0 2330
2019/10/05 06:09:01 BASE 17.11 262 20.68 261 -12.0 98 -12.3 0 0 987.1 NA 0.0000 -SN BR 2900 0 0 0 2460
2019/10/05 06:10:00 BASE 17.17 260 20.58 264 -12.0 98 -12.3 0 0 987.1 NA 0.0000 -SN BR 2800 0 0 0 2530
2019/10/05 06:11:00 BASE 15.82 258 20.58 264 -12.0 98 -12.3 0 0 987.1 NA 0.0000 BR 2800 0 0 0 2620
2019/10/05 06:12:00 BASE 14.39 258 20.58 264 -12.0 98 -12.3 0 0 987.1 NA 0.0000 BR 2700 330 0 0 0
2019/10/05 06:13:00 BASE 14.75 259 20.58 264 -12.0 98 -12.3 0 0 987.1 NA 0.0000 BR 2700 0 0 0 2560
2019/10/05 06:14:00 BASE 13.25 268 20.58 264 -12.0 98 -12.3 0 0 987.2 NA 0.0000 BR 2600 300 1250 0 0
2019/10/05 06:15:00 BASE 12.15 274 20.58 264 -12.0 98 -12.3 0 0 987.2 NA 0.0000 BR 2600 360 2100 0 0
2019/10/05 06:16:00 BASE 11.92 272 20.58 264 -12.0 98 -12.3 0 0 987.2 NA 0.0000 BR 2600 330 2030 0 0
2019/10/05 06:17:00 BASE 12.02 271 20.37 254 -12.1 97 -12.4 0 0 987.2 NA 0.0000 BR 2500 260 1280 0 0
2019/10/05 06:18:01 BASE 12.51 268 19.70 256 -12.1 97 -12.4 0 0 987.2 NA 0.0000 BR 2500 0 0 0 2620
2019/10/05 06:19:00 BASE 12.46 272 19.70 256 -12.1 97 -12.5 0 0 987.2 NA 0.0000 BR 2500 230 0 0 0
2019/10/05 06:20:00 BASE 13.02 275 17.44 263 -12.2 97 -12.5 0 0 987.2 NA 0.0000 BR 2400 0 0 0 2620
2019/10/05 06:21:00 BASE 13.41 274 17.44 263 -12.2 97 -12.6 0 0 987.2 NA 0.0000 BR 2400 0 0 0 2720
2019/10/05 06:22:00 BASE 13.14 274 17.29 259 -12.2 97 -12.6 0 0 987.2 NA 0.0000 BR 2400 0 0 0 2790
2019/10/05 06:23:00 BASE 12.74 269 16.62 260 -12.2 97 -12.6 0 0 987.3 NA 0.0000 BR 2500 0 0 0 2760
2019/10/05 06:24:00 BASE 11.96 270 16.62 260 -12.2 97 -12.6 0 0 987.3 NA 0.0000 -SN BR 3400 0 0 0 2850
2019/10/05 06:25:00 BASE 12.23 274 16.62 277 -12.2 97 -12.6 0 0 987.3 NA 0.0000 -SN BR 3700 0 0 0 2760
2019/10/05 06:26:00 BASE 13.79 274 16.62 277 -12.2 97 -12.6 0 0 987.3 NA 0.0000 -SN BR 3200 0 0 0 2690
2019/10/05 06:27:00 BASE 14.22 274 16.67 272 -12.2 97 -12.6 0 0 987.3 NA 0.0000 -SN BR 3200 0 0 0 2790
2019/10/05 06:28:00 BASE 12.72 273 16.67 272 -12.2 97 -12.6 0 0 987.3 NA 0.0000 -SN BR 2900 0 0 0 2760
2019/10/05 06:29:00 BASE 11.93 275 16.67 272 -12.2 97 -12.6 0 0 987.3 NA 0.0000 -SN BR 2800 0 0 0 2590
2019/10/05 06:30:00 BASE 12.97 275 16.67 272 -12.2 97 -12.6 0 0 987.3 NA 0.0000 -SN BR 2300 0 0 0 2000
2019/10/05 06:31:00 BASE 12.12 273 16.67 272 -12.2 97 -12.6 0 0 987.4 NA 0.0000 -SN BR 2500 0 0 0 2560
2019/10/05 06:32:00 BASE 10.43 273 16.67 272 -12.2 97 -12.6 0 0 987.4 NA 0.0000 -SN BR 3200 0 0 0 2560
2019/10/05 06:33:00 BASE 10.97 266 16.67 272 -12.2 97 -12.6 0 0 987.4 NA 0.0000 -SN BR 4000 0 0 0 2660
2019/10/05 06:34:00 BASE 11.03 265 16.67 272 -12.2 97 -12.6 0 0 987.4 NA 0.0000 -SN BR 4400 0 0 0 2890
2019/10/05 06:35:00 BASE 11.55 266 16.67 272 -12.2 97 -12.6 0 0 987.4 NA 0.0000 -SN BR 4400 0 0 0 2790
2019/10/05 06:36:00 BASE 11.68 265 16.67 272 -12.2 97 -12.6 0 0 987.4 NA 0.0000 -SN BR 3300 0 0 0 2530
2019/10/05 06:37:00 BASE 11.07 265 16.26 263 -12.2 97 -12.5 0 0 987.4 NA 0.0000 -SN BR 3700 0 0 0 2790
2019/10/05 06:38:00 BASE 13.57 264 18.06 264 -12.2 98 -12.5 0 0 987.3 NA 0.0000 -SN BR 4700 0 0 0 2920
2019/10/05 06:39:00 BASE 14.87 265 18.06 264 -12.2 98 -12.5 0 0 987.3 NA 0.0000 -SN BR 4000 0 0 0 2920
2019/10/05 06:40:00 BASE 12.74 263 18.06 264 -12.2 98 -12.4 0 0 987.4 NA 0.0000 -SN BR 4000 0 0 0 2720
2019/10/05 06:41:00 BASE 12.20 261 18.06 264 -12.2 98 -12.4 0 0 987.4 NA 0.0000 -SN BR 4100 0 0 0 2890
2019/10/05 06:42:00 BASE 12.08 263 18.06 264 -12.1 98 -12.4 0 0 987.4 NA 0.0000 -SN BR 5000 390 2620 0 0
2019/10/05 06:43:00 BASE 11.28 264 18.06 264 -12.1 98 -12.4 0 0 987.5 NA 0.0000 -SN BR 5000 390 2620 0 0
2019/10/05 06:44:00 BASE 12.81 261 18.06 264 -12.1 98 -12.4 0 0 987.4 NA 0.0000 -SN BR 5000 300 0 0 0
2019/10/05 06:45:00 BASE 13.70 260 18.06 264 -12.1 98 -12.4 0 0 987.4 NA 0.0000 -SN BR 5000 0 0 0 2850
2019/10/05 06:46:00 BASE 15.20 261 19.81 284 -12.1 97 -12.4 0 0 987.4 NA 0.0000 -SN BR 5000 390 2330 0 0
2019/10/05 06:47:00 BASE 16.92 260 20.17 265 -12.1 97 -12.5 0 0 987.3 NA 0.0000 -SN BR 5000 330 2200 0 0
2019/10/05 06:48:00 BASE 16.02 261 20.17 265 -12.1 97 -12.5 0 0 987.4 NA 0.0000 -SN BR 5000 360 1380 0 0
2019/10/05 06:49:00 BASE 16.53 262 21.61 258 -12.2 97 -12.5 0 0 987.3 NA 0.0000 -SN BR 5000 330 1710 0 0
2019/10/05 06:50:00 BASE 16.83 261 21.61 258 -12.2 97 -12.6 0 0 987.3 NA 0.0000 -SN BR 5000 360 2620 0 0
2019/10/05 06:51:00 BASE 16.24 261 21.61 258 -12.2 97 -12.6 0 0 987.3 NA 0.0000 BR 5000 330 2560 0 0
2019/10/05 06:52:00 BASE 15.47 262 21.61 258 -12.2 97 -12.6 0 0 987.3 NA 0.0000 BR 5000 330 0 0 0
2019/10/05 06:53:00 BASE 14.86 261 21.61 258 -12.2 97 -12.6 0 0 987.3 NA 0.0000 BR 5000 390 0 0 0
2019/10/05 06:54:00 BASE 14.54 260 21.61 258 -12.2 97 -12.6 0 0 987.3 NA 0.0000 BR 5000 390 1380 0 0
2019/10/05 06:55:00 BASE 13.43 263 21.61 258 -12.2 97 -12.6 0 0 987.3 NA 0.0000 BR 5000 260 3180 0 0
2019/10/05 06:56:00 BASE 12.80 264 21.61 258 -12.2 97 -12.6 0 0 987.4 NA 0.0000 BR 5000 0 0 0 3310
2019/10/05 06:57:00 BASE 11.71 268 21.61 258 -12.2 96 -12.7 0 0 987.4 NA 0.0000 BR 5000 300 3080 0 0
2019/10/05 06:58:00 BASE 10.91 269 21.61 258 -12.2 96 -12.7 0 0 987.4 NA 0.0000 BR 5000 300 0 0 0
2019/10/05 06:59:00 BASE 10.54 269 20.17 264 -12.2 96 -12.7 0 0 987.4 NA 0.0000 BR 5000 230 2530 0 0
2019/10/05 07:00:00 BASE 10.59 271 20.17 264 -12.2 96 -12.7 0 0 987.4 NA 0.0000 BR 4900 260 2400 0 0
2019/10/05 07:01:00 BASE 11.36 271 17.90 263 -12.2 96 -12.7 0 0 987.4 NA 0.0000 BR 4700 260 2490 0 0
2019/10/05 07:02:00 BASE 10.85 273 17.90 263 -12.3 96 -12.8 0 0 987.4 NA 0.0000 -SN BR 4300 0 0 0 2950
2019/10/05 07:03:01 BASE 10.38 275 17.90 263 -12.3 96 -12.8 0 0 987.4 NA 0.0000 -SN BR 3300 2530 0 0 0
2019/10/05 07:04:01 BASE 11.33 272 17.90 263 -12.3 96 -12.8 0 0 987.4 NA 0.0000 -SN BR 2500 0 0 0 1710
2019/10/05 07:05:01 BASE 11.26 267 16.46 262 -12.3 96 -12.8 0 0 987.4 NA 0.0000 -SN BR 2200 0 0 0 2990
2019/10/05 07:06:01 BASE 10.82 267 16.46 262 -12.3 96 -12.8 0 0 987.4 NA 0.0000 -SN BR 3300 0 0 0 3050
2019/10/05 07:07:01 BASE 10.86 272 16.46 262 -12.3 96 -12.8 0 0 987.4 NA 0.0000 -SN BR 3900 0 0 0 2760
2019/10/05 07:08:01 BASE 11.67 274 16.46 262 -12.3 96 -12.8 0 0 987.4 NA 0.0000 -SN BR 2600 0 0 0 2790
2019/10/05 07:09:01 BASE 11.43 271 16.46 262 -12.3 96 -12.8 0 0 987.4 NA 0.0000 -SN BR 1900 0 0 0 2820
2019/10/05 07:10:01 BASE 12.52 267 17.29 265 -12.3 96 -12.8 0 0 987.3 NA 0.0000 -SN BR 2500 0 0 0 2950
2019/10/05 07:11:00 BASE 12.83 268 17.29 265 -12.3 96 -12.8 0 0 987.4 NA 0.0000 -SN BR 2900 0 0 0 2850
2019/10/05 07:12:00 BASE 11.65 274 17.29 265 -12.3 96 -12.8 0 0 987.4 NA 0.0000 -SN BR 2400 0 0 0 3150
2019/10/05 07:13:00 BASE 11.34 275 17.29 265 -12.3 96 -12.8 0 0 987.4 NA 0.0000 -SN BR 2600 0 0 0 2890
2019/10/05 07:14:00 BASE 10.93 274 17.29 265 -12.3 96 -12.8 0 0 987.4 NA 0.0000 -SN BR 3600 0 0 0 2990
2019/10/05 07:15:00 BASE 11.77 275 17.29 265 -12.4 96 -12.9 0 0 987.3 NA 0.0000 -SN BR 3600 0 0 0 2890
2019/10/05 07:16:00 BASE 12.74 276 17.29 265 -12.4 96 -12.9 0 0 987.3 NA 0.0000 -SN BR 3500 0 0 0 2890
2019/10/05 07:17:00 BASE 12.68 273 17.29 265 -12.4 96 -12.9 0 0 987.4 NA 0.0000 -SN BR 3400 0 0 0 2920
2019/10/05 07:18:01 BASE 12.01 271 17.29 265 -12.5 96 -13.0 0 0 987.4 NA 0.0000 -SN BR 2700 0 0 0 2660
2019/10/05 07:19:01 BASE 11.38 271 17.29 265 -12.5 96 -13.0 0 0 987.4 NA 0.0000 -SN BR 2000 0 0 0 2820
2019/10/05 07:20:00 BASE 11.56 272 15.95 267 -12.5 96 -13.0 0 0 987.4 NA 0.0000 -SN BR 2600 0 0 0 1970
2019/10/05 07:21:00 BASE 11.55 274 15.95 267 -12.5 96 -13.0 0 0 987.4 NA 0.0000 -SN BR 2700 0 0 0 2850
2019/10/05 07:22:00 BASE 12.06 277 17.08 273 -12.5 96 -13.0 0 0 987.4 NA 0.0000 -SN BR 2500 0 0 0 3310
2019/10/05 07:23:00 BASE 13.28 278 17.08 273 -12.5 96 -13.0 0 0 987.4 NA 0.0000 -SN BR 2400 0 0 0 3280
2019/10/05 07:24:00 BASE 13.03 276 17.08 273 -12.5 96 -13.0 0 0 987.4 NA 0.0000 -SN BR 2800 0 0 0 3220
2019/10/05 07:25:00 BASE 13.06 275 17.08 273 -12.5 96 -13.0 0 0 987.4 NA 0.0000 -SN BR 2900 0 0 0 3220
2019/10/05 07:26:00 BASE 13.85 274 17.08 273 -12.6 96 -13.0 0 0 987.4 NA 0.0000 -SN BR 2800 0 0 0 3020
2019/10/05 07:27:00 BASE 13.07 273 17.08 273 -12.6 97 -13.0 0 0 987.5 NA 0.0000 -SN BR 2800 0 0 0 2990
2019/10/05 07:28:01 BASE 12.33 275 17.08 273 -12.6 97 -13.0 0 0 987.5 NA 0.0000 -SN BR 2700 0 0 0 3080
2019/10/05 07:29:01 BASE 12.23 273 17.08 273 -12.6 97 -13.0 0 0 987.6 NA 0.0000 -SN BR 2800 0 0 0 3180
2019/10/05 07:30:01 BASE 11.82 271 17.08 273 -12.6 97 -13.0 0 0 987.5 NA 0.0000 -SN BR 3100 0 0 0 3280
2019/10/05 07:31:01 BASE 12.89 270 17.08 273 -12.6 97 -13.0 0 0 987.5 NA 0.0000 -SN BR 3200 0 0 0 2260
2019/10/05 07:32:01 BASE 13.24 271 16.67 271 -12.6 97 -13.0 0 0 987.5 NA 0.0000 -SN BR 3100 0 0 0 3180
2019/10/05 07:33:01 BASE 12.23 274 16.67 271 -12.6 97 -13.0 0 0 987.5 NA 0.0000 -SN BR 3100 0 0 0 3050
2019/10/05 07:34:00 BASE 12.19 275 16.67 271 -12.6 97 -13.0 0 0 987.5 NA 0.0000 -SN BR 3100 0 0 0 3220
2019/10/05 07:35:00 BASE 13.48 276 16.67 271 -12.6 97 -13.0 0 0 987.5 NA 0.0000 -SN BR 3000 0 0 0 3280
2019/10/05 07:36:00 BASE 13.77 275 16.87 271 -12.6 97 -13.0 0 0 987.5 NA 0.0000 -SN BR 3000 0 0 0 3450
2019/10/05 07:37:00 BASE 13.44 273 16.87 271 -12.6 97 -13.0 0 0 987.5 NA 0.0000 -SN BR 3000 0 0 0 3310
2019/10/05 07:38:00 BASE 13.83 274 16.87 271 -12.6 97 -13.0 0 0 987.5 NA 0.0000 -SN BR 2900 0 0 0 2170
2019/10/05 07:39:00 BASE 13.20 275 16.87 271 -12.6 97 -13.0 0 0 987.5 NA 0.0000 -SN BR 2800 0 0 0 3350
2019/10/05 07:40:00 BASE 12.01 277 16.87 271 -12.6 97 -13.0 0 0 987.6 NA 0.0000 -SN BR 2800 0 0 0 3350
2019/10/05 07:41:00 BASE 11.87 275 16.87 271 -12.6 97 -13.0 0 0 987.5 NA 0.0000 -SN BR 3100 0 0 0 2000
2019/10/05 07:42:00 BASE 11.51 273 16.87 271 -12.6 97 -13.0 0 0 987.6 NA 0.0000 -SN BR 3100 0 0 0 3380
2019/10/05 07:43:00 BASE 12.01 270 16.87 271 -12.6 97 -13.0 0 0 987.5 NA 0.0000 -SN BR 3000 0 0 0 2950
2019/10/05 07:44:00 BASE 12.62 269 16.87 271 -12.6 97 -13.0 0 0 987.5 NA 0.0000 -SN BR 3000 0 0 0 2100
2019/10/05 07:45:00 BASE 12.86 272 16.87 271 -12.6 97 -13.0 0 0 987.5 NA 0.0000 -SN BR 2700 0 0 0 1900
2019/10/05 07:46:00 BASE 13.11 272 16.20 282 -12.6 97 -13.0 0 0 987.6 NA 0.0000 -SN BR 2300 0 0 0 3380
2019/10/05 07:47:00 BASE 12.13 269 16.20 282 -12.6 97 -13.0 0 0 987.5 NA 0.0000 -SN BR 2300 0 0 0 3350
2019/10/05 07:48:00 BASE 11.35 269 16.10 269 -12.6 97 -13.0 0 0 987.5 NA 0.0000 -SN BR 2400 0 0 0 2490
2019/10/05 07:49:00 BASE 11.85 271 16.10 269 -12.6 97 -13.0 0 0 987.5 NA 0.0000 -SN BR 3000 0 0 0 2170
2019/10/05 07:50:00 BASE 12.49 273 16.10 269 -12.6 97 -13.0 0 0 987.5 NA 0.0000 -SN BR 3000 0 0 0 2360
2019/10/05 07:51:01 BASE 12.51 274 16.10 269 -12.6 97 -13.0 0 0 987.5 NA 0.0000 -SN BR 3000 0 0 0 3740
2019/10/05 07:52:01 BASE 12.69 273 16.10 269 -12.6 97 -13.0 0 0 987.5 NA 0.0000 -SN BR 3000 0 0 0 3610
2019/10/05 07:53:01 BASE 13.12 270 15.84 266 -12.6 97 -13.0 0 0 987.5 NA 0.0000 -SN BR 2900 0 0 0 3480
2019/10/05 07:54:01 BASE 13.36 269 16.77 262 -12.6 97 -13.0 0 0 987.5 NA 0.0000 -SN BR 2900 0 0 0 3350
2019/10/05 07:55:01 BASE 13.22 272 16.77 262 -12.6 97 -13.0 0 0 987.5 NA 0.0000 -SN BR 2900 0 0 0 3380
2019/10/05 07:56:01 BASE 13.41 273 17.34 268 -12.6 97 -13.0 0 0 987.6 NA 0.0000 -SN BR 2900 0 0 0 3310
2019/10/05 07:57:00 BASE 13.95 273 17.34 268 -12.6 97 -13.0 0 0 987.5 NA 0.0000 -SN BR 2900 260 2820 0 0
2019/10/05 07:58:00 BASE 13.37 272 17.34 268 -12.6 97 -13.0 0 0 987.6 NA 0.0000 -SN BR 2800 0 0 0 3220
2019/10/05 07:59:00 BASE 12.66 272 17.34 268 -12.6 97 -13.0 0 0 987.6 NA 0.0000 -SN BR 2800 0 0 0 3280
2019/10/05 08:00:00 BASE 12.27 267 17.34 268 -12.6 97 -13.0 0 0 987.6 NA 0.0000 -SN BR 2800 0 0 0 3220
2019/10/05 08:01:00 BASE 11.72 270 17.34 268 -12.6 97 -13.0 0 0 987.6 NA 0.0000 -SN BR 2800 0 0 0 3220
2019/10/05 08:02:00 BASE 12.32 277 17.75 267 -12.6 97 -13.0 0 0 987.6 NA 0.0000 -SN BR 2800 0 0 0 3220
2019/10/05 08:03:00 BASE 11.87 277 17.75 267 -12.6 97 -13.0 0 0 987.6 NA 0.0000 -SN BR 2800 0 0 0 3220
2019/10/05 08:04:00 BASE 11.88 276 17.75 267 -12.6 97 -13.0 0 0 987.6 NA 0.0000 -SN BR 2700 0 0 0 3180
2019/10/05 08:05:00 BASE 13.22 274 17.75 267 -12.6 97 -13.0 0 0 987.6 NA 0.0000 -SN BR 2300 0 0 0 2000
2019/10/05 08:06:00 BASE 13.57 273 18.06 272 -12.6 97 -13.0 0 0 987.6 NA 0.0000 -SN BR 1900 0 0 0 2170
2019/10/05 08:07:00 BASE 14.54 274 18.06 272 -12.6 97 -13.0 0 0 987.6 NA 0.0000 -SN BR 2000 0 0 0 2100
2019/10/05 08:08:01 BASE 13.43 274 18.06 272 -12.6 97 -13.0 0 0 987.6 NA 0.0000 -SN BR 2000 0 0 0 2460
2019/10/05 08:09:01 BASE 11.30 274 18.06 272 -12.6 97 -13.0 0 0 987.7 NA 0.0000 -SN BR 2200 0 0 0 2070
2019/10/05 08:10:00 BASE 11.01 271 18.06 272 -12.6 97 -13.0 0 0 987.7 NA 0.0000 -SN BR 2200 0 0 0 3020
2019/10/05 08:11:00 BASE 10.91 267 18.06 272 -12.6 97 -13.0 0 0 987.8 NA 0.0000 -SN BR 2700 0 0 0 2850
2019/10/05 08:12:00 BASE 11.81 270 18.06 272 -12.6 97 -13.0 0 0 987.8 NA 0.0000 -SN BR 3500 0 0 0 2790
2019/10/05 08:13:00 BASE 11.65 272 18.06 272 -12.6 97 -13.0 0 0 987.7 NA 0.0000 -SN BR 4200 0 0 0 2820
2019/10/05 08:14:00 BASE 12.03 271 18.06 272 -12.6 97 -13.0 0 0 987.7 NA 0.0000 -SN BR 3300 0 0 0 2660
2019/10/05 08:15:00 BASE 12.41 270 18.06 272 -12.6 97 -13.0 0 0 987.7 NA 0.0000 -SN BR 2300 0 0 0 2790
2019/10/05 08:16:00 BASE 11.87 272 17.75 269 -12.6 97 -13.0 0 0 987.7 NA 0.0000 -SN BR 2200 0 0 0 2460
2019/10/05 08:17:00 BASE 13.11 272 16.72 264 -12.6 97 -13.0 0 0 987.7 NA 0.0000 -SN BR 2100 0 0 0 2400
2019/10/05 08:18:00 BASE 13.27 272 16.72 264 -12.6 97 -13.0 0 0 987.7 NA 0.0000 -SN BR 2600 0 0 0 2590
2019/10/05 08:19:00 BASE 12.21 275 16.72 264 -12.6 97 -13.0 0 0 987.7 NA 0.0000 -SN BR 2700 0 0 0 2530
2019/10/05 08:20:00 BASE 12.19 276 16.72 264 -12.6 97 -13.0 0 0 987.7 NA 0.0000 -SN BR 2600 0 0 0 2590
2019/10/05 08:21:00 BASE 12.90 275 16.72 264 -12.6 97 -13.0 0 0 987.6 NA 0.0000 -SN BR 2500 0 0 0 2660
2019/10/05 08:22:00 BASE 12.89 274 16.72 264 -12.6 97 -13.0 0 0 987.7 NA 0.0000 -SN BR 2300 0 0 0 2660
2019/10/05 08:23:00 BASE 12.17 270 16.72 264 -12.6 97 -13.0 0 0 987.7 NA 0.0000 -SN BR 2400 0 0 0 2660
2019/10/05 08:24:00 BASE 12.07 270 16.72 264 -12.6 97 -13.0 0 0 987.7 NA 0.0000 -SN BR 2300 0 0 0 2560
2019/10/05 08:25:00 BASE 13.54 271 16.72 264 -12.6 97 -13.0 0 0 987.6 NA 0.0000 -SN BR 2200 0 0 0 2400
2019/10/05 08:26:00 BASE 14.93 270 16.72 264 -12.6 97 -13.0 0 0 987.6 NA 0.0000 -SN BR 2100 0 0 0 2330
2019/10/05 08:27:00 BASE 14.65 270 16.93 271 -12.6 97 -13.0 0 0 987.7 NA 0.0000 -SN BR 2200 0 0 0 2300
2019/10/05 08:28:00 BASE 13.37 271 16.93 271 -12.6 97 -13.0 0 0 987.7 NA 0.0000 -SN BR 2200 0 0 0 2170
2019/10/05 08:29:00 BASE 13.07 270 16.93 271 -12.6 97 -13.0 0 0 987.7 NA 0.0000 -SN BR 2600 0 0 0 2260
2019/10/05 08:30:00 BASE 13.62 273 16.93 271 -12.6 97 -13.0 0 0 987.7 NA 0.0000 -SN BR 4300 0 0 0 2300
2019/10/05 08:31:01 BASE 13.26 276 16.93 271 -12.6 97 -13.0 0 0 987.7 NA 0.0000 -SN BR 3900 0 0 0 2230
2019/10/05 08:32:01 BASE 13.11 275 16.93 271 -12.6 97 -13.0 0 0 987.8 NA 0.0000 -SN BR 3500 0 0 0 2200
2019/10/05 08:33:01 BASE 13.07 276 16.93 271 -12.6 97 -13.0 0 0 987.7 NA 0.0000 -SN BR 4100 0 0 0 2100
2019/10/05 08:34:01 BASE 13.05 278 16.93 271 -12.6 97 -13.0 0 0 987.7 NA 0.0000 -SN BR 4200 0 0 0 2030
2019/10/05 08:35:01 BASE 13.63 277 16.93 271 -12.6 97 -13.0 0 0 987.7 NA 0.0000 -SN BR 3800 0 0 0 2130
2019/10/05 08:36:01 BASE 13.26 274 16.93 271 -12.6 97 -13.0 0 0 987.7 NA 0.0000 -SN BR 4000 0 0 0 2330
2019/10/05 08:37:01 BASE 11.83 274 16.10 260 -12.6 97 -13.0 0 0 987.7 NA 0.0000 -SN BR 5000 0 0 0 2400
2019/10/05 08:38:01 BASE 12.04 275 16.20 268 -12.6 97 -13.0 0 0 987.7 NA 0.0000 -SN BR 5000 0 0 0 2260
2019/10/05 08:39:01 BASE 13.49 272 16.31 271 -12.6 97 -13.0 0 0 987.7 NA 0.0000 -SN BR 3700 0 0 0 2460
2019/10/05 08:40:00 BASE 14.03 272 16.57 277 -12.6 97 -13.0 0 0 987.7 NA 0.0000 -SN BR 3000 0 0 0 2260
2019/10/05 08:41:01 BASE 13.49 272 16.57 277 -12.6 97 -13.0 0 0 987.7 NA 0.0000 -SN BR 5000 0 0 0 2560
2019/10/05 08:42:01 BASE 13.19 276 16.57 277 -12.6 97 -13.0 0 0 987.7 NA 0.0000 -SN BR 4400 0 0 0 2230
2019/10/05 08:43:00 BASE 13.53 278 16.57 277 -12.6 97 -13.0 0 0 987.7 NA 0.0000 -SN BR 3500 0 0 0 2170
2019/10/05 08:44:00 BASE 12.67 275 16.57 277 -12.6 97 -13.0 0 0 987.7 NA 0.0000 -SN BR 3800 0 0 0 2130
2019/10/05 08:45:00 BASE 11.86 273 16.57 277 -12.6 97 -13.0 0 0 987.7 NA 0.0000 -SN BR 4000 0 0 0 2260
2019/10/05 08:46:00 BASE 12.32 269 16.57 277 -12.6 97 -13.0 0 0 987.7 NA 0.0000 -SN BR 5000 0 0 0 2260
2019/10/05 08:47:00 BASE 12.71 266 16.57 277 -12.6 97 -13.0 0 0 987.7 NA 0.0000 -SN BR 5000 0 0 0 2360
2019/10/05 08:48:00 BASE 11.42 266 16.57 277 -12.6 97 -12.9 0 0 987.8 NA 0.0000 -SN BR 6000 0 0 0 2330
2019/10/05 08:49:00 BASE 10.03 268 16.57 277 -12.6 98 -12.9 0 0 987.8 NA 0.0000 -SN BR 6000 0 0 0 2130
2019/10/05 08:50:00 BASE 11.08 272 15.69 264 -12.6 98 -12.9 0 0 987.8 NA 0.0000 -SN BR 6000 0 0 0 2490
2019/10/05 08:51:00 BASE 13.02 273 16.05 277 -12.6 98 -12.9 0 0 987.8 NA 0.0000 -SN BR 6000 0 0 0 2300
2019/10/05 08:52:00 BASE 12.87 273 16.05 277 -12.6 98 -12.9 0 0 987.8 NA 0.0000 -SN BR 5000 0 0 0 2130
2019/10/05 08:53:00 BASE 11.48 274 16.05 277 -12.6 98 -12.9 0 0 987.9 NA 0.0000 -SN BR 5000 0 0 0 2300
2019/10/05 08:54:00 BASE 11.24 274 16.05 277 -12.6 98 -12.9 0 0 987.8 NA 0.0000 -SN BR 5000 0 0 0 2400
2019/10/05 08:55:00 BASE 11.86 274 16.05 277 -12.6 98 -12.9 0 0 987.8 NA 0.0000 -SN BR 5000 0 0 0 2400
2019/10/05 08:56:00 BASE 11.71 271 16.05 277 -12.6 98 -12.9 0 0 987.9 NA 0.0000 -SN BR 5000 0 0 0 2490
2019/10/05 08:57:00 BASE 11.72 269 16.05 277 -12.6 98 -12.9 0 0 987.9 NA 0.0000 -SN BR 4800 0 0 0 2530
2019/10/05 08:58:00 BASE 12.01 268 16.05 277 -12.6 98 -12.9 0 0 987.9 NA 0.0000 -SN BR 2100 0 0 0 2360
2019/10/05 08:59:00 BASE 11.75 269 16.05 277 -12.6 98 -12.9 0 0 987.9 NA 0.0000 -SN BR 1800 0 0 0 2400
2019/10/05 09:00:00 BASE 11.89 272 16.05 277 -12.6 98 -12.9 0 0 987.8 NA 0.0000 -SN BR 3500 0 0 0 2330
2019/10/05 09:01:00 BASE 12.36 275 15.79 273 -12.6 98 -12.9 0 0 987.8 NA 0.0000 -SN BR 4800 0 0 0 2230
2019/10/05 09:02:00 BASE 13.14 270 16.31 284 -12.7 98 -12.9 1 0 987.8 NA 0.0000 -SN BR 5000 0 0 0 2460
2019/10/05 09:03:00 BASE 13.85 264 16.31 284 -12.7 98 -12.9 1 0 987.8 NA 0.0000 -SN BR 6000 0 0 0 2330
2019/10/05 09:04:00 BASE 13.63 268 16.31 284 -12.7 98 -12.9 1 0 987.8 NA 0.0000 -SN BR 5000 0 0 0 2430
2019/10/05 09:05:00 BASE 12.57 272 16.31 284 -12.7 98 -12.9 1 0 987.9 NA 0.0000 -SN BR 5000 0 0 0 2430
2019/10/05 09:06:00 BASE 12.13 272 16.31 284 -12.7 98 -12.9 1 0 987.9 NA 0.0000 -SN BR 5000 0 0 0 2490
2019/10/05 09:07:00 BASE 12.24 272 16.31 284 -12.7 98 -12.9 1 0 987.8 NA 0.0000 -SN BR 5000 300 2100 0 0
2019/10/05 09:08:00 BASE 12.01 276 16.31 284 -12.7 98 -12.9 1 0 987.8 NA 0.0000 -SN BR 4800 260 2000 0 0
2019/10/05 09:09:00 BASE 11.65 275 16.31 284 -12.7 98 -13.0 1 0 987.9 NA 0.0000 -SN BR 4600 330 0 0 0
2019/10/05 09:10:01 BASE 11.39 267 16.31 284 -12.7 98 -13.0 1 0 987.9 NA 0.0000 BR 4500 260 2260 0 0
2019/10/05 09:11:01 BASE 11.21 267 16.31 284 -12.7 98 -13.0 1 0 987.9 NA 0.0000 BR 4300 260 1710 0 0
2019/10/05 09:12:01 BASE 11.54 273 15.74 260 -12.7 98 -12.9 2 0 987.9 NA 0.0000 BR 4100 230 2200 0 0
2019/10/05 09:13:01 BASE 11.57 273 14.97 269 -12.7 98 -12.9 2 0 987.9 NA 0.0000 BR 4000 0 0 0 2490
2019/10/05 09:14:01 BASE 11.34 269 15.23 273 -12.7 98 -12.9 2 0 987.9 NA 0.0000 BR 3800 0 0 0 2360
2019/10/05 09:15:01 BASE 11.09 272 15.23 273 -12.7 98 -12.9 2 0 987.9 NA 0.0000 BR 3600 0 0 0 2490
2019/10/05 09:16:00 BASE 10.87 273 15.23 273 -12.7 98 -13.0 2 0 988.0 NA 0.0000 BR 3400 0 0 0 2330
2019/10/05 09:17:00 BASE 10.77 269 15.23 273 -12.7 98 -13.0 2 0 988.0 NA 0.0000 BR 3500 0 0 0 2260
2019/10/05 09:18:00 BASE 10.88 270 15.23 273 -12.8 97 -13.1 2 0 988.0 NA 0.0000 BR 3400 0 0 0 2360
2019/10/05 09:19:00 BASE 11.60 271 15.23 273 -12.8 97 -13.1 2 0 988.0 NA 0.0000 BR 3300 300 2030 0 0
2019/10/05 09:20:00 BASE 12.16 271 15.23 273 -12.8 97 -13.2 2 0 987.9 NA 0.0000 BR 3200 300 1940 0 0
2019/10/05 09:21:00 BASE 11.53 272 15.23 273 -12.8 97 -13.2 3 0 987.9 NA 0.0000 BR 3100 0 0 0 2300
2019/10/05 09:22:00 BASE 10.25 269 15.23 273 -12.8 97 -13.1 3 0 987.9 NA 0.0000 -SN BR 2900 0 0 0 2260
2019/10/05 09:23:00 BASE 10.82 269 15.23 273 -12.8 97 -13.1 3 0 987.9 NA 0.0000 -SN BR 2600 0 0 0 2330
2019/10/05 09:24:00 BASE 11.76 273 14.20 279 -12.8 97 -13.1 3 0 987.9 NA 0.0000 -SN BR 2600 0 0 0 2330
2019/10/05 09:25:00 BASE 11.47 273 15.59 278 -12.8 97 -13.1 3 0 988.0 NA 0.0000 -SN BR 2700 0 0 0 2330
2019/10/05 09:26:00 BASE 10.70 267 15.59 278 -12.7 97 -13.1 3 0 987.9 NA 0.0000 -SN BR 2600 0 0 0 2260
2019/10/05 09:27:00 BASE 11.65 266 15.74 272 -12.8 97 -13.1 3 0 987.9 NA 0.0000 -SN BR 2400 0 0 0 2330
2019/10/05 09:28:00 BASE 12.75 270 15.74 272 -12.8 97 -13.1 4 0 988.0 NA 0.0000 -SN BR 2600 0 0 0 2490
2019/10/05 09:29:00 BASE 11.52 272 15.74 272 -12.8 97 -13.1 4 0 988.0 NA 0.0000 -SN BR 2500 0 0 0 2260
2019/10/05 09:30:00 BASE 11.90 271 15.74 272 -12.8 97 -13.1 4 0 987.9 NA 0.0000 -SN BR 2400 260 0 0 0
2019/10/05 09:31:00 BASE 12.87 267 15.74 272 -12.8 97 -13.2 4 0 988.0 NA 0.0000 -SN BR 2400 300 1310 0 0
2019/10/05 09:32:00 BASE 11.90 263 15.74 272 -12.8 97 -13.2 4 0 988.0 NA 0.0000 -SN BR 2400 260 1250 0 0
2019/10/05 09:33:00 BASE 11.80 269 15.74 272 -12.8 97 -13.2 4 0 988.0 NA 0.0000 -SN BR 2200 0 0 0 2360
2019/10/05 09:34:00 BASE 12.27 271 15.84 264 -12.8 97 -13.2 5 0 988.0 NA 0.0000 -SN BR 2000 0 0 0 2430
2019/10/05 09:35:00 BASE 12.52 270 15.84 264 -12.8 97 -13.2 5 0 987.9 NA 0.0000 -SN BR 1900 0 0 0 2620
2019/10/05 09:36:00 BASE 12.78 272 15.84 264 -12.8 97 -13.2 5 0 987.9 NA 0.0000 -SN BR 1900 0 0 0 2560
2019/10/05 09:37:00 BASE 12.14 273 15.84 264 -12.9 97 -13.2 5 0 988.0 NA 0.0000 -SN BR 1900 0 0 0 2330
2019/10/05 09:38:00 BASE 11.17 273 15.84 264 -12.9 97 -13.2 6 0 988.0 NA 0.0000 -SN BR 1900 0 0 0 2400
2019/10/05 09:39:00 BASE 11.35 269 15.84 264 -12.9 97 -13.2 6 0 988.0 NA 0.0000 -SN BR 1800 0 0 0 2590
2019/10/05 09:40:00 BASE 11.74 270 15.84 264 -12.9 97 -13.2 6 0 988.0 NA 0.0000 -SN BR 2100 0 0 0 2590
2019/10/05 09:41:00 BASE 12.42 275 15.84 264 -12.8 97 -13.2 7 0 987.9 NA 0.0000 -SN BR 3600 230 1970 0 0
2019/10/05 09:42:00 BASE 12.04 275 15.84 264 -12.8 97 -13.2 7 0 987.9 NA 0.0000 -SN BR 3700 360 0 0 0
2019/10/05 09:43:00 BASE 11.84 274 15.84 264 -12.8 97 -13.2 8 0 987.9 NA 0.0000 -SN BR 3600 360 1940 0 0
2019/10/05 09:44:00 BASE 12.06 274 15.38 271 -12.8 97 -13.2 9 0 988.0 NA 0.0000 -SN BR 3500 360 2000 0 0
2019/10/05 09:45:00 BASE 11.94 272 15.38 271 -12.8 97 -13.2 9 0 988.0 NA 0.0000 -SN BR 3500 330 1380 0 0
2019/10/05 09:46:00 BASE 12.27 272 15.38 271 -12.8 97 -13.2 10 0 988.0 NA 0.0000 -SN BR 3400 300 1970 0 0
2019/10/05 09:47:00 BASE 10.88 273 15.12 268 -12.8 97 -13.2 10 0 988.0 NA 0.0000 -SN BR 3400 300 2030 0 0
2019/10/05 09:48:00 BASE 10.07 272 15.12 268 -12.8 97 -13.2 11 0 988.0 NA 0.0000 -SN BR 3300 330 2030 0 0
2019/10/05 09:49:00 BASE 10.81 272 15.12 268 -12.8 97 -13.2 11 0 988.0 NA 0.0000 BR 3300 300 2030 0 0
2019/10/05 09:50:00 BASE 11.07 266 15.12 268 -12.8 97 -13.2 12 0 988.0 NA 0.0000 BR 3200 330 0 0 0
2019/10/05 09:51:00 BASE 10.76 264 14.71 269 -12.8 97 -13.2 12 0 988.0 NA 0.0000 BR 3200 300 1840 0 0
2019/10/05 09:52:00 BASE 11.01 269 14.71 269 -12.8 97 -13.2 13 0 988.0 NA 0.0000 BR 3100 260 1970 0 0
2019/10/05 09:53:00 BASE 11.01 270 14.66 281 -12.8 97 -13.2 13 0 988.0 NA 0.0000 BR 3100 300 1940 0 0
2019/10/05 09:54:00 BASE 10.57 270 14.30 272 -12.8 97 -13.2 13 0 988.0 NA 0.0000 BR 3000 330 1840 0 0
2019/10/05 09:55:00 BASE 11.63 268 14.82 272 -12.8 97 -13.2 13 0 988.0 NA 0.0000 BR 3000 360 1900 0 0
2019/10/05 09:56:00 BASE 11.18 268 14.82 272 -12.8 97 -13.2 14 0 988.0 NA 0.0000 BR 3000 260 1940 0 0
2019/10/05 09:57:00 BASE 9.99 269 14.82 272 -12.8 97 -13.2 14 0 988.0 NA 0.0000 BR 2900 230 1310 0 0
2019/10/05 09:58:00 BASE 10.59 266 14.82 272 -12.8 97 -13.2 14 0 988.0 NA 0.0000 BR 2900 300 0 0 0
2019/10/05 09:59:00 BASE 10.65 269 14.82 272 -12.8 97 -13.2 14 0 988.0 NA 0.0000 BR 2900 330 1380 0 0
2019/10/05 10:00:00 BASE 11.17 274 14.82 272 -12.8 97 -13.2 15 0 988.0 NA 0.0000 BR 2900 260 1870 0 0
2019/10/05 10:01:00 BASE 11.49 279 14.82 272 -12.8 97 -13.2 15 0 988.0 NA 0.0000 -SN BR 2800 230 1870 0 0
2019/10/05 10:02:00 BASE 11.20 277 14.82 272 -12.8 97 -13.2 16 0 988.0 NA 0.0000 -SN BR 2000 0 0 0 2170
2019/10/05 10:03:00 BASE 10.55 271 14.82 272 -12.8 97 -13.2 16 0 988.0 NA 0.0000 -SN BR 1500 0 0 0 2200
2019/10/05 10:04:00 BASE 10.15 275 14.82 272 -12.8 97 -13.2 17 0 988.0 NA 0.0000 -SN BR 2400 300 1800 0 0
2019/10/05 10:05:00 BASE 10.51 278 13.74 276 -12.8 97 -13.2 17 0 988.0 NA 0.0000 -SN BR 4400 330 1670 0 0
2019/10/05 10:06:00 BASE 10.50 275 13.74 276 -12.8 97 -13.2 18 0 988.0 NA 0.0000 -SN BR 4400 360 1640 0 0
2019/10/05 10:07:00 BASE 10.13 274 13.74 276 -12.8 97 -13.2 18 0 988.0 NA 0.0000 -SN BR 4300 330 0 0 0
2019/10/05 10:08:00 BASE 10.38 276 13.74 276 -12.8 96 -13.3 18 0 988.0 NA 0.0000 -SN BR 4300 330 1670 0 0
2019/10/05 10:09:00 BASE 11.02 276 13.74 276 -12.8 96 -13.3 19 0 988.0 NA 0.0000 -SN BR 4300 230 1800 0 0
2019/10/05 10:10:00 BASE 10.52 274 13.74 276 -12.9 96 -13.3 20 0 988.0 NA 0.0000 -SN BR 4200 330 1740 0 0
2019/10/05 10:11:00 BASE 9.58 271 13.74 276 -12.9 96 -13.4 21 0 988.0 NA 0.0000 -SN BR 4200 330 0 0 0
2019/10/05 10:12:00 BASE 9.66 268 13.48 277 -12.9 96 -13.4 22 0 988.0 NA 0.0000 -SN BR 4200 360 1940 0 0
2019/10/05 10:13:00 BASE 10.26 266 13.48 277 -12.9 96 -13.4 23 0 988.0 NA 0.0000 -SN BR 4100 390 2000 0 0
2019/10/05 10:14:00 BASE 10.69 267 13.48 277 -12.9 97 -13.3 24 0 988.0 NA 0.0000 -SN BR 4100 330 1840 0 0
2019/10/05 10:15:00 BASE 11.37 271 14.56 271 -12.9 97 -13.3 25 0 988.0 NA 0.0000 -SN BR 4100 300 1540 0 0
2019/10/05 10:16:00 BASE 12.05 268 14.56 271 -12.9 97 -13.3 26 0 988.0 NA 0.0000 -SN BR 4000 300 1770 0 0
2019/10/05 10:17:00 BASE 11.43 267 14.56 271 -12.9 97 -13.3 26 0 988.0 NA 0.0000 BR 4000 300 2070 0 0
2019/10/05 10:18:00 BASE 11.96 267 14.71 257 -12.9 97 -13.3 26 0 988.0 NA 0.0000 BR 4000 260 2200 0 0
2019/10/05 10:19:00 BASE 12.25 269 14.71 257 -12.9 97 -13.3 27 0 988.0 NA 0.0000 BR 3900 330 0 0 0
2019/10/05 10:20:00 BASE 10.69 273 14.71 257 -13.0 97 -13.3 27 0 988.0 NA 0.0000 BR 3900 300 1800 0 0
2019/10/05 10:21:00 BASE 10.16 268 14.71 257 -13.0 97 -13.3 28 0 988.0 NA 0.0000 BR 3900 300 1150 0 0
2019/10/05 10:22:00 BASE 9.55 270 14.71 257 -12.9 97 -13.3 29 0 988.0 NA 0.0000 BR 3900 330 1840 0 0
2019/10/05 10:23:00 BASE 10.35 273 14.71 257 -12.9 97 -13.3 30 0 988.0 NA 0.0000 BR 3800 330 1970 0 0
2019/10/05 10:24:00 BASE 11.28 272 14.71 257 -12.9 97 -13.3 31 0 988.0 NA 0.0000 BR 3800 260 1710 0 0
2019/10/05 10:25:00 BASE 11.58 271 14.71 257 -12.9 97 -13.4 32 0 988.0 NA 0.0000 BR 3800 0 0 0 2430
2019/10/05 10:26:00 BASE 12.02 273 14.71 257 -13.0 96 -13.4 32 0 988.0 NA 0.0000 BR 3800 0 0 0 1940
2019/10/05 10:27:00 BASE 11.90 275 14.71 257 -13.0 96 -13.5 33 0 988.0 NA 0.0000 -SN BR 4000 0 0 0 2000
2019/10/05 10:28:01 BASE 11.59 276 14.35 295 -13.0 96 -13.5 35 0 988.0 NA 0.0000 -SN BR 4800 230 1310 0 0
2019/10/05 10:29:00 BASE 11.00 274 14.87 273 -13.0 96 -13.5 38 0 988.0 NA 0.0000 -SN BR 4800 260 1540 0 0
2019/10/05 10:30:00 BASE 10.84 273 14.87 273 -13.0 96 -13.4 40 0 988.0 NA 0.0000 -SN BR 4800 230 1050 0 0
2019/10/05 10:31:00 BASE 11.15 272 14.87 273 -13.0 96 -13.4 43 0 988.0 NA 0.0000 -SN BR 4800 300 1570 0 0
2019/10/05 10:32:00 BASE 10.62 274 14.87 273 -13.0 96 -13.4 45 0 988.1 NA 0.0000 -SN BR 4700 300 1640 0 0
2019/10/05 10:33:00 BASE 10.48 277 14.87 273 -13.0 96 -13.5 49 0 988.1 NA 0.0000 -SN BR 4700 260 1210 0 0
2019/10/05 10:34:00 BASE 11.42 273 14.87 273 -13.0 96 -13.5 53 0 988.0 NA 0.0000 -SN BR 4700 300 1410 0 0
2019/10/05 10:35:00 BASE 11.17 272 14.87 273 -13.0 96 -13.5 56 0 988.1 NA 0.0000 -SN BR 4700 260 1800 0 0
2019/10/05 10:36:00 BASE 10.80 272 14.87 273 -13.0 96 -13.5 60 0 988.1 NA 0.0000 BR 4700 300 1740 0 0
2019/10/05 10:37:00 BASE 10.21 269 14.87 273 -13.0 96 -13.5 62 0 988.1 NA 0.0000 BR 4600 1740 0 0 0
2019/10/05 10:38:00 BASE 9.66 269 14.87 273 -13.0 96 -13.5 62 0 988.1 NA 0.0000 BR 4600 230 1480 0 0
2019/10/05 10:39:00 BASE 10.53 269 14.35 273 -13.0 96 -13.5 61 0 988.1 NA 0.0000 BR 4600 230 1570 0 0
2019/10/05 10:40:00 BASE 10.47 271 14.35 273 -13.0 96 -13.5 58 0 988.1 NA 0.0000 -SN BR 4400 0 0 0 2200
2019/10/05 10:41:00 BASE 9.85 271 14.35 273 -13.0 96 -13.5 56 0 988.1 NA 0.0000 -SN BR 4500 0 0 0 2030
2019/10/05 10:42:00 BASE 10.41 269 14.35 273 -13.0 96 -13.5 57 0 988.0 NA 0.0000 -SN BR 5000 230 1120 0 0
2019/10/05 10:43:00 BASE 10.18 268 14.35 273 -13.0 96 -13.5 58 0 988.0 NA 0.0000 -SN BR 5000 0 0 0 2070
2019/10/05 10:44:00 BASE 9.68 269 14.35 273 -13.0 96 -13.5 58 0 988.0 NA 0.0000 -SN BR 5000 230 1640 0 0
2019/10/05 10:45:00 BASE 10.77 270 14.35 273 -13.0 96 -13.5 56 0 988.0 NA 0.0000 -SN BR 5000 200 1540 0 0
2019/10/05 10:46:00 BASE 11.18 274 14.35 273 -13.0 96 -13.5 55 0 988.1 NA 0.0000 -SN BR 5000 200 1540 0 0
2019/10/05 10:47:00 BASE 11.17 274 14.35 273 -12.9 96 -13.5 58 0 988.1 NA 0.0000 -SN BR 5000 230 1640 0 0
2019/10/05 10:48:00 BASE 11.42 274 14.35 273 -12.9 96 -13.4 61 0 988.2 NA 0.0000 -SN BR 5000 0 0 0 2200
2019/10/05 10:49:00 BASE 11.42 273 13.48 273 -12.9 96 -13.4 63 0 988.1 NA 0.0000 -SN BR 5000 260 1640 0 0
2019/10/05 10:50:00 BASE 10.85 271 13.48 273 -12.9 96 -13.4 61 0 988.2 NA 0.0000 -SN BR 5000 0 0 0 2170
2019/10/05 10:51:00 BASE 9.84 272 13.48 273 -12.9 96 -13.4 59 0 988.2 NA 0.0000 -SN BR 5000 0 0 0 2230
2019/10/05 10:52:00 BASE 10.03 273 13.48 273 -12.9 96 -13.4 59 0 988.2 NA 0.0000 -SN BR 5000 260 1570 0 0
2019/10/05 10:53:00 BASE 9.88 271 13.48 273 -12.9 96 -13.4 60 0 988.2 NA 0.0000 -SN BR 5000 300 1610 0 0
2019/10/05 10:54:00 BASE 9.50 270 13.48 273 -12.9 96 -13.4 60 0 988.2 NA 0.0000 -SN BR 5000 360 1540 0 0
2019/10/05 10:55:00 BASE 9.71 268 13.48 273 -12.9 96 -13.4 60 0 988.2 NA 0.0000 BR 5000 330 1510 0 0
2019/10/05 10:56:00 BASE 11.00 267 15.33 259 -12.9 96 -13.4 61 0 988.2 NA 0.0000 BR 5000 330 0 0 0
2019/10/05 10:57:00 BASE 11.11 265 15.33 259 -12.9 96 -13.4 61 0 988.3 NA 0.0000 BR 5000 300 1440 0 0
2019/10/05 10:58:00 BASE 10.19 270 15.33 259 -12.9 96 -13.4 63 0 988.2 NA 0.0000 BR 5000 300 1440 0 0
2019/10/05 10:59:00 BASE 10.72 270 15.33 259 -12.9 96 -13.4 65 0 988.3 NA 0.0000 BR 5000 300 1510 0 0
2019/10/05 11:00:00 BASE 10.17 266 15.33 259 -12.9 96 -13.4 65 0 988.3 NA 0.0000 BR 5000 300 1480 0 0
2019/10/05 11:01:00 BASE 10.49 274 15.33 259 -12.9 96 -13.4 65 0 988.2 NA 0.0000 BR 5000 300 1510 0 0
2019/10/05 11:02:00 BASE 11.39 275 15.33 259 -12.9 96 -13.4 65 0 988.3 NA 0.0000 BR 5000 330 1440 0 0
2019/10/05 11:03:00 BASE 10.30 271 15.33 259 -12.9 96 -13.4 64 0 988.3 NA 0.0000 BR 5000 330 1740 0 0
2019/10/05 11:04:00 BASE 9.02 273 15.33 259 -12.9 96 -13.4 65 0 988.3 NA 0.0000 BR 5000 390 1710 0 0
2019/10/05 11:05:00 BASE 9.13 272 15.33 259 -12.9 96 -13.4 68 0 988.2 NA 0.0000 BR 5000 330 1740 0 0
2019/10/05 11:06:00 BASE 9.16 270 14.04 271 -12.9 96 -13.4 73 0 988.2 NA 0.0000 BR 5000 360 1740 0 0
2019/10/05 11:07:00 BASE 8.31 270 14.04 271 -12.9 96 -13.4 82 0 988.3 NA 0.0000 BR 5000 360 1770 0 0
2019/10/05 11:08:00 BASE 7.86 275 14.04 271 -12.9 96 -13.4 89 0 988.3 NA 0.0000 BR 5000 390 1740 0 0
2019/10/05 11:09:00 BASE 8.53 274 14.04 271 -12.8 96 -13.3 91 0 988.2 NA 0.0000 BR 6000 430 1770 0 0
2019/10/05 11:10:00 BASE 9.15 272 14.04 271 -12.8 96 -13.3 92 0 988.3 NA 0.0000 BR 9999 360 1800 0 0
2019/10/05 11:11:00 BASE 9.71 275 13.17 270 -12.8 96 -13.3 93 0 988.2 NA 0.0000 BR 9999 390 0 0 0
2019/10/05 11:12:00 BASE 9.94 277 13.17 270 -12.8 96 -13.3 89 0 988.2 NA 0.0000 BR 9999 430 0 0 0
2019/10/05 11:13:00 BASE 9.57 274 13.17 270 -12.8 96 -13.3 81 0 988.2 NA 0.0000 BR 9999 560 1540 0 0
2019/10/05 11:14:00 BASE 9.59 271 13.17 270 -12.8 96 -13.3 77 0 988.1 NA 0.0000 BR 9999 460 1640 0 0
2019/10/05 11:15:00 BASE 9.32 270 13.17 270 -12.8 96 -13.3 78 0 988.2 NA 0.0000 BR 9999 1840 0 0 0
2019/10/05 11:16:00 BASE 9.67 268 13.17 270 -12.8 96 -13.4 69 0 988.2 NA 0.0000 BR 9999 1770 0 0 0
2019/10/05 11:17:00 BASE 9.49 269 13.17 270 -12.8 95 -13.4 65 0 988.2 NA 0.0000 BR 9999 1770 0 0 0
2019/10/05 11:18:00 BASE 8.79 271 13.17 270 -12.8 95 -13.4 63 0 988.2 NA 0.0000 9999 1740 0 0 0
2019/10/05 11:19:00 BASE 9.00 275 13.17 270 -12.8 95 -13.4 62 0 988.2 NA 0.0000 9999 1870 0 0 0
2019/10/05 11:20:00 BASE 9.31 278 13.17 270 -12.8 95 -13.4 67 0 988.2 NA 0.0000 9000 1770 0 0 0
2019/10/05 11:21:00 BASE 9.40 278 11.73 280 -12.7 95 -13.4 74 0 988.1 NA 0.0000 9000 1770 0 0 0
2019/10/05 11:22:00 BASE 9.57 277 11.73 280 -12.7 95 -13.4 78 0 988.0 NA 0.0000 9000 360 1770 0 0
2019/10/05 11:23:00 BASE 9.65 279 12.81 279 -12.7 95 -13.3 75 0 988.0 NA 0.0000 9000 1740 0 0 0
2019/10/05 11:24:00 BASE 10.09 281 12.81 279 -12.7 95 -13.3 81 0 988.0 NA 0.0000 9999 1740 0 0 0
2019/10/05 11:25:00 BASE 10.83 283 12.81 279 -12.7 95 -13.3 88 0 987.9 NA 0.0000 9999 1740 0 0 0
2019/10/05 11:26:00 BASE 11.35 287 13.27 285 -12.7 95 -13.3 97 0 987.8 NA 0.0000 9999 1710 0 0 0
2019/10/05 11:27:00 BASE 11.09 291 13.27 285 -12.7 95 -13.4 110 0 987.8 NA 0.0000 9999 1740 0 0 0
2019/10/05 11:28:00 BASE 11.19 290 13.27 285 -12.8 95 -13.4 112 0 987.8 NA 0.0000 9999 1710 0 0 0
2019/10/05 11:29:00 BASE 10.96 285 13.27 285 -12.8 95 -13.4 105 0 988.0 NA 0.0000 9999 1670 0 0 0
2019/10/05 11:30:00 BASE 10.00 285 13.27 285 -12.8 95 -13.5 94 0 988.0 NA 0.0000 9999 1770 0 0 0
2019/10/05 11:31:00 BASE 10.16 286 13.27 285 -12.8 95 -13.5 88 0 988.0 NA 0.0000 9999 1710 0 0 0
2019/10/05 11:32:00 BASE 10.31 284 13.27 285 -12.8 95 -13.5 102 0 988.0 NA 0.0000 9999 1710 0 0 0
2019/10/05 11:33:00 BASE 10.39 284 13.27 285 -12.8 95 -13.5 115 0 988.0 NA 0.0000 9999 1740 0 0 0
2019/10/05 11:34:00 BASE 10.69 283 13.27 285 -12.8 95 -13.4 125 0 988.0 NA 0.0000 9999 1670 0 0 0
2019/10/05 11:35:00 BASE 10.47 282 13.27 285 -12.8 95 -13.4 135 0 988.1 NA 0.0000 9999 1670 0 0 0
2019/10/05 11:36:00 BASE 10.36 281 12.91 283 -12.8 95 -13.4 143 0 988.1 NA 0.0000 9999 1670 0 0 0
2019/10/05 11:37:00 BASE 9.80 280 12.91 283 -12.8 95 -13.4 151 0 988.1 NA 0.0000 9999 1840 0 0 0
2019/10/05 11:38:00 BASE 9.53 281 12.45 281 -12.7 95 -13.4 157 0 988.0 NA 0.0000 9999 1870 0 0 0
2019/10/05 11:39:00 BASE 10.77 281 12.60 275 -12.7 95 -13.3 162 0 988.0 NA 0.0000 9999 1770 0 0 0
2019/10/05 11:40:00 BASE 11.48 278 13.27 276 -12.7 95 -13.3 168 0 988.0 NA 0.0000 9999 1840 0 0 0
2019/10/05 11:41:00 BASE 11.12 278 13.27 276 -12.6 95 -13.3 177 0 988.0 NA 0.0000 9999 1870 0 0 0
2019/10/05 11:42:00 BASE 10.53 280 13.27 276 -12.6 95 -13.3 179 0 988.1 NA 0.0000 9999 1870 0 0 0
2019/10/05 11:43:00 BASE 11.65 276 14.87 274 -12.6 95 -13.2 170 0 988.1 NA 0.0000 9999 1840 0 0 0
2019/10/05 11:44:00 BASE 12.70 273 14.92 272 -12.6 95 -13.2 158 0 988.1 NA 0.0000 9999 1840 0 0 0
2019/10/05 11:45:00 BASE 12.58 274 14.92 272 -12.6 95 -13.2 144 0 988.0 NA 0.0000 9999 260 1870 0 0
2019/10/05 11:46:00 BASE 12.31 275 14.92 272 -12.6 95 -13.2 140 0 988.0 NA 0.0000 9999 330 1740 0 0
2019/10/05 11:47:00 BASE 11.98 275 14.92 272 -12.6 95 -13.2 142 0 988.0 NA 0.0000 9999 390 1770 0 0
2019/10/05 11:48:00 BASE 11.99 273 14.92 272 -12.6 95 -13.2 138 0 988.0 NA 0.0000 9999 300 1840 0 0
2019/10/05 11:49:00 BASE 11.97 277 14.92 272 -12.6 95 -13.2 133 0 988.0 NA 0.0000 9999 300 1740 0 0
2019/10/05 11:50:00 BASE 12.19 280 14.92 272 -12.6 95 -13.2 127 0 988.0 NA 0.0000 9999 1710 0 0 0
2019/10/05 11:51:00 BASE 11.95 278 14.92 272 -12.6 95 -13.2 125 0 988.1 NA 0.0000 9999 1710 0 0 0
2019/10/05 11:52:00 BASE 11.07 274 14.92 272 -12.6 95 -13.2 127 0 988.1 NA 0.0000 9999 1740 0 0 0
2019/10/05 11:53:00 BASE 10.57 269 14.92 272 -12.6 95 -13.2 129 0 988.1 NA 0.0000 9999 1710 0 0 0
2019/10/05 11:54:00 BASE 10.91 269 14.40 277 -12.6 95 -13.2 130 0 988.2 NA 0.0000 9999 1770 0 0 0
2019/10/05 11:55:00 BASE 11.52 271 14.04 269 -12.6 95 -13.3 127 0 988.2 NA 0.0000 9999 1740 0 0 0
2019/10/05 11:56:00 BASE 11.10 272 14.04 269 -12.6 95 -13.3 125 0 988.3 NA 0.0000 9000 1670 0 0 0
2019/10/05 11:57:00 BASE 10.45 272 14.04 269 -12.6 95 -13.3 125 0 988.3 NA 0.0000 -SN 8000 1740 0 0 0
2019/10/05 11:58:01 BASE 11.13 272 14.51 273 -12.6 94 -13.4 126 0 988.3 NA 0.0000 -SN 8000 230 1740 0 0
2019/10/05 11:59:01 BASE 11.87 274 14.51 273 -12.6 94 -13.4 127 0 988.3 NA 0.0000 -SN 9000 260 1800 0 0
2019/10/05 12:00:01 BASE 11.10 273 14.51 273 -12.6 94 -13.4 128 0 988.3 NA 0.0000 -SN 9999 330 1770 0 0
2019/10/05 12:01:01 BASE 10.02 266 14.51 273 -12.6 94 -13.4 128 0 988.3 NA 0.0000 -SN 9999 1640 0 0 0
2019/10/05 12:02:01 BASE 10.07 265 14.51 273 -12.6 94 -13.4 131 0 988.3 NA 0.0000 -SN 9999 1640 20870 0 0
2019/10/05 12:03:01 BASE 10.46 267 14.51 273 -12.6 94 -13.4 134 0 988.3 NA 0.0000 -SN 9999 1670 0 0 0
2019/10/05 12:04:01 BASE 10.74 268 14.51 273 -12.6 94 -13.3 133 0 988.3 NA 0.0000 -SN 9999 1770 0 0 0
2019/10/05 12:05:01 BASE 10.12 269 14.51 273 -12.6 94 -13.3 133 0 988.3 NA 0.0000 -SN 9999 1970 0 0 0
2019/10/05 12:06:00 BASE 10.21 272 14.51 273 -12.5 94 -13.3 135 0 988.3 NA 0.0000 -SN 9999 360 1610 0 0
2019/10/05 12:07:00 BASE 11.79 275 14.61 272 -12.5 94 -13.3 136 0 988.3 NA 0.0000 -SN 8000 160 1770 0 0
2019/10/05 12:08:00 BASE 12.35 275 14.61 272 -12.5 94 -13.3 132 0 988.3 NA 0.0000 -SN BR 4900 1640 0 0 0
2019/10/05 12:09:00 BASE 12.00 275 14.61 272 -12.5 94 -13.3 130 0 988.3 NA 0.0000 -SN BR 7000 300 1440 0 0
2019/10/05 12:10:00 BASE 11.42 274 14.61 272 -12.6 94 -13.3 131 0 988.3 NA 0.0000 -SN BR 9000 1410 0 0 0
2019/10/05 12:11:00 BASE 10.52 275 14.61 272 -12.6 94 -13.3 132 0 988.4 NA 0.0000 -SN BR 9999 1380 0 0 0
2019/10/05 12:12:00 BASE 10.14 276 14.61 272 -12.6 94 -13.3 132 0 988.4 NA 0.0000 -SN BR 9999 1540 0 0 0
2019/10/05 12:13:00 BASE 10.65 273 14.61 272 -12.5 94 -13.3 132 0 988.4 NA 0.0000 -SN BR 9999 390 1510 0 0
2019/10/05 12:14:00 BASE 10.82 273 14.61 272 -12.5 94 -13.3 129 0 988.4 NA 0.0000 -SN BR 9999 1510 0 0 0
2019/10/05 12:15:00 BASE 10.63 270 14.61 272 -12.5 94 -13.3 126 0 988.4 NA 0.0000 -SN BR 9999 360 1480 0 0
2019/10/05 12:16:00 BASE 10.06 272 14.61 272 -12.5 94 -13.3 125 0 988.4 NA 0.0000 -SN BR 9999 1440 0 0 0
2019/10/05 12:17:00 BASE 9.91 272 13.17 266 -12.5 94 -13.3 128 0 988.5 NA 0.0000 -SN BR 9999 1410 0 0 0
2019/10/05 12:18:00 BASE 9.95 271 13.17 266 -12.5 94 -13.3 132 0 988.4 NA 0.0000 9999 330 1380 0 0
2019/10/05 12:19:00 BASE 9.70 271 12.45 271 -12.6 94 -13.3 135 0 988.4 NA 0.0000 -SN 9000 300 1440 0 0
2019/10/05 12:20:00 BASE 9.76 273 12.81 276 -12.6 94 -13.3 140 0 988.4 NA 0.0000 -SN 8000 360 1570 0 0
2019/10/05 12:21:00 BASE 10.22 274 12.81 276 -12.5 94 -13.3 148 0 988.4 NA 0.0000 -SN BR 5000 1480 0 0 0
2019/10/05 12:22:00 BASE 9.90 275 12.81 276 -12.5 94 -13.3 154 0 988.5 NA 0.0000 -SN BR 4300 300 1480 0 0
2019/10/05 12:23:00 BASE 9.26 276 12.81 276 -12.5 94 -13.3 162 0 988.4 NA 0.0000 -SN BR 4900 300 1310 0 0
2019/10/05 12:24:00 BASE 8.84 282 12.81 276 -12.5 94 -13.3 176 0 988.4 NA 0.0000 -SN BR 7000 300 1280 0 0
2019/10/05 12:25:00 BASE 8.82 281 12.81 276 -12.5 94 -13.3 183 0 988.4 NA 0.0000 -SN BR 8000 260 1250 0 0
2019/10/05 12:26:00 BASE 9.04 277 12.81 276 -12.5 94 -13.3 202 0 988.4 NA 0.0000 -SN BR 9000 1670 0 0 0
2019/10/05 12:27:00 BASE 8.95 279 12.81 276 -12.5 94 -13.2 239 0 988.3 NA 0.0000 -SN BR 9999 1540 0 0 0
2019/10/05 12:28:00 BASE 9.25 280 12.81 276 -12.4 94 -13.2 259 0 988.3 NA 0.0000 -SN BR 9999 230 1510 0 0
2019/10/05 12:29:00 BASE 9.07 281 12.81 276 -12.4 94 -13.2 270 0 988.3 NA 0.0000 -SN BR 9999 230 1440 0 0
2019/10/05 12:30:00 BASE 9.13 281 11.78 264 -12.4 94 -13.2 252 0 988.3 NA 0.0000 -SN BR 9999 300 1440 0 0
2019/10/05 12:31:00 BASE 8.65 281 11.01 277 -12.3 94 -13.2 230 0 988.3 NA 0.0000 -SN BR 9999 330 1480 0 0
2019/10/05 12:32:00 BASE 8.40 281 11.01 277 -12.3 94 -13.1 210 0 988.3 NA 0.0000 -SN BR 9999 1510 0 0 0
2019/10/05 12:33:00 BASE 8.77 282 10.91 272 -12.3 94 -13.1 196 0 988.3 NA 0.0000 -SN 9999 1540 0 0 0
2019/10/05 12:34:00 BASE 8.66 286 10.91 272 -12.3 93 -13.2 179 0 988.3 NA 0.0000 -SN 9999 1570 0 0 0
2019/10/05 12:35:00 BASE 8.38 287 10.91 272 -12.3 94 -13.1 168 0 988.4 NA 0.0000 -SN 9999 1640 0 0 0
2019/10/05 12:36:00 BASE 7.37 285 10.55 268 -12.3 94 -13.1 162 0 988.4 NA 0.0000 -SN 7000 1570 0 0 0
2019/10/05 12:37:00 BASE 7.64 276 10.29 287 -12.3 94 -13.1 162 0 988.4 NA 0.0000 -SN 7000 1480 0 0 0
2019/10/05 12:38:00 BASE 8.57 264 10.29 287 -12.3 94 -13.1 167 0 988.4 NA 0.0000 -SN 9999 1740 0 0 0
2019/10/05 12:39:00 BASE 8.21 258 10.29 287 -12.3 94 -13.1 173 0 988.4 NA 0.0000 -SN 9999 1610 0 0 0
2019/10/05 12:40:00 BASE 7.50 262 10.29 287 -12.2 94 -13.1 179 0 988.4 NA 0.0000 -SN 9999 1710 0 0 0
2019/10/05 12:41:00 BASE 6.52 267 10.29 287 -12.2 93 -13.1 184 0 988.4 NA 0.0000 -SN 9999 1770 0 0 0
2019/10/05 12:42:00 BASE 6.07 268 10.29 287 -12.2 93 -13.1 185 0 988.4 NA 0.0000 -SN 9999 1570 0 0 0
2019/10/05 12:43:00 BASE 6.78 271 10.29 287 -12.2 93 -13.1 186 0 988.4 NA 0.0000 -SN 9999 1480 0 0 0
2019/10/05 12:44:00 BASE 6.99 275 10.13 262 -12.2 93 -13.1 187 0 988.4 NA 0.0000 -SN 9999 1540 0 0 0
2019/10/05 12:45:00 BASE 6.73 279 10.13 262 -12.1 93 -13.1 188 0 988.4 NA 0.0000 -SN 9999 1570 0 0 0
2019/10/05 12:46:00 BASE 6.87 281 10.13 262 -12.1 92 -13.1 188 0 988.4 NA 0.0000 9999 1640 0 0 0
2019/10/05 12:47:00 BASE 7.13 287 9.62 270 -12.1 92 -13.1 189 0 988.4 NA 0.0000 9999 1510 0 0 0
2019/10/05 12:48:00 BASE 7.34 288 8.75 254 -12.1 92 -13.2 193 0 988.4 NA 0.0000 9999 1380 0 0 0
2019/10/05 12:49:00 BASE 6.71 282 8.59 268 -12.1 92 -13.2 199 0 988.4 NA 0.0000 9999 1410 22870 0 0
2019/10/05 12:50:00 BASE 5.73 279 8.59 268 -12.1 92 -13.2 203 0 988.4 NA 0.0000 9999 1310 0 0 0
2019/10/05 12:51:00 BASE 5.94 275 8.95 269 -12.1 92 -13.2 203 0 988.4 NA 0.0000 9999 1440 0 0 0
2019/10/05 12:52:00 BASE 6.65 270 9.11 268 -12.1 92 -13.2 201 0 988.4 NA 0.0000 9999 1440 0 0 0
2019/10/05 12:53:01 BASE 6.60 270 9.11 268 -12.1 92 -13.2 199 0 988.4 NA 0.0000 9999 330 1440 0 0
2019/10/05 12:54:00 BASE 5.60 271 9.11 268 -12.2 92 -13.2 199 0 988.4 NA 0.0000 9999 260 1350 0 0
2019/10/05 12:55:00 BASE 4.90 270 9.11 268 -12.2 92 -13.2 201 0 988.4 NA 0.0000 9999 460 0 0 0
2019/10/05 12:56:00 BASE 4.95 267 9.11 268 -12.2 92 -13.2 203 0 988.4 NA 0.0000 9999 1410 0 0 0
2019/10/05 12:57:00 BASE 4.49 276 9.11 268 -12.2 92 -13.2 203 0 988.4 NA 0.0000 9999 1380 0 0 0
2019/10/05 12:58:00 BASE 4.65 282 9.11 268 -12.2 92 -13.2 205 0 988.3 NA 0.0000 9999 1380 22110 0 0
2019/10/05 12:59:00 BASE 5.17 283 9.11 268 -12.2 92 -13.2 211 0 988.3 NA 0.0000 9999 1410 22770 0 0
2019/10/05 13:00:00 BASE 6.48 290 9.11 268 -12.2 92 -13.2 212 0 988.3 NA 0.0000 9999 360 1440 0 0
2019/10/05 13:01:00 BASE 7.73 293 9.11 268 -12.2 92 -13.2 211 0 988.3 NA 0.0000 9999 22900 0 0 0
2019/10/05 13:02:00 BASE 7.73 291 8.23 294 -12.2 92 -13.3 211 0 988.3 NA 0.0000 9999 0 0 0 2130
2019/10/05 13:03:00 BASE 7.62 293 8.23 294 -12.3 92 -13.3 207 0 988.4 NA 0.0000 -SN 9999 0 0 0 1770
2019/10/05 13:04:00 BASE 7.53 294 8.23 294 -12.3 92 -13.4 203 0 988.4 NA 0.0000 -SN 9000 0 0 0 2000
2019/10/05 13:05:00 BASE 7.22 295 8.23 294 -12.4 92 -13.4 200 0 988.4 NA 0.0000 -SN 9999 200 1210 0 0
2019/10/05 13:06:00 BASE 6.73 300 8.23 301 -12.4 92 -13.4 199 0 988.4 NA 0.0000 -SN 9999 300 1310 0 0
2019/10/05 13:07:00 BASE 6.55 296 8.23 301 -12.4 92 -13.4 200 0 988.4 NA 0.0000 -SN 9999 360 1380 0 0
2019/10/05 13:08:00 BASE 6.57 291 8.23 301 -12.4 92 -13.4 198 0 988.4 NA 0.0000 -SN 9999 1510 0 0 0
2019/10/05 13:09:00 BASE 6.89 292 8.23 292 -12.4 92 -13.4 196 0 988.3 NA 0.0000 -SN 9999 1640 0 0 0
2019/10/05 13:10:00 BASE 6.62 291 8.23 292 -12.4 92 -13.4 196 0 988.3 NA 0.0000 -SN 9999 1640 0 0 0
2019/10/05 13:11:00 BASE 6.40 290 8.23 292 -12.4 92 -13.4 197 0 988.3 NA 0.0000 -SN 9999 1640 0 0 0
2019/10/05 13:12:00 BASE 6.97 290 8.23 292 -12.4 93 -13.3 198 0 988.3 NA 0.0000 -SN 9999 1570 0 0 0
2019/10/05 13:13:01 BASE 7.54 291 8.54 291 -12.3 93 -13.3 198 0 988.3 NA 0.0000 -SN 9999 1570 0 0 0
2019/10/05 13:14:00 BASE 7.58 294 8.59 289 -12.3 93 -13.2 199 0 988.3 NA 0.0000 9999 390 0 0 0
2019/10/05 13:15:00 BASE 7.02 296 8.59 289 -12.3 93 -13.2 203 0 988.3 NA 0.0000 -SN 9999 390 1480 0 0
2019/10/05 13:16:00 BASE 7.31 296 8.59 289 -12.3 93 -13.2 210 0 988.3 NA 0.0000 -SN 9999 460 1440 0 0
2019/10/05 13:17:00 BASE 7.89 298 8.59 289 -12.3 93 -13.2 217 0 988.3 NA 0.0000 9999 390 1510 0 0
2019/10/05 13:18:00 BASE 7.67 298 8.59 289 -12.3 93 -13.2 224 0 988.3 NA 0.0000 9999 360 1640 0 0
2019/10/05 13:19:00 BASE 7.19 300 8.59 289 -12.3 93 -13.2 227 0 988.3 NA 0.0000 9999 390 1670 0 0
2019/10/05 13:20:00 BASE 7.78 298 9.77 291 -12.3 93 -13.2 227 0 988.3 NA 0.0000 9999 460 1570 0 0
2019/10/05 13:21:00 BASE 9.03 292 10.34 290 -12.2 93 -13.1 226 0 988.3 NA 0.0000 9999 430 1250 0 0
2019/10/05 13:22:00 BASE 9.35 289 10.80 285 -12.2 93 -13.1 226 0 988.3 NA 0.0000 -SN 9999 330 1570 0 0
2019/10/05 13:23:00 BASE 9.34 286 10.80 285 -12.2 93 -13.1 228 0 988.3 NA 0.0000 -SN 9999 330 1410 0 0
2019/10/05 13:24:00 BASE 8.51 280 10.80 285 -12.2 93 -13.0 231 0 988.3 NA 0.0000 -SN 9999 230 1710 0 0
2019/10/05 13:25:00 BASE 7.58 277 10.80 285 -12.1 93 -13.0 234 0 988.4 NA 0.0000 -SN 9999 300 1670 0 0
2019/10/05 13:26:00 BASE 7.83 277 10.80 285 -12.1 94 -12.9 237 0 988.4 NA 0.0000 -SN 9999 300 0 0 0
2019/10/05 13:27:00 BASE 8.35 277 10.80 285 -12.1 94 -12.9 242 0 988.4 NA 0.0000 -SN 9999 300 1540 0 0
2019/10/05 13:28:00 BASE 8.34 278 10.80 285 -12.1 94 -12.9 245 0 988.4 NA 0.0000 -SN 9999 300 1670 0 0
2019/10/05 13:29:00 BASE 8.13 280 10.80 285 -12.1 93 -12.9 249 0 988.4 NA 0.0000 -SN 9999 300 1710 0 0
2019/10/05 13:30:00 BASE 8.10 278 10.80 285 -12.1 93 -13.0 256 0 988.4 NA 0.0000 -SN 9999 330 1870 0 0
2019/10/05 13:31:00 BASE 7.45 276 10.80 285 -12.1 93 -13.0 262 0 988.4 NA 0.0000 -SN 9999 300 18440 0 0
2019/10/05 13:32:00 BASE 7.64 277 10.75 280 -12.0 93 -12.9 269 0 988.4 NA 0.0000 -SN 9999 260 1770 0 0
2019/10/05 13:33:00 BASE 9.30 278 11.11 280 -12.0 93 -12.9 273 0 988.4 NA 0.0000 -SN 9999 0 0 0 2170
2019/10/05 13:34:00 BASE 9.67 280 11.11 280 -12.0 93 -12.9 270 0 988.4 NA 0.0000 -SN 9999 0 0 0 2170
2019/10/05 13:35:00 BASE 8.68 279 11.11 280 -12.0 93 -12.9 261 0 988.4 NA 0.0000 -SN 9999 0 0 0 2330
2019/10/05 13:36:00 BASE 8.49 279 11.11 280 -12.0 93 -12.9 252 0 988.4 NA 0.0000 -SN 9999 0 0 0 2400
2019/10/05 13:37:00 BASE 8.15 276 11.11 280 -12.0 93 -12.9 246 0 988.5 NA 0.0000 -SN 9999 230 1870 0 0
2019/10/05 13:38:00 BASE 6.57 269 11.11 280 -12.0 93 -12.9 241 0 988.5 NA 0.0000 -SN 9999 330 2000 0 0
2019/10/05 13:39:00 BASE 6.07 263 11.11 280 -12.0 93 -12.9 239 0 988.5 NA 0.0000 -SN 9999 300 0 0 0
2019/10/05 13:40:00 BASE 6.88 269 11.11 280 -12.0 93 -12.9 240 0 988.5 NA 0.0000 -SN 9999 260 2070 0 0
2019/10/05 13:41:00 BASE 7.86 275 11.11 280 -12.0 93 -12.9 244 0 988.5 NA 0.0000 -SN 9999 260 2070 0 0
2019/10/05 13:42:00 BASE 7.92 276 11.11 280 -12.0 93 -12.9 250 0 988.5 NA 0.0000 -SN 9999 0 0 0 2200
2019/10/05 13:43:00 BASE 7.30 276 10.75 273 -12.0 93 -12.9 255 0 988.5 NA 0.0000 -SN 9999 200 1900 0 0
2019/10/05 13:44:00 BASE 7.77 276 10.39 280 -12.0 93 -12.9 258 0 988.4 NA 0.0000 -SN 9999 0 0 0 2200
2019/10/05 13:45:00 BASE 8.49 278 11.21 276 -12.0 93 -12.9 261 0 988.4 NA 0.0000 -SN 9999 0 0 0 2300
2019/10/05 13:46:00 BASE 8.72 279 11.21 276 -12.0 92 -12.9 263 0 988.4 NA 0.0000 -SN 9999 0 0 0 2400
2019/10/05 13:47:00 BASE 8.02 280 11.21 276 -11.9 92 -12.9 262 0 988.5 NA 0.0000 -SN 9999 300 2000 0 0
2019/10/05 13:48:00 BASE 7.15 278 11.21 276 -11.9 92 -12.9 259 0 988.5 NA 0.0000 -SN 9999 260 1120 0 0
2019/10/05 13:49:00 BASE 6.93 279 11.21 276 -11.9 92 -13.0 257 0 988.5 NA 0.0000 -SN 9000 330 1970 0 0
2019/10/05 13:50:00 BASE 6.93 281 11.21 276 -11.9 92 -13.0 257 0 988.5 NA 0.0000 -SN 5000 300 1870 0 0
2019/10/05 13:51:00 BASE 7.00 282 11.21 276 -11.9 92 -13.0 262 0 988.5 NA 0.0000 -SN 6000 330 2070 0 0
2019/10/05 13:52:00 BASE 7.16 279 11.21 276 -11.9 92 -13.0 268 0 988.5 NA 0.0000 -SN BR 5000 360 1570 0 0
2019/10/05 13:53:00 BASE 7.69 276 11.21 276 -11.9 92 -13.0 271 0 988.5 NA 0.0000 -SN BR 5000 360 2170 0 0
2019/10/05 13:54:00 BASE 8.04 282 11.21 276 -11.9 92 -12.9 270 0 988.5 NA 0.0000 -SN BR 6000 1080 2070 0 0
2019/10/05 13:55:00 BASE 7.96 289 10.08 283 -11.9 92 -12.9 270 0 988.5 NA 0.0000 BR 5000 430 1610 0 0
2019/10/05 13:56:00 BASE 7.56 293 9.16 277 -11.9 92 -12.9 270 0 988.5 NA 0.0000 BR 7000 390 2000 0 0
2019/10/05 13:57:00 BASE 6.80 298 9.11 283 -11.9 92 -12.9 269 0 988.5 NA 0.0000 BR 8000 390 1410 0 0
2019/10/05 13:58:00 BASE 5.96 304 9.11 283 -11.9 92 -13.0 264 0 988.5 NA 0.0000 BR 7000 390 1870 0 0
2019/10/05 13:59:00 BASE 5.56 306 9.11 283 -12.0 92 -13.0 258 0 988.5 NA 0.0000 BR 9000 360 1570 0 0
2019/10/05 14:00:00 BASE 5.60 302 9.11 283 -12.0 92 -13.0 255 0 988.6 NA 0.0000 BR 7000 360 1800 0 0
2019/10/05 14:01:00 BASE 5.64 299 9.11 283 -12.0 92 -13.1 253 0 988.7 NA 0.0000 BR 5000 850 2260 0 0
2019/10/05 14:02:00 BASE 5.96 299 9.11 283 -12.0 92 -13.0 252 0 988.6 NA 0.0000 BR 8000 1670 19720 0 0
2019/10/05 14:03:00 BASE 5.91 298 9.11 283 -12.0 92 -13.0 256 0 988.5 NA 0.0000 BR 9999 1210 0 0 0
2019/10/05 14:04:00 BASE 5.38 300 9.11 283 -12.0 93 -13.0 263 0 988.5 NA 0.0000 BR 9999 720 1610 0 0
2019/10/05 14:05:00 BASE 5.53 299 8.49 293 -12.0 93 -12.9 270 0 988.5 NA 0.0000 BR 9999 390 0 0 0
2019/10/05 14:06:00 BASE 5.90 294 7.05 290 -11.9 93 -12.8 281 0 988.5 NA 0.0000 BR 7000 330 1840 0 0
2019/10/05 14:07:00 BASE 5.71 291 7.05 290 -11.9 93 -12.8 297 0 988.5 NA 0.0000 BR 5000 360 1970 0 0
2019/10/05 14:08:00 BASE 5.82 281 7.05 290 -11.8 93 -12.8 300 0 988.5 NA 0.0000 BR 5000 1740 0 0 0
2019/10/05 14:09:00 BASE 6.07 271 7.05 261 -11.8 93 -12.7 302 0 988.5 NA 0.0000 BR 9000 1480 0 0 0
2019/10/05 14:10:00 BASE 5.92 272 7.41 265 -11.7 93 -12.6 314 0 988.5 NA 0.0000 BR 9999 750 1840 0 0
2019/10/05 14:11:00 BASE 6.64 271 9.41 265 -11.7 93 -12.6 318 0 988.5 NA 0.0000 -SN BR 8000 620 2260 0 0
2019/10/05 14:12:00 BASE 6.72 266 9.41 265 -11.6 93 -12.6 323 0 988.6 NA 0.0000 -SN BR 8000 330 1480 0 0
2019/10/05 14:13:00 BASE 6.19 261 9.41 265 -11.6 93 -12.6 332 0 988.5 NA 0.0000 -SN BR 6000 330 1350 0 0
2019/10/05 14:14:00 BASE 6.75 262 9.41 265 -11.6 92 -12.6 339 0 988.6 NA 0.0000 -SN BR 5000 2100 0 0 0
2019/10/05 14:15:00 BASE 6.93 263 9.41 265 -11.6 92 -12.6 341 0 988.5 NA 0.0000 -SN BR 8000 1020 1800 0 0
2019/10/05 14:16:00 BASE 6.66 267 9.41 265 -11.6 92 -12.7 335 0 988.5 NA 0.0000 -SN BR 9000 1740 0 0 0
2019/10/05 14:17:00 BASE 6.93 271 9.41 265 -11.6 92 -12.7 328 0 988.5 NA 0.0000 -SN BR 7000 2000 0 0 0
2019/10/05 14:18:00 BASE 7.06 267 9.41 265 -11.6 91 -12.7 322 0 988.6 NA 0.0000 -SN BR 9999 1540 0 0 0
2019/10/05 14:19:00 BASE 6.14 264 9.41 265 -11.6 91 -12.8 316 0 988.6 NA 0.0000 -SN BR 9999 2000 0 0 0
2019/10/05 14:20:00 BASE 6.52 264 9.41 265 -11.6 91 -12.8 312 0 988.6 NA 0.0000 -SN BR 9999 2000 0 0 0
2019/10/05 14:21:00 BASE 7.76 268 9.05 274 -11.6 90 -12.9 306 0 988.6 NA 0.0000 -SN BR 9999 2070 0 0 0
2019/10/05 14:22:00 BASE 7.12 270 9.05 274 -11.6 90 -12.9 302 0 988.5 NA 0.0000 BR 9000 1970 0 0 0
2019/10/05 14:23:00 BASE 6.83 264 9.05 274 -11.6 89 -13.0 298 0 988.5 NA 0.0000 BR 9999 2000 0 0 0
2019/10/05 14:24:00 BASE 7.60 261 9.31 255 -11.6 89 -13.0 293 0 988.5 NA 0.0000 BR 9999 1640 0 0 0
2019/10/05 14:25:00 BASE 8.39 259 11.11 246 -11.5 88 -13.1 287 0 988.5 NA 0.0000 9999 1540 0 0 0
2019/10/05 14:26:00 BASE 9.08 262 11.11 246 -11.5 88 -13.1 280 0 988.5 NA 0.0000 9999 390 1740 0 0
2019/10/05 14:27:00 BASE 9.25 269 11.99 268 -11.5 88 -13.2 275 0 988.5 NA 0.0000 9999 390 1870 0 0
2019/10/05 14:28:00 BASE 8.49 266 11.99 268 -11.6 87 -13.2 267 0 988.5 NA 0.0000 9999 1120 1870 0 0
2019/10/05 14:29:00 BASE 7.57 266 11.99 268 -11.6 87 -13.3 259 0 988.5 NA 0.0000 9999 750 1840 0 0
2019/10/05 14:30:00 BASE 8.07 266 11.99 268 -11.6 87 -13.4 256 0 988.5 NA 0.0000 9999 1120 1970 0 0
2019/10/05 14:31:00 BASE 9.48 260 11.99 268 -11.6 87 -13.4 266 0 988.6 NA 0.0000 9999 1900 0 0 0
2019/10/05 14:32:00 BASE 9.60 257 11.99 268 -11.6 86 -13.4 273 0 988.7 NA 0.0000 9999 1480 0 0 0
2019/10/05 14:33:00 BASE 8.10 256 11.99 268 -11.6 86 -13.4 277 0 988.7 NA 0.0000 9999 1940 0 0 0
2019/10/05 14:34:00 BASE 7.29 257 11.99 268 -11.6 86 -13.5 297 0 988.7 NA 0.0000 9999 2030 0 0 0
2019/10/05 14:35:00 BASE 7.70 255 11.99 268 -11.6 86 -13.5 323 0 988.7 NA 0.0000 9999 2000 0 0 0
2019/10/05 14:36:00 BASE 8.28 257 11.99 268 -11.5 86 -13.5 351 0 988.6 NA 0.0000 9999 1970 0 0 0
2019/10/05 14:37:00 BASE 8.35 260 11.01 256 -11.5 85 -13.5 401 0 988.5 NA 0.0000 9999 2330 0 0 0
2019/10/05 14:38:00 BASE 7.95 263 11.01 256 -11.5 85 -13.5 446 0 988.5 NA 0.0000 9999 1840 0 0 0
2019/10/05 14:39:00 BASE 7.75 266 11.01 256 -11.5 85 -13.5 397 0 988.5 NA 0.0000 9999 2430 0 0 0
2019/10/05 14:40:00 BASE 7.65 263 11.01 256 -11.4 85 -13.5 367 0 988.5 NA 0.0000 9999 1210 1900 0 0
2019/10/05 14:41:00 BASE 7.79 261 10.24 256 -11.4 85 -13.5 329 0 988.5 NA 0.0000 9999 1570 0 0 0
2019/10/05 14:42:00 BASE 8.82 258 11.21 260 -11.4 84 -13.5 293 0 988.6 NA 0.0000 9999 2200 0 0 0
2019/10/05 14:43:00 BASE 9.72 251 11.21 260 -11.4 84 -13.5 268 0 988.7 NA 0.0000 9999 2170 0 0 0
2019/10/05 14:44:00 BASE 9.00 248 11.21 260 -11.4 84 -13.6 252 0 988.7 NA 0.0000 9999 2360 0 0 0
2019/10/05 14:45:00 BASE 8.46 244 11.21 260 -11.5 84 -13.6 242 0 988.7 NA 0.0000 9999 890 2300 0 0
2019/10/05 14:46:00 BASE 8.34 243 11.21 260 -11.5 84 -13.7 239 0 988.7 NA 0.0000 9999 560 2460 0 0
2019/10/05 14:47:00 BASE 7.28 252 11.21 260 -11.6 84 -13.8 254 0 988.7 NA 0.0000 9999 490 2890 0 0
2019/10/05 14:48:00 BASE 6.92 257 11.21 260 -11.6 83 -13.8 288 0 988.7 NA 0.0000 9999 2260 0 0 0
2019/10/05 14:49:00 BASE 6.79 258 11.21 260 -11.6 83 -13.9 299 0 988.7 NA 0.0000 9999 430 2460 0 0
2019/10/05 14:50:00 BASE 6.43 259 11.21 260 -11.6 83 -13.9 302 0 988.7 NA 0.0000 9999 0 0 0 3640
2019/10/05 14:51:00 BASE 6.66 258 11.21 260 -11.6 83 -13.9 291 0 988.7 NA 0.0000 9999 1120 1970 0 0
2019/10/05 14:52:00 BASE 6.49 260 10.65 251 -11.6 83 -13.9 320 0 988.7 NA 0.0000 9999 590 2200 0 0
2019/10/05 14:53:00 BASE 6.53 262 9.77 240 -11.5 83 -13.9 291 0 988.7 NA 0.0000 9999 1540 2530 0 0
2019/10/05 14:54:00 BASE 7.11 262 9.77 240 -11.5 83 -13.8 246 0 988.7 NA 0.0000 9999 0 0 0 3280
2019/10/05 14:55:00 BASE 7.03 263 9.05 239 -11.5 83 -13.8 266 0 988.7 NA 0.0000 9999 2100 0 0 0
2019/10/05 14:56:00 BASE 6.29 265 8.54 257 -11.5 83 -13.8 473 0 988.7 NA 0.0000 9999 2530 0 0 0
2019/10/05 14:57:00 BASE 6.12 262 8.54 257 -11.5 83 -13.8 562 0 988.7 NA 0.0000 9999 2230 0 0 0
2019/10/05 14:58:00 BASE 6.39 259 8.54 257 -11.4 83 -13.7 451 0 988.7 NA 0.0000 9999 1970 0 0 0
2019/10/05 14:59:00 BASE 6.78 254 8.54 248 -11.3 83 -13.7 376 0 988.7 NA 0.0000 9999 2000 0 0 0
2019/10/05 15:00:00 BASE 7.23 247 8.54 248 -11.3 83 -13.6 340 0 988.7 NA 0.0000 9999 2130 0 0 0
2019/10/05 15:01:00 BASE 6.59 253 8.54 248 -11.2 82 -13.6 304 0 988.7 NA 0.0000 9999 2890 0 0 0
2019/10/05 15:02:00 BASE 5.79 252 8.54 248 -11.2 82 -13.6 267 0 988.7 NA 0.0000 9999 950 2130 0 0
2019/10/05 15:03:00 BASE 6.51 244 8.59 246 -11.2 82 -13.7 262 0 988.7 NA 0.0000 9999 2400 0 0 0
2019/10/05 15:04:00 BASE 7.31 249 8.59 244 -11.3 82 -13.7 282 0 988.7 NA 0.0000 9999 2030 0 0 0
2019/10/05 15:05:00 BASE 7.06 250 8.59 244 -11.3 82 -13.8 309 0 988.7 NA 0.0000 9999 1970 0 0 0
2019/10/05 15:06:00 BASE 5.98 258 8.59 244 -11.3 82 -13.8 330 0 988.7 NA 0.0000 9999 2170 0 0 0
2019/10/05 15:07:00 BASE 5.86 264 8.59 244 -11.3 81 -13.9 354 0 988.7 NA 0.0000 9999 920 1900 0 0
2019/10/05 15:08:00 BASE 5.63 270 8.59 244 -11.3 81 -13.8 349 0 988.7 NA 0.0000 9999 980 1800 0 0
2019/10/05 15:09:00 BASE 5.21 283 8.59 244 -11.2 81 -13.8 332 0 988.7 NA 0.0000 9999 1050 0 0 0
2019/10/05 15:10:00 BASE 5.63 283 8.59 244 -11.1 81 -13.8 328 0 988.7 NA 0.0000 9999 1280 0 0 0
2019/10/05 15:11:00 BASE 6.16 278 8.59 244 -11.1 81 -13.7 327 0 988.7 NA 0.0000 9999 2260 0 0 0
2019/10/05 15:12:00 BASE 7.25 277 10.44 274 -11.1 81 -13.7 328 0 988.7 NA 0.0000 9999 1350 2200 0 0
2019/10/05 15:13:00 BASE 7.58 276 10.44 274 -11.1 81 -13.7 332 0 988.7 NA 0.0000 9999 2230 0 0 0
2019/10/05 15:14:00 BASE 6.99 273 10.44 274 -11.1 81 -13.7 339 0 988.7 NA 0.0000 9999 2130 0 0 0
2019/10/05 15:15:00 BASE 7.19 270 10.44 274 -11.1 81 -13.7 352 0 988.7 NA 0.0000 9999 2530 0 0 0
2019/10/05 15:16:00 BASE 7.07 269 10.44 274 -11.1 81 -13.7 365 0 988.7 NA 0.0000 9999 2360 0 0 0
2019/10/05 15:17:00 BASE 6.12 268 10.44 274 -11.1 81 -13.7 378 0 988.7 NA 0.0000 9999 2230 0 0 0
2019/10/05 15:18:00 BASE 5.76 273 10.44 274 -11.1 81 -13.8 392 0 988.7 NA 0.0000 9999 1440 0 0 0
2019/10/05 15:19:00 BASE 6.20 275 10.44 274 -11.1 80 -13.8 506 0 988.7 NA 0.0000 9999 1570 0 0 0
2019/10/05 15:20:00 BASE 7.55 265 11.11 254 -11.0 80 -13.8 360 0 988.7 NA 0.0000 9999 2230 0 0 0
2019/10/05 15:21:00 BASE 7.81 257 11.11 254 -11.0 80 -13.8 327 0 988.7 NA 0.0000 9999 1940 0 0 0
2019/10/05 15:22:00 BASE 7.34 257 11.11 254 -11.0 80 -13.8 310 0 988.7 NA 0.0000 9999 1940 0 0 0
2019/10/05 15:23:00 BASE 7.25 257 11.11 254 -11.0 80 -13.8 300 0 988.7 NA 0.0000 9999 1970 0 0 0
2019/10/05 15:24:00 BASE 6.63 251 11.11 254 -11.0 80 -13.8 293 0 988.7 NA 0.0000 9999 2000 0 0 0
2019/10/05 15:25:00 BASE 5.83 241 11.11 254 -11.1 80 -13.9 291 0 988.7 NA 0.0000 9999 2030 0 0 0
2019/10/05 15:26:00 BASE 5.83 234 11.11 254 -11.1 79 -14.0 294 0 988.7 NA 0.0000 9999 2100 0 0 0
2019/10/05 15:27:00 BASE 5.93 230 11.11 254 -11.1 79 -14.0 293 0 988.7 NA 0.0000 9999 2100 0 0 0
2019/10/05 15:28:00 BASE 5.78 231 11.11 254 -11.2 79 -14.1 290 0 988.7 NA 0.0000 9999 2200 0 0 0
2019/10/05 15:29:00 BASE 5.52 233 11.11 254 -11.2 79 -14.2 287 0 988.7 NA 0.0000 9999 2200 0 0 0
2019/10/05 15:30:00 BASE 5.49 233 8.28 253 -11.2 78 -14.3 284 0 988.7 NA 0.0000 9999 2330 0 0 0
2019/10/05 15:31:00 BASE 5.94 237 8.23 260 -11.3 78 -14.3 274 0 988.7 NA 0.0000 9999 2330 0 0 0
2019/10/05 15:32:00 BASE 6.14 242 8.03 253 -11.3 78 -14.4 262 0 988.7 NA 0.0000 9999 2430 0 0 0
2019/10/05 15:33:00 BASE 6.24 238 7.25 244 -11.3 78 -14.4 252 0 988.7 NA 0.0000 9999 2170 2590 0 0
2019/10/05 15:34:00 BASE 5.92 237 6.84 232 -11.4 78 -14.4 266 0 988.7 NA 0.0000 9999 1840 0 0 0
2019/10/05 15:35:00 BASE 5.67 243 6.84 232 -11.4 78 -14.4 251 0 988.7 NA 0.0000 9999 2260 0 0 0
2019/10/05 15:36:00 BASE 5.97 249 6.94 247 -11.4 78 -14.5 256 0 988.7 NA 0.0000 9999 0 0 0 1610
2019/10/05 15:37:00 BASE 6.52 248 7.72 249 -11.4 78 -14.5 277 0 988.8 NA 0.0000 9999 0 0 0 1570
2019/10/05 15:38:00 BASE 6.87 250 7.72 249 -11.5 78 -14.5 419 0 988.8 NA 0.0000 9999 0 0 0 0
2019/10/05 15:39:00 BASE 6.74 253 7.72 249 -11.5 78 -14.5 336 0 988.8 NA 0.0000 9999 0 0 0 0
2019/10/05 15:40:00 BASE 6.85 251 7.72 249 -11.5 78 -14.5 336 0 988.8 NA 0.0000 9999 0 0 0 1510
2019/10/05 15:41:00 BASE 6.86 248 7.72 249 -11.4 78 -14.5 341 0 988.8 NA 0.0000 9999 2170 0 0 0
2019/10/05 15:42:00 BASE 7.00 251 7.82 251 -11.4 78 -14.5 527 0 988.8 NA 0.0000 9999 2330 0 0 0
2019/10/05 15:43:00 BASE 7.23 252 7.82 246 -11.4 78 -14.4 487 0 988.8 NA 0.0000 9999 2170 0 0 0
2019/10/05 15:44:00 BASE 6.98 248 7.82 246 -11.3 78 -14.4 292 0 988.9 NA 0.0000 9999 2200 0 0 0
2019/10/05 15:45:00 BASE 6.46 248 7.82 246 -11.3 78 -14.4 412 0 988.9 NA 0.0000 9999 2230 0 0 0
2019/10/05 15:46:00 BASE 6.25 251 7.82 246 -11.2 78 -14.4 481 0 988.9 NA 0.0000 9999 2360 0 0 0
2019/10/05 15:47:00 BASE 6.65 250 7.82 246 -11.2 77 -14.4 671 0 988.9 NA 0.0000 9999 0 0 0 0
2019/10/05 15:48:00 BASE 6.71 250 7.82 246 -11.2 77 -14.4 650 0 988.9 NA 0.0000 9999 0 0 0 0
2019/10/05 15:49:00 BASE 6.64 246 7.82 246 -11.1 77 -14.4 650 0 988.9 NA 0.0000 9999 0 0 0 0
2019/10/05 15:50:00 BASE 6.43 243 7.82 246 -11.1 77 -14.3 659 0 988.9 NA 0.0000 9999 0 0 0 0
2019/10/05 15:51:00 BASE 6.08 245 7.82 246 -11.0 77 -14.3 673 0 988.9 NA 0.0000 9999 0 0 0 0
2019/10/05 15:52:00 BASE 5.84 242 7.82 246 -10.9 76 -14.3 687 0 988.9 NA 0.0000 9999 0 0 0 0
2019/10/05 15:53:00 BASE 5.65 240 7.61 245 -10.9 76 -14.3 699 0 988.9 NA 0.0000 9999 0 0 0 0
2019/10/05 15:54:00 BASE 5.64 242 7.61 245 -10.9 76 -14.3 612 0 988.9 NA 0.0000 9999 0 0 0 0
2019/10/05 15:55:00 BASE 5.56 243 7.61 245 -10.8 76 -14.2 589 0 988.9 NA 0.0000 9999 0 0 0 0
2019/10/05 15:56:00 BASE 6.02 243 7.61 245 -10.8 76 -14.2 722 0 989.0 NA 0.0000 9999 0 0 0 0
2019/10/05 15:57:00 BASE 6.67 243 7.41 243 -10.8 76 -14.3 586 0 989.0 NA 0.0000 9999 0 0 0 0
2019/10/05 15:58:00 BASE 6.95 242 7.72 236 -10.8 76 -14.3 546 0 989.0 NA 0.0000 9999 0 0 0 0
2019/10/05 15:59:00 BASE 6.92 236 7.72 236 -10.8 75 -14.3 611 0 989.0 NA 0.0000 9999 0 0 0 0
2019/10/05 16:00:00 BASE 6.42 233 7.72 236 -10.8 75 -14.4 798 0 989.0 NA 0.0000 9999 0 0 0 0
2019/10/05 16:01:00 BASE 6.24 238 7.72 236 -10.8 75 -14.4 794 0 989.0 NA 0.0000 9999 2490 0 0 0
2019/10/05 16:02:00 BASE 6.11 242 7.72 236 -10.8 75 -14.4 783 0 989.0 NA 0.0000 9999 2330 0 0 0
2019/10/05 16:03:00 BASE 5.67 240 7.72 236 -10.8 75 -14.4 357 0 988.9 NA 0.0000 9999 2300 0 0 0
2019/10/05 16:04:00 BASE 5.65 236 7.72 236 -10.9 75 -14.4 393 0 988.9 NA 0.0000 9999 2200 0 0 0
2019/10/05 16:05:00 BASE 6.13 231 7.72 236 -10.9 75 -14.5 433 0 989.0 NA 0.0000 9999 2000 0 0 0
2019/10/05 16:06:00 BASE 6.14 232 7.72 236 -11.0 75 -14.5 461 0 989.0 NA 0.0000 9999 2070 0 0 0
2019/10/05 16:07:00 BASE 5.73 236 7.72 236 -11.0 75 -14.5 439 0 989.0 NA 0.0000 9999 2260 0 0 0
2019/10/05 16:08:00 BASE 5.87 241 7.41 228 -11.0 76 -14.5 440 0 989.0 NA 0.0000 9999 2130 0 0 0
2019/10/05 16:09:00 BASE 5.75 244 7.25 243 -11.0 76 -14.5 442 0 989.0 NA 0.0000 9999 2000 23260 0 0
2019/10/05 16:10:00 BASE 5.30 238 7.25 243 -11.0 76 -14.4 426 0 989.0 NA 0.0000 9999 2100 0 0 0
2019/10/05 16:11:00 BASE 4.61 231 7.00 231 -11.0 76 -14.4 403 0 989.0 NA 0.0000 9999 2130 0 0 0
2019/10/05 16:12:00 BASE 4.04 234 7.00 231 -11.1 76 -14.4 388 0 989.0 NA 0.0000 9999 2100 0 0 0
2019/10/05 16:13:00 BASE 4.42 235 7.00 231 -11.1 76 -14.4 380 0 989.0 NA 0.0000 9999 2130 21560 0 0
2019/10/05 16:14:00 BASE 5.03 239 7.00 231 -11.1 77 -14.4 371 0 989.0 NA 0.0000 9999 2100 0 0 0
2019/10/05 16:15:00 BASE 5.36 240 6.74 246 -11.1 77 -14.4 361 0 989.0 NA 0.0000 9999 2030 0 0 0
2019/10/05 16:16:00 BASE 5.94 231 7.20 226 -11.1 77 -14.4 354 0 989.0 NA 0.0000 9999 1970 0 0 0
2019/10/05 16:17:00 BASE 5.68 237 7.20 226 -11.1 77 -14.3 349 0 989.0 NA 0.0000 9999 1940 0 0 0
2019/10/05 16:18:00 BASE 4.84 246 7.20 226 -11.1 77 -14.3 348 0 989.0 NA 0.0000 9999 1900 0 0 0
2019/10/05 16:19:00 BASE 5.02 249 7.20 226 -11.1 77 -14.3 347 0 989.0 NA 0.0000 9999 1900 0 0 0
2019/10/05 16:20:00 BASE 5.51 247 7.20 226 -11.0 77 -14.3 347 0 989.0 NA 0.0000 9999 1840 16540 0 0
2019/10/05 16:21:00 BASE 5.91 245 7.20 226 -11.0 77 -14.2 346 0 988.9 NA 0.0000 9999 1940 0 0 0
2019/10/05 16:22:00 BASE 6.16 241 7.20 226 -11.0 77 -14.2 347 0 989.0 NA 0.0000 9999 1800 0 0 0
2019/10/05 16:23:00 BASE 5.50 234 7.20 226 -11.0 77 -14.2 351 0 989.0 NA 0.0000 9999 1900 0 0 0
2019/10/05 16:24:00 BASE 4.67 238 7.20 226 -11.0 77 -14.2 357 0 988.9 NA 0.0000 9999 1900 0 0 0
2019/10/05 16:25:00 BASE 4.83 252 7.20 226 -11.0 77 -14.2 367 0 988.9 NA 0.0000 9999 1870 0 0 0
2019/10/05 16:26:00 BASE 5.29 259 6.84 236 -11.0 77 -14.2 373 0 988.9 NA 0.0000 9999 1970 0 0 0
2019/10/05 16:27:00 BASE 5.31 254 6.84 264 -11.0 77 -14.2 373 0 988.9 NA 0.0000 9999 1940 0 0 0
2019/10/05 16:28:00 BASE 5.57 250 6.84 264 -10.9 77 -14.1 370 0 988.9 NA 0.0000 9999 2000 0 0 0
2019/10/05 16:29:00 BASE 5.93 250 6.84 264 -10.9 77 -14.0 369 0 988.9 NA 0.0000 9999 1900 0 0 0
2019/10/05 16:30:00 BASE 6.29 255 8.18 257 -10.8 78 -14.0 374 0 988.9 NA 0.0000 9999 2000 0 0 0
2019/10/05 16:31:00 BASE 6.38 251 8.18 257 -10.8 78 -13.9 384 0 988.9 NA 0.0000 9999 1970 0 0 0
2019/10/05 16:32:00 BASE 5.58 257 8.18 257 -10.8 78 -13.9 392 0 988.9 NA 0.0000 9999 1900 0 0 0
2019/10/05 16:33:00 BASE 4.74 270 8.18 257 -10.8 78 -13.9 389 0 988.8 NA 0.0000 9999 2070 0 0 0
2019/10/05 16:34:00 BASE 5.26 268 8.18 257 -10.8 78 -13.9 377 0 988.7 NA 0.0000 9999 2030 0 0 0
2019/10/05 16:35:00 BASE 5.24 264 8.18 257 -10.8 78 -13.9 369 0 988.7 NA 0.0000 9999 2030 0 0 0
2019/10/05 16:36:00 BASE 4.41 264 8.18 257 -10.8 78 -13.9 374 0 988.7 NA 0.0000 9999 1940 0 0 0
2019/10/05 16:37:00 BASE 5.16 259 8.18 257 -10.8 78 -13.9 386 0 988.8 NA 0.0000 9999 1940 0 0 0
2019/10/05 16:38:00 BASE 4.96 259 8.18 257 -10.8 78 -13.9 389 0 988.9 NA 0.0000 9999 1870 0 0 0
2019/10/05 16:39:00 BASE 4.58 261 8.18 257 -10.8 78 -13.9 384 0 988.9 NA 0.0000 9999 1800 0 0 0
2019/10/05 16:40:00 BASE 5.17 258 7.20 247 -10.8 78 -13.9 377 0 988.9 NA 0.0000 9999 1840 23000 0 0
2019/10/05 16:41:00 BASE 5.13 263 7.10 265 -10.8 78 -13.9 370 0 988.9 NA 0.0000 9999 1840 0 0 0
2019/10/05 16:42:00 BASE 4.68 266 7.10 265 -10.8 78 -13.9 367 0 988.9 NA 0.0000 9999 1670 23100 0 0
2019/10/05 16:43:00 BASE 4.39 267 7.10 265 -10.8 78 -13.9 364 0 988.9 NA 0.0000 9999 1770 0 0 0
2019/10/05 16:44:00 BASE 5.17 269 8.23 263 -10.8 78 -13.9 363 0 988.9 NA 0.0000 9999 1840 0 0 0
2019/10/05 16:45:00 BASE 6.01 270 8.23 263 -10.8 78 -13.9 364 0 988.9 NA 0.0000 9999 1870 0 0 0
2019/10/05 16:46:00 BASE 6.13 268 8.23 263 -10.7 78 -13.8 364 0 988.9 NA 0.0000 9999 1840 0 0 0
2019/10/05 16:47:00 BASE 6.07 265 8.23 263 -10.7 78 -13.8 360 0 988.9 NA 0.0000 9999 1870 0 0 0
2019/10/05 16:48:00 BASE 6.28 265 8.23 263 -10.7 78 -13.8 355 0 988.9 NA 0.0000 9999 1870 0 0 0
2019/10/05 16:49:00 BASE 6.14 263 8.23 263 -10.7 78 -13.8 349 0 988.9 NA 0.0000 9999 1900 0 0 0
2019/10/05 16:50:00 BASE 5.48 259 8.23 263 -10.7 78 -13.9 341 0 988.9 NA 0.0000 9999 1900 0 0 0
2019/10/05 16:51:00 BASE 5.83 255 8.23 263 -10.8 77 -13.9 335 0 988.9 NA 0.0000 9999 1800 0 0 0
2019/10/05 16:52:00 BASE 5.79 258 8.23 263 -10.8 77 -14.0 329 0 988.9 NA 0.0000 9999 1870 0 0 0
2019/10/05 16:53:00 BASE 5.73 257 8.23 263 -10.8 77 -14.0 324 0 988.9 NA 0.0000 9999 1800 0 0 0
2019/10/05 16:54:00 BASE 6.31 252 8.03 252 -10.8 77 -14.0 320 0 988.8 NA 0.0000 9999 1670 0 0 0
2019/10/05 16:55:00 BASE 6.01 251 8.03 252 -10.8 77 -14.0 318 0 988.7 NA 0.0000 9999 1480 0 0 0
2019/10/05 16:56:00 BASE 5.48 254 8.03 252 -10.8 77 -14.0 318 0 988.7 NA 0.0000 9999 1740 0 0 0
2019/10/05 16:57:00 BASE 5.32 255 8.03 252 -10.8 77 -14.0 320 0 988.7 NA 0.0000 9999 1740 0 0 0
2019/10/05 16:58:00 BASE 5.20 254 7.77 269 -10.8 77 -14.0 323 0 988.7 NA 0.0000 9999 2000 21460 0 0
2019/10/05 16:59:00 BASE 5.78 255 7.61 253 -10.8 77 -14.0 324 0 988.7 NA 0.0000 9999 2000 0 0 0
2019/10/05 17:00:00 BASE 6.48 253 7.61 253 -10.8 77 -14.0 324 0 988.7 NA 0.0000 9999 1970 0 0 0
2019/10/05 17:01:00 BASE 6.10 255 7.00 248 -10.8 77 -14.0 323 0 988.7 NA 0.0000 9999 1710 0 0 0
2019/10/05 17:02:00 BASE 5.29 263 7.00 248 -10.8 77 -14.0 323 0 988.7 NA 0.0000 9999 2000 0 0 0
2019/10/05 17:03:00 BASE 4.89 264 7.00 248 -10.8 77 -14.0 323 0 988.7 NA 0.0000 9999 1640 0 0 0
2019/10/05 17:04:00 BASE 5.28 258 7.00 248 -10.8 77 -14.0 322 0 988.7 NA 0.0000 9999 1870 0 0 0
2019/10/05 17:05:00 BASE 5.25 266 7.00 248 -10.8 77 -14.0 322 0 988.7 NA 0.0000 9999 1570 0 0 0
2019/10/05 17:06:00 BASE 4.78 271 7.00 248 -10.8 78 -13.9 322 0 988.7 NA 0.0000 9999 1610 0 0 0
2019/10/05 17:07:00 BASE 4.76 264 7.00 248 -10.7 78 -13.9 322 0 988.7 NA 0.0000 9999 1640 22110 0 0
2019/10/05 17:08:00 BASE 4.64 266 7.00 248 -10.7 78 -13.8 323 0 988.7 NA 0.0000 9999 1640 0 0 0
2019/10/05 17:09:00 BASE 4.88 266 7.00 248 -10.7 78 -13.8 323 0 988.7 NA 0.0000 9999 1640 0 0 0
2019/10/05 17:10:00 BASE 5.56 258 6.89 258 -10.7 78 -13.7 322 0 988.7 NA 0.0000 9999 1510 0 0 0
2019/10/05 17:11:00 BASE 5.83 253 6.53 251 -10.7 79 -13.7 319 0 988.7 NA 0.0000 9999 1640 0 0 0
2019/10/05 17:12:00 BASE 5.75 254 6.53 251 -10.7 79 -13.7 316 0 988.7 NA 0.0000 9999 1640 0 0 0
2019/10/05 17:13:00 BASE 5.38 253 6.38 270 -10.7 79 -13.6 314 0 988.8 NA 0.0000 9999 1640 0 0 0
2019/10/05 17:14:00 BASE 4.71 248 6.38 270 -10.7 79 -13.7 311 0 988.9 NA 0.0000 9999 1670 0 0 0
2019/10/05 17:15:00 BASE 4.87 242 6.33 254 -10.8 79 -13.7 308 0 988.8 NA 0.0000 9999 1670 0 0 0
2019/10/05 17:16:00 BASE 6.74 236 9.21 232 -10.8 79 -13.7 308 0 988.7 NA 0.0000 9999 1710 0 0 0
2019/10/05 17:17:00 BASE 7.57 237 9.21 232 -10.8 79 -13.7 311 0 988.8 NA 0.0000 9999 1710 0 0 0
2019/10/05 17:18:00 BASE 7.53 238 9.21 232 -10.8 79 -13.7 317 0 988.8 NA 0.0000 9999 1710 0 0 0
2019/10/05 17:19:00 BASE 7.72 238 9.21 232 -10.8 79 -13.7 321 0 988.9 NA 0.0000 9999 1640 0 0 0
2019/10/05 17:20:00 BASE 7.10 237 9.21 232 -10.7 79 -13.7 323 0 988.9 NA 0.0000 9999 1670 0 0 0
2019/10/05 17:21:00 BASE 6.81 230 9.21 232 -10.8 79 -13.7 324 0 988.9 NA 0.0000 9999 1740 0 0 0
2019/10/05 17:22:00 BASE 7.13 228 9.21 232 -10.8 79 -13.7 326 0 988.9 NA 0.0000 9999 1740 0 0 0
2019/10/05 17:23:00 BASE 6.66 227 9.21 232 -10.8 79 -13.7 331 0 988.9 NA 0.0000 9999 1770 0 0 0
2019/10/05 17:24:00 BASE 5.66 228 9.21 232 -10.8 79 -13.8 335 0 988.9 NA 0.0000 9999 1770 0 0 0
2019/10/05 17:25:00 BASE 5.99 238 9.21 232 -10.8 79 -13.8 338 0 988.9 NA 0.0000 9999 1770 0 0 0
2019/10/05 17:26:00 BASE 5.69 241 9.00 231 -10.8 79 -13.8 339 0 989.0 NA 0.0000 9999 1740 0 0 0
2019/10/05 17:27:00 BASE 4.58 244 9.00 231 -10.9 79 -13.9 339 0 989.0 NA 0.0000 9999 1670 0 0 0
2019/10/05 17:28:00 BASE 4.95 254 9.00 231 -10.9 78 -13.9 339 0 989.0 NA 0.0000 9999 1740 0 0 0
2019/10/05 17:29:00 BASE 5.63 251 9.00 231 -10.9 78 -13.9 339 0 988.9 NA 0.0000 9999 1710 0 0 0
2019/10/05 17:30:00 BASE 5.53 244 9.00 231 -10.8 78 -13.9 341 0 988.9 NA 0.0000 9999 1710 0 0 0
2019/10/05 17:31:00 BASE 5.26 248 9.00 231 -10.8 78 -13.9 348 0 989.0 NA 0.0000 9999 1840 0 0 0
2019/10/05 17:32:00 BASE 5.27 258 8.75 247 -10.8 78 -13.9 356 0 988.9 NA 0.0000 9999 1840 0 0 0
2019/10/05 17:33:00 BASE 5.74 253 8.75 247 -10.8 78 -13.9 359 0 988.9 NA 0.0000 9999 1870 0 0 0
2019/10/05 17:34:00 BASE 6.04 246 8.75 247 -10.8 78 -14.0 358 0 988.9 NA 0.0000 9999 1800 0 0 0
2019/10/05 17:35:00 BASE 5.46 241 7.41 258 -10.8 77 -14.0 357 0 989.0 NA 0.0000 9999 1800 0 0 0
2019/10/05 17:36:00 BASE 4.99 242 7.41 258 -10.8 77 -14.0 357 0 989.0 NA 0.0000 9999 1740 0 0 0
2019/10/05 17:37:00 BASE 5.48 251 7.41 258 -10.8 77 -14.1 356 0 989.0 NA 0.0000 9999 1800 0 0 0
2019/10/05 17:38:00 BASE 5.32 260 7.41 258 -10.8 77 -14.1 356 0 989.0 NA 0.0000 9999 1840 18570 0 0
2019/10/05 17:39:00 BASE 3.91 268 7.41 258 -10.8 77 -14.1 359 0 989.0 NA 0.0000 9999 1800 0 0 0
2019/10/05 17:40:00 BASE 2.63 271 7.41 258 -10.9 77 -14.1 364 0 989.0 NA 0.0000 9999 1800 0 0 0
2019/10/05 17:41:00 BASE 2.28 269 7.41 258 -10.9 77 -14.1 371 0 989.0 NA 0.0000 9999 1740 0 0 0
2019/10/05 17:42:00 BASE 3.00 265 7.00 257 -10.9 77 -14.2 380 0 989.0 NA 0.0000 9999 1770 16240 0 0
2019/10/05 17:43:00 BASE 3.64 260 6.69 260 -10.9 77 -14.2 375 0 989.0 NA 0.0000 9999 1800 0 0 0
2019/10/05 17:44:01 BASE 4.12 257 6.69 260 -10.9 76 -14.2 371 0 989.0 NA 0.0000 9999 1740 0 0 0
2019/10/05 17:45:01 BASE 4.35 256 6.69 260 -10.8 76 -14.2 365 0 989.0 NA 0.0000 9999 1770 0 0 0
2019/10/05 17:46:01 BASE 3.79 253 6.43 254 -10.8 76 -14.2 362 0 989.0 NA 0.0000 9999 1840 0 0 0
2019/10/05 17:47:00 BASE 3.40 254 5.76 255 -10.8 76 -14.2 360 0 989.0 NA 0.0000 9999 1870 0 0 0
2019/10/05 17:48:00 BASE 3.40 255 4.94 257 -10.8 76 -14.2 358 0 989.1 NA 0.0000 9999 1770 0 0 0
2019/10/05 17:49:00 BASE 3.72 257 5.71 257 -10.9 76 -14.3 358 0 989.1 NA 0.0000 9999 1800 0 0 0
2019/10/05 17:50:00 BASE 5.18 259 7.15 252 -10.9 76 -14.3 358 0 989.0 NA 0.0000 9999 1870 0 0 0
2019/10/05 17:51:00 BASE 6.32 249 7.15 252 -10.8 76 -14.2 355 0 989.0 NA 0.0000 9999 1800 0 0 0
2019/10/05 17:52:00 BASE 6.15 241 7.15 252 -10.8 76 -14.2 352 0 989.0 NA 0.0000 9999 1870 0 0 0
2019/10/05 17:53:00 BASE 5.66 240 7.15 252 -10.8 76 -14.2 349 0 989.0 NA 0.0000 9999 1870 0 0 0
2019/10/05 17:54:00 BASE 4.72 234 7.15 252 -10.8 76 -14.2 348 0 989.0 NA 0.0000 9999 1800 0 0 0
2019/10/05 17:55:00 BASE 3.83 228 7.15 252 -10.8 76 -14.2 346 0 989.0 NA 0.0000 9999 1740 0 0 0
2019/10/05 17:56:00 BASE 3.62 226 7.15 252 -10.8 76 -14.3 341 0 989.0 NA 0.0000 9999 1770 0 0 0
2019/10/05 17:57:00 BASE 3.15 227 7.15 252 -10.8 75 -14.3 332 0 989.0 NA 0.0000 9999 1740 0 0 0
2019/10/05 17:58:00 BASE 2.76 235 7.15 252 -10.9 75 -14.4 326 0 989.0 NA 0.0000 9999 1740 0 0 0
2019/10/05 17:59:00 BASE 2.88 238 7.15 252 -10.8 75 -14.3 324 0 989.0 NA 0.0000 9999 1740 0 0 0
2019/10/05 18:00:00 BASE 3.18 229 6.74 244 -10.8 76 -14.3 326 0 989.0 NA 0.0000 9999 1710 0 0 0
2019/10/05 18:01:00 BASE 3.13 227 6.74 244 -10.9 76 -14.3 329 0 989.0 NA 0.0000 9999 1670 0 0 0
2019/10/05 18:02:00 BASE 2.51 228 6.02 241 -10.9 76 -14.3 330 0 989.0 NA 0.0000 9999 1670 0 0 0
2019/10/05 18:03:00 BASE 2.01 225 4.68 229 -10.9 76 -14.3 329 0 988.9 NA 0.0000 9999 1670 0 0 0
2019/10/05 18:04:00 BASE 1.80 218 4.37 228 -10.9 76 -14.3 325 0 989.0 NA 0.0000 9999 1640 0 0 0
2019/10/05 18:05:00 BASE 2.43 211 4.37 228 -10.9 76 -14.2 318 0 989.0 NA 0.0000 9999 1740 0 0 0
2019/10/05 18:06:00 BASE 3.17 209 4.12 206 -10.9 76 -14.2 313 0 988.9 NA 0.0000 9999 1740 0 0 0
2019/10/05 18:07:00 BASE 2.87 214 4.12 206 -10.9 77 -14.2 306 0 988.9 NA 0.0000 9999 1740 0 0 0
2019/10/05 18:08:00 BASE 2.42 222 4.12 206 -10.9 77 -14.1 300 0 988.9 NA 0.0000 9999 1710 0 0 0
2019/10/05 18:09:00 BASE 2.16 224 4.12 206 -10.9 77 -14.1 295 0 988.9 NA 0.0000 9999 1710 22050 0 0
2019/10/05 18:10:00 BASE 2.83 220 5.35 212 -10.9 77 -14.1 293 0 989.0 NA 0.0000 9999 1710 0 0 0
2019/10/05 18:11:00 BASE 4.19 222 5.35 212 -10.9 77 -14.1 291 0 989.0 NA 0.0000 9999 1710 0 0 0
2019/10/05 18:12:00 BASE 5.12 233 7.25 253 -10.9 77 -14.1 289 0 989.0 NA 0.0000 9999 1710 0 0 0
2019/10/05 18:13:00 BASE 5.84 244 7.25 253 -10.9 77 -14.1 287 0 989.0 NA 0.0000 9999 1710 22080 0 0
2019/10/05 18:14:00 BASE 5.66 250 7.25 253 -10.9 77 -14.1 285 0 989.0 NA 0.0000 9999 1740 0 0 0
2019/10/05 18:15:00 BASE 4.08 251 7.25 253 -10.9 77 -14.1 283 0 989.0 NA 0.0000 9999 1710 0 0 0
2019/10/05 18:16:00 BASE 2.44 255 7.25 253 -10.9 77 -14.2 280 0 989.0 NA 0.0000 9999 1640 0 0 0
2019/10/05 18:17:00 BASE 2.12 237 7.25 253 -10.9 77 -14.2 277 0 989.0 NA 0.0000 9999 1610 0 0 0
2019/10/05 18:18:00 BASE 2.53 207 7.25 253 -10.9 77 -14.2 275 0 989.0 NA 0.0000 9999 1670 0 0 0
2019/10/05 18:19:00 BASE 3.00 198 7.25 253 -10.9 77 -14.1 274 0 989.0 NA 0.0000 9999 1640 0 0 0
2019/10/05 18:20:00 BASE 3.55 185 7.25 253 -10.9 77 -14.1 271 0 989.0 NA 0.0000 9999 1710 0 0 0
2019/10/05 18:21:00 BASE 3.71 190 7.25 253 -10.9 78 -14.1 266 0 989.0 NA 0.0000 9999 1740 0 0 0
2019/10/05 18:22:00 BASE 2.93 211 6.53 250 -10.9 78 -14.0 263 0 989.0 NA 0.0000 9999 1740 0 0 0
2019/10/05 18:23:00 BASE 2.09 205 6.28 248 -10.9 78 -14.0 264 0 989.0 NA 0.0000 9999 1740 0 0 0
2019/10/05 18:24:00 BASE 2.23 185 4.32 173 -10.9 78 -14.0 265 0 989.0 NA 0.0000 9999 1670 0 0 0
2019/10/05 18:25:00 BASE 2.72 182 4.32 173 -10.9 78 -14.0 264 0 989.0 NA 0.0000 9999 1710 0 0 0
2019/10/05 18:26:00 BASE 2.97 188 4.32 173 -10.8 78 -14.0 261 0 989.1 NA 0.0000 9999 1770 0 0 0
2019/10/05 18:27:00 BASE 3.37 198 4.32 173 -10.8 78 -13.9 262 0 989.1 NA 0.0000 9999 1770 0 0 0
2019/10/05 18:28:00 BASE 3.66 216 4.32 173 -10.8 78 -13.9 265 0 989.1 NA 0.0000 9999 1710 0 0 0
2019/10/05 18:29:00 BASE 3.55 231 4.32 173 -10.8 78 -13.9 268 0 989.1 NA 0.0000 9999 1710 0 0 0
2019/10/05 18:30:00 BASE 3.07 248 4.22 243 -10.8 78 -13.9 272 0 989.1 NA 0.0000 9999 1710 0 0 0
2019/10/05 18:31:00 BASE 2.16 254 4.22 243 -10.9 78 -14.0 274 0 989.1 NA 0.0000 9999 1710 21230 0 0
2019/10/05 18:32:00 BASE 1.15 251 4.22 243 -10.9 78 -14.1 271 0 989.1 NA 0.0000 9999 1770 0 0 0
2019/10/05 18:33:00 BASE 0.97 256 4.22 243 -10.9 78 -14.1 266 0 989.1 NA 0.0000 9999 1740 20510 0 0
2019/10/05 18:34:00 BASE 1.36 268 4.22 243 -10.9 77 -14.1 264 0 989.1 NA 0.0000 9999 1740 0 0 0
2019/10/05 18:35:00 BASE 2.02 276 4.22 243 -10.9 77 -14.1 265 0 989.1 NA 0.0000 9999 1670 0 0 0
2019/10/05 18:36:00 BASE 2.18 261 4.22 243 -10.9 78 -14.1 264 0 989.1 NA 0.0000 9999 1710 0 0 0
2019/10/05 18:37:00 BASE 1.44 248 4.22 243 -10.9 78 -14.1 262 0 989.1 NA 0.0000 9999 1710 0 0 0
2019/10/05 18:38:00 BASE 1.30 249 4.22 243 -10.9 77 -14.1 261 0 989.1 NA 0.0000 9999 1710 0 0 0
2019/10/05 18:39:00 BASE 1.65 249 3.55 237 -10.9 77 -14.1 261 0 989.1 NA 0.0000 9999 1710 0 0 0
2019/10/05 18:40:00 BASE 2.68 251 5.14 240 -10.9 77 -14.1 261 0 989.1 NA 0.0000 9999 1740 0 0 0
2019/10/05 18:41:00 BASE 4.15 244 5.25 237 -10.9 77 -14.1 261 0 989.1 NA 0.0000 9999 1710 18210 0 0
2019/10/05 18:42:00 BASE 4.27 239 5.25 237 -10.9 78 -14.0 260 0 989.1 NA 0.0000 9999 1710 0 0 0
2019/10/05 18:43:00 BASE 4.09 235 5.25 237 -10.8 78 -14.0 259 0 989.1 NA 0.0000 9999 1740 0 0 0
2019/10/05 18:44:00 BASE 4.51 226 6.64 233 -10.8 78 -13.9 258 0 989.1 NA 0.0000 9999 1740 0 0 0
2019/10/05 18:45:00 BASE 5.26 232 6.64 233 -10.8 78 -13.9 257 0 989.1 NA 0.0000 9999 1670 0 0 0
2019/10/05 18:46:00 BASE 5.24 244 6.64 233 -10.8 78 -13.9 258 0 989.1 NA 0.0000 9999 1670 0 0 0
2019/10/05 18:47:00 BASE 4.13 249 6.64 233 -10.8 78 -13.9 258 0 989.1 NA 0.0000 9999 1710 0 0 0
2019/10/05 18:48:00 BASE 3.24 239 6.64 233 -10.9 78 -14.0 256 0 989.1 NA 0.0000 9999 1710 0 0 0
2019/10/05 18:49:00 BASE 2.07 238 6.64 233 -10.9 78 -14.0 255 0 989.1 NA 0.0000 9999 1670 0 0 0
2019/10/05 18:50:00 BASE 1.57 256 6.64 233 -10.9 78 -14.0 256 0 989.1 NA 0.0000 9999 1670 0 0 0
2019/10/05 18:51:00 BASE 1.98 266 6.64 233 -10.9 78 -14.0 258 0 989.1 NA 0.0000 9999 1670 0 0 0
2019/10/05 18:52:01 BASE 2.18 271 6.64 233 -10.9 78 -14.0 261 0 989.1 NA 0.0000 9999 1710 0 0 0
2019/10/05 18:53:01 BASE 1.95 275 6.64 233 -10.9 78 -14.0 263 0 989.1 NA 0.0000 9999 1710 19750 0 0
2019/10/05 18:54:01 BASE 1.97 287 6.48 234 -10.8 78 -14.0 263 0 989.1 NA 0.0000 9999 1710 0 0 0
2019/10/05 18:55:01 BASE 2.15 280 5.56 239 -10.8 78 -13.9 264 0 989.1 NA 0.0000 9999 1670 0 0 0
2019/10/05 18:56:01 BASE 2.05 266 4.12 249 -10.8 78 -13.8 263 0 989.1 NA 0.0000 9999 1710 0 0 0
2019/10/05 18:57:01 BASE 2.16 267 3.81 244 -10.7 78 -13.8 260 0 989.1 NA 0.0000 9999 1610 24440 0 0
2019/10/05 18:58:01 BASE 2.46 257 3.14 259 -10.7 78 -13.8 258 0 989.1 NA 0.0000 9999 1710 20540 0 0
2019/10/05 18:59:01 BASE 2.40 239 3.14 259 -10.7 78 -13.8 260 0 989.1 NA 0.0000 9999 1670 0 0 0
2019/10/05 19:00:01 BASE 1.89 234 3.14 259 -10.8 78 -13.9 265 0 989.1 NA 0.0000 9999 1640 21230 22310 0
2019/10/05 19:01:01 BASE 0.95 235 2.98 230 -10.8 78 -13.9 269 0 989.1 NA 0.0000 9999 1710 0 0 0
2019/10/05 19:02:01 BASE 0.14 230 2.98 230 -10.9 78 -13.9 268 0 989.1 NA 0.0000 9999 1740 18540 0 0
2019/10/05 19:03:01 BASE 0.14 226 2.98 230 -10.9 78 -14.0 265 0 989.1 NA 0.0000 9999 1670 0 0 0
2019/10/05 19:04:01 BASE 0.23 220 2.98 230 -10.9 78 -14.0 261 0 989.1 NA 0.0000 9999 1670 0 0 0
2019/10/05 19:05:01 BASE 0.85 227 2.98 230 -10.9 78 -14.0 256 0 989.1 NA 0.0000 9999 1740 0 0 0
2019/10/05 19:06:01 BASE 1.83 238 2.98 230 -10.9 78 -14.0 253 0 989.1 NA 0.0000 9999 1740 0 0 0
2019/10/05 19:07:01 BASE 2.61 244 4.68 263 -10.9 78 -13.9 253 0 989.1 NA 0.0000 9999 1670 0 0 0
2019/10/05 19:08:01 BASE 4.15 255 6.28 258 -10.8 78 -13.9 255 0 989.1 NA 0.0000 9999 1610 0 0 0
2019/10/05 19:09:01 BASE 4.65 263 6.28 258 -10.8 78 -13.8 255 0 989.1 NA 0.0000 9999 1740 0 0 0
2019/10/05 19:10:01 BASE 4.82 258 6.28 258 -10.7 79 -13.7 252 0 989.1 NA 0.0000 9999 1740 0 0 0
2019/10/05 19:11:01 BASE 5.87 256 7.51 252 -10.7 79 -13.7 251 0 989.1 NA 0.0000 9999 1740 0 0 0
2019/10/05 19:12:01 BASE 5.96 262 7.51 252 -10.7 79 -13.7 252 0 989.1 NA 0.0000 9999 1710 0 0 0
2019/10/05 19:13:01 BASE 5.17 269 7.51 252 -10.7 79 -13.7 253 0 989.1 NA 0.0000 9999 1710 0 0 0
2019/10/05 19:14:01 BASE 4.16 268 7.51 252 -10.8 78 -13.8 250 0 989.1 NA 0.0000 9999 1710 0 0 0
2019/10/05 19:15:01 BASE 3.37 259 7.51 252 -10.8 78 -13.8 242 0 989.1 NA 0.0000 9999 1770 0 0 0
2019/10/05 19:16:01 BASE 2.83 248 7.51 252 -10.8 78 -13.9 232 0 989.1 NA 0.0000 9999 1740 0 0 0
2019/10/05 19:17:01 BASE 2.22 242 7.51 252 -10.8 78 -13.9 225 0 989.1 NA 0.0000 9999 1770 0 0 0
2019/10/05 19:18:01 BASE 1.99 251 7.51 252 -10.8 78 -13.9 223 0 989.1 NA 0.0000 9999 1770 0 0 0
2019/10/05 19:19:01 BASE 2.29 260 7.51 252 -10.8 78 -13.9 225 0 989.1 NA 0.0000 9999 1800 0 0 0
2019/10/05 19:20:01 BASE 2.56 263 7.51 252 -10.8 78 -13.9 227 0 989.2 NA 0.0000 9999 1800 20210 0 0
2019/10/05 19:21:01 BASE 3.73 249 6.28 269 -10.8 78 -13.9 226 0 989.2 NA 0.0000 9999 1740 0 0 0
2019/10/05 19:22:01 BASE 4.87 226 5.71 214 -10.8 78 -13.9 217 0 989.2 NA 0.0000 9999 1670 0 0 0
2019/10/05 19:23:01 BASE 4.74 211 5.81 211 -10.8 78 -13.9 209 0 989.2 NA 0.0000 9999 1610 0 0 0
2019/10/05 19:24:01 BASE 4.06 198 5.81 211 -10.8 78 -13.9 206 0 989.2 NA 0.0000 9999 1640 0 0 0
2019/10/05 19:25:01 BASE 3.91 197 5.81 211 -10.9 78 -14.0 208 0 989.2 NA 0.0000 9999 1670 0 0 0
2019/10/05 19:26:01 BASE 4.35 199 5.81 211 -10.9 78 -14.0 211 0 989.2 NA 0.0000 9999 1710 0 0 0
2019/10/05 19:27:01 BASE 4.17 191 5.81 211 -10.9 78 -14.0 211 0 989.2 NA 0.0000 9999 1670 0 0 0
2019/10/05 19:28:01 BASE 4.18 204 5.81 211 -10.9 78 -14.0 212 0 989.2 NA 0.0000 9999 1670 0 0 0
2019/10/05 19:29:01 BASE 3.80 221 5.81 211 -10.9 78 -14.0 215 0 989.2 NA 0.0000 9999 1610 0 0 0
2019/10/05 19:30:01 BASE 3.20 224 5.81 211 -10.9 78 -14.0 219 0 989.1 NA 0.0000 9999 1570 0 0 0
2019/10/05 19:31:01 BASE 3.19 219 5.81 211 -10.9 78 -14.0 220 0 989.2 NA 0.0000 9999 1640 0 0 0
2019/10/05 19:32:01 BASE 2.26 209 5.81 211 -10.9 78 -14.0 217 0 989.1 NA 0.0000 9999 1610 0 0 0
2019/10/05 19:33:01 BASE 1.79 221 5.35 189 -10.9 78 -14.0 214 0 989.1 NA 0.0000 9999 1640 0 0 0
2019/10/05 19:34:01 BASE 2.17 244 5.35 189 -10.9 78 -14.0 214 0 989.1 NA 0.0000 9999 1610 0 0 0
2019/10/05 19:35:01 BASE 2.24 247 5.35 189 -10.9 78 -14.0 216 0 989.1 NA 0.0000 9999 1640 23030 0 0
2019/10/05 19:36:01 BASE 1.44 243 5.14 217 -10.9 78 -14.0 216 0 989.1 NA 0.0000 9999 1540 0 0 0
2019/10/05 19:37:01 BASE 0.32 233 5.14 217 -10.9 78 -14.0 217 0 989.1 NA 0.0000 9999 1610 0 0 0
2019/10/05 19:38:01 BASE 0.00 237 4.27 222 -10.9 78 -14.0 220 0 989.1 NA 0.0000 9999 1710 0 0 0
2019/10/05 19:39:01 BASE 0.24 289 4.27 222 -10.9 78 -14.0 225 0 989.1 NA 0.0000 9999 1710 0 0 0
2019/10/05 19:40:01 BASE 0.42 312 4.22 233 -10.8 78 -13.9 229 0 989.1 NA 0.0000 9999 1710 0 0 0
2019/10/05 19:41:01 BASE 0.64 320 3.04 245 -10.8 78 -13.9 231 0 989.1 NA 0.0000 9999 1710 0 0 0
2019/10/05 19:42:01 BASE 1.59 314 3.04 245 -10.8 78 -13.9 233 0 989.1 NA 0.0000 9999 1710 0 0 0
2019/10/05 19:43:01 BASE 2.09 295 3.04 245 -10.7 78 -13.8 233 0 989.1 NA 0.0000 9999 1740 0 0 0
2019/10/05 19:44:01 BASE 2.03 260 2.98 220 -10.7 78 -13.8 229 0 989.1 NA 0.0000 9999 1670 0 0 0
2019/10/05 19:45:01 BASE 2.98 236 5.50 254 -10.7 78 -13.8 220 0 989.1 NA 0.0000 9999 1710 0 0 0
2019/10/05 19:46:01 BASE 4.17 243 5.50 254 -10.7 78 -13.8 211 0 989.1 NA 0.0000 9999 1710 0 0 0
2019/10/05 19:47:01 BASE 4.12 242 5.50 254 -10.7 78 -13.8 205 0 989.1 NA 0.0000 9999 1640 0 0 0
2019/10/05 19:48:01 BASE 4.11 238 5.50 254 -10.8 78 -13.9 203 0 989.1 NA 0.0000 9999 1640 0 0 0
2019/10/05 19:49:01 BASE 5.05 229 6.33 222 -10.8 78 -13.9 201 0 989.1 NA 0.0000 9999 1670 0 0 0
2019/10/05 19:50:01 BASE 5.27 214 6.43 214 -10.9 78 -14.0 197 0 989.1 NA 0.0000 9999 1640 0 0 0
2019/10/05 19:51:00 BASE 3.98 193 6.43 214 -10.9 78 -14.0 196 0 989.1 NA 0.0000 9999 1610 0 0 0
2019/10/05 19:52:01 BASE 2.61 171 6.43 214 -10.9 78 -14.0 196 0 989.1 NA 0.0000 9999 1610 0 0 0
2019/10/05 19:53:01 BASE 2.21 156 6.43 214 -10.9 78 -14.0 195 0 989.1 NA 0.0000 9999 1670 0 0 0
2019/10/05 19:54:00 BASE 1.98 143 6.43 214 -10.9 78 -14.0 192 0 989.1 NA 0.0000 9999 1670 0 0 0
2019/10/05 19:55:01 BASE 1.70 140 6.43 214 -10.9 78 -14.0 187 0 989.1 NA 0.0000 9999 1670 0 0 0
2019/10/05 19:56:01 BASE 1.49 146 6.43 214 -10.9 78 -14.0 182 0 989.1 NA 0.0000 9999 1670 0 0 0
2019/10/05 19:57:00 BASE 1.36 154 6.43 214 -10.9 78 -14.0 179 0 989.1 NA 0.0000 9999 1640 0 0 0
2019/10/05 19:58:01 BASE 2.06 182 6.43 214 -10.9 78 -14.0 179 0 989.1 NA 0.0000 9999 1640 0 0 0
2019/10/05 19:59:00 BASE 3.16 215 6.43 214 -10.9 78 -13.9 180 0 989.1 NA 0.0000 9999 1670 0 0 0
2019/10/05 20:00:00 BASE 3.29 226 4.42 216 -10.9 78 -13.9 179 0 989.1 NA 0.0000 9999 1570 0 0 0
2019/10/05 20:01:00 BASE 2.68 235 4.42 216 -10.9 78 -13.9 178 0 989.1 NA 0.0000 9999 1540 0 0 0
2019/10/05 20:02:01 BASE 2.13 236 4.42 216 -10.9 78 -13.9 179 0 989.1 NA 0.0000 9999 1480 0 0 0
2019/10/05 20:03:00 BASE 1.61 232 4.42 216 -10.9 79 -13.9 181 0 989.1 NA 0.0000 9999 1540 0 0 0
2019/10/05 20:04:01 BASE 1.33 225 4.42 216 -10.9 79 -13.9 179 0 989.1 NA 0.0000 9999 1570 0 0 0
2019/10/05 20:05:01 BASE 0.96 213 4.42 216 -10.9 79 -13.9 174 0 989.1 NA 0.0000 9999 1570 0 0 0
2019/10/05 20:06:01 BASE 1.05 213 4.42 216 -10.9 79 -13.9 169 0 989.1 NA 0.0000 9999 1610 0 0 0
2019/10/05 20:07:01 BASE 2.00 219 4.42 216 -10.9 79 -13.9 165 0 989.1 NA 0.0000 9999 1610 0 0 0
2019/10/05 20:08:01 BASE 2.03 209 4.42 216 -10.9 79 -13.9 163 0 989.1 NA 0.0000 9999 1540 0 0 0
2019/10/05 20:09:01 BASE 1.62 184 3.19 227 -10.9 79 -13.9 159 0 989.1 NA 0.0000 9999 1570 21750 0 0
2019/10/05 20:10:00 BASE 1.31 165 3.19 227 -10.9 79 -13.8 156 0 989.1 NA 0.0000 9999 1610 0 0 0
2019/10/05 20:11:00 BASE 0.47 158 3.19 227 -10.9 79 -13.8 154 0 989.1 NA 0.0000 9999 1640 0 0 0
2019/10/05 20:12:00 BASE 0.00 146 3.19 227 -10.9 79 -13.8 154 0 989.1 NA 0.0000 9999 1670 0 0 0
2019/10/05 20:13:00 BASE 0.00 120 3.19 227 -10.9 79 -13.8 153 0 989.1 NA 0.0000 9999 1640 0 0 0
2019/10/05 20:14:00 BASE 0.14 86 3.19 227 -10.9 79 -13.8 150 0 989.1 NA 0.0000 9999 1610 0 0 0
2019/10/05 20:15:00 BASE 0.14 64 3.19 227 -10.9 79 -13.8 147 0 989.1 NA 0.0000 9999 1640 0 0 0
2019/10/05 20:16:00 BASE 0.00 73 3.19 227 -10.9 79 -13.9 145 0 989.1 NA 0.0000 9999 1640 0 0 0
2019/10/05 20:17:00 BASE 0.00 79 2.42 183 -10.9 79 -13.9 144 0 989.1 NA 0.0000 9999 1570 0 0 0
2019/10/05 20:18:00 BASE 0.00 77 1.95 189 -10.9 79 -13.8 142 0 989.1 NA 0.0000 9999 1540 0 0 0
2019/10/05 20:19:00 BASE 0.00 56 1.54 158 -10.9 79 -13.8 141 0 989.2 NA 0.0000 9999 1570 0 0 0
2019/10/05 20:20:00 BASE 0.54 344 1.39 344 -10.9 79 -13.8 142 0 989.2 NA 0.0000 9999 1610 0 0 0
2019/10/05 20:21:00 BASE 0.78 316 1.39 344 -10.8 79 -13.8 142 0 989.2 NA 0.0000 9999 1610 0 0 0
2019/10/05 20:22:00 BASE 0.32 297 1.39 344 -10.9 79 -13.8 143 0 989.2 NA 0.0000 9999 1640 0 0 0
2019/10/05 20:23:00 BASE 0.46 295 1.49 310 -10.9 79 -13.8 142 0 989.2 NA 0.0000 9999 1640 0 0 0
2019/10/05 20:24:00 BASE 1.46 314 3.04 316 -10.9 79 -13.8 139 0 989.2 NA 0.0000 9999 1640 0 0 0
2019/10/05 20:25:00 BASE 3.09 299 5.14 287 -10.8 79 -13.8 136 0 989.2 NA 0.0000 9999 1640 0 0 0
2019/10/05 20:26:00 BASE 4.06 267 5.14 287 -10.8 79 -13.7 135 0 989.2 NA 0.0000 9999 1610 0 0 0
2019/10/05 20:27:00 BASE 3.93 260 5.14 287 -10.8 79 -13.7 135 0 989.2 NA 0.0000 9999 1570 0 0 0
2019/10/05 20:28:00 BASE 3.38 268 5.14 287 -10.8 79 -13.7 134 0 989.2 NA 0.0000 9999 1610 0 0 0
2019/10/05 20:29:00 BASE 2.76 277 5.14 287 -10.8 79 -13.7 131 0 989.2 NA 0.0000 9999 1610 0 0 0
2019/10/05 20:30:00 BASE 1.84 288 5.14 287 -10.8 80 -13.7 128 0 989.3 NA 0.0000 9999 1570 0 0 0
2019/10/05 20:31:00 BASE 0.59 275 5.14 287 -10.9 80 -13.7 125 0 989.3 NA 0.0000 9999 1570 0 0 0
2019/10/05 20:32:00 BASE 0.00 247 5.14 287 -10.9 80 -13.7 125 0 989.4 NA 0.0000 9999 1610 0 0 0
2019/10/05 20:33:00 BASE 0.00 238 5.14 287 -10.9 80 -13.7 124 0 989.4 NA 0.0000 9999 1610 0 0 0
2019/10/05 20:34:00 BASE 0.00 243 5.14 287 -10.9 80 -13.7 121 0 989.4 NA 0.0000 9999 1640 0 0 0
2019/10/05 20:35:00 BASE 0.00 237 4.58 271 -10.9 80 -13.7 117 0 989.4 NA 0.0000 9999 1610 0 0 0
2019/10/05 20:36:01 BASE 0.22 214 4.48 256 -10.9 80 -13.7 114 0 989.4 NA 0.0000 7000 1610 0 0 0
2019/10/05 20:37:01 BASE 0.98 203 3.55 271 -10.9 80 -13.7 113 0 989.4 NA 0.0000 9999 1610 0 0 0
2019/10/05 20:38:01 BASE 2.09 201 3.09 200 -10.9 80 -13.7 113 0 989.4 NA 0.0000 9999 1640 0 0 0
2019/10/05 20:39:01 BASE 2.73 199 3.09 194 -10.9 80 -13.7 113 0 989.4 NA 0.0000 9999 1610 0 0 0
2019/10/05 20:40:00 BASE 3.32 209 4.48 230 -10.9 80 -13.7 113 0 989.4 NA 0.0000 9999 1610 0 0 0
2019/10/05 20:41:01 BASE 4.32 228 5.14 237 -10.9 80 -13.7 112 0 989.4 NA 0.0000 9999 1640 0 0 0
2019/10/05 20:42:01 BASE 4.26 248 5.14 237 -10.9 80 -13.7 110 0 989.4 NA 0.0000 9999 1610 0 0 0
2019/10/05 20:43:01 BASE 3.14 271 5.14 237 -10.9 80 -13.7 107 0 989.4 NA 0.0000 9999 1610 0 0 0
2019/10/05 20:44:01 BASE 2.59 278 5.14 237 -10.9 80 -13.7 107 0 989.4 NA 0.0000 9999 1610 0 0 0
2019/10/05 20:45:01 BASE 2.39 275 5.14 237 -10.9 80 -13.6 110 0 989.4 NA 0.0000 9999 1610 0 0 0
2019/10/05 20:46:01 BASE 2.15 272 5.14 237 -10.9 80 -13.6 113 0 989.4 NA 0.0000 9999 1610 0 0 0
2019/10/05 20:47:01 BASE 1.92 269 5.14 237 -10.9 80 -13.7 115 0 989.4 NA 0.0000 9999 1610 0 0 0
2019/10/05 20:48:01 BASE 1.59 262 5.14 237 -10.9 80 -13.7 117 0 989.4 NA 0.0000 9999 1640 0 0 0
2019/10/05 20:49:01 BASE 1.31 264 5.14 237 -10.9 80 -13.7 120 0 989.4 NA 0.0000 9999 1640 0 0 0
2019/10/05 20:50:01 BASE 1.48 280 5.14 237 -10.9 80 -13.7 123 0 989.4 NA 0.0000 9999 1570 0 0 0
2019/10/05 20:51:01 BASE 1.48 276 4.68 245 -10.9 80 -13.7 125 0 989.4 NA 0.0000 9999 1540 0 0 0
2019/10/05 20:52:01 BASE 0.57 287 3.45 281 -10.9 80 -13.6 126 0 989.4 NA 0.0000 9999 1540 0 0 0
2019/10/05 20:53:01 BASE 0.05 300 3.45 281 -10.9 81 -13.6 125 0 989.4 NA 0.0000 9999 1570 0 0 0
2019/10/05 20:54:01 BASE 0.13 289 2.78 275 -10.9 81 -13.5 123 0 989.4 NA 0.0000 9999 1610 0 0 0
2019/10/05 20:55:01 BASE 0.09 276 2.78 275 -10.8 81 -13.5 121 0 989.4 NA 0.0000 9999 1610 0 0 0
2019/10/05 20:56:01 BASE 0.66 258 3.81 248 -10.9 81 -13.5 119 0 989.5 NA 0.0000 9999 1610 0 0 0
2019/10/05 20:57:01 BASE 2.43 256 3.96 250 -10.9 81 -13.6 117 0 989.5 NA 0.0000 9999 1610 19550 22900 0
2019/10/05 20:58:01 BASE 3.57 261 3.96 266 -10.9 81 -13.6 114 0 989.5 NA 0.0000 9999 1610 0 0 0
2019/10/05 20:59:01 BASE 3.28 263 3.96 266 -10.9 81 -13.6 109 0 989.5 NA 0.0000 9999 1610 0 0 0
2019/10/05 21:00:01 BASE 2.91 260 3.96 266 -10.9 81 -13.6 105 0 989.5 NA 0.0000 9999 1610 0 0 0
2019/10/05 21:01:01 BASE 3.20 256 3.96 266 -11.0 81 -13.6 104 0 989.5 NA 0.0000 9999 1570 0 0 0
2019/10/05 21:02:01 BASE 3.23 254 3.96 266 -11.0 81 -13.6 104 0 989.4 NA 0.0000 9999 1610 0 0 0
2019/10/05 21:03:01 BASE 2.67 253 3.96 266 -11.0 81 -13.7 102 0 989.4 NA 0.0000 9999 1570 0 0 0
2019/10/05 21:04:01 BASE 2.03 248 3.96 266 -11.0 81 -13.7 97 0 989.4 NA 0.0000 9999 1570 0 0 0
2019/10/05 21:05:01 BASE 1.50 240 3.96 266 -11.0 81 -13.6 91 0 989.4 NA 0.0000 9999 1540 0 0 0
2019/10/05 21:06:01 BASE 1.71 225 3.96 266 -11.0 81 -13.6 88 0 989.5 NA 0.0000 9999 1510 0 0 0
2019/10/05 21:07:01 BASE 1.52 212 3.96 266 -11.0 81 -13.6 87 0 989.5 NA 0.0000 9999 1510 0 0 0
2019/10/05 21:08:01 BASE 0.51 206 3.81 254 -11.0 81 -13.6 86 0 989.5 NA 0.0000 9999 1570 0 0 0
2019/10/05 21:09:01 BASE 0.00 208 3.81 254 -11.0 81 -13.6 84 0 989.5 NA 0.0000 9999 1610 0 0 0
2019/10/05 21:10:01 BASE 0.00 234 3.76 254 -11.0 81 -13.6 82 0 989.4 NA 0.0000 9999 1610 0 0 0
2019/10/05 21:11:01 BASE 0.00 262 3.65 254 -11.0 81 -13.6 83 0 989.5 NA 0.0000 9999 1540 0 0 0
2019/10/05 21:12:01 BASE 0.00 292 2.68 244 -11.0 81 -13.6 84 0 989.5 NA 0.0000 9999 1540 0 0 0
2019/10/05 21:13:01 BASE 0.00 318 2.31 220 -11.0 81 -13.7 85 0 989.5 NA 0.0000 9999 1540 0 0 0
2019/10/05 21:14:01 BASE 0.00 335 2.31 220 -11.0 80 -13.7 84 0 989.4 NA 0.0000 9999 1610 0 0 0
2019/10/05 21:15:01 BASE 0.00 4 2.31 220 -11.0 80 -13.7 82 0 989.5 NA 0.0000 9999 1610 0 0 0
2019/10/05 21:16:01 BASE 0.00 36 1.54 208 -11.0 80 -13.8 80 0 989.5 NA 0.0000 9999 1610 0 0 0
2019/10/05 21:17:01 BASE 0.32 50 1.65 27 -11.0 80 -13.7 79 0 989.5 NA 0.0000 9999 1640 0 0 0
2019/10/05 21:18:01 BASE 0.85 44 1.65 52 -10.9 80 -13.7 79 0 989.5 NA 0.0000 9999 1640 0 0 0
2019/10/05 21:19:01 BASE 1.05 38 1.65 52 -10.9 80 -13.7 78 0 989.5 NA 0.0000 9999 1610 0 0 0
2019/10/05 21:20:01 BASE 1.44 37 2.21 25 -10.9 80 -13.7 74 0 989.5 NA 0.0000 9999 1610 0 0 0
2019/10/05 21:21:01 BASE 2.02 36 3.14 51 -10.9 80 -13.6 69 0 989.5 NA 0.0000 9999 1610 0 0 0
2019/10/05 21:22:01 BASE 2.03 40 3.14 51 -10.9 81 -13.6 65 0 989.5 NA 0.0000 9999 1640 0 0 0
2019/10/05 21:23:01 BASE 1.77 37 3.14 51 -10.9 81 -13.6 63 0 989.5 NA 0.0000 9999 1640 0 0 0
2019/10/05 21:24:01 BASE 1.76 30 3.14 51 -10.9 81 -13.5 64 0 989.5 NA 0.0000 9999 1610 0 0 0
2019/10/05 21:25:01 BASE 1.86 24 3.14 51 -10.9 81 -13.5 64 0 989.5 NA 0.0000 9999 1570 0 0 0
2019/10/05 21:26:01 BASE 1.92 21 3.14 51 -10.9 81 -13.6 62 0 989.5 NA 0.0000 9999 1480 0 0 0
2019/10/05 21:27:01 BASE 1.68 29 3.14 51 -11.0 81 -13.6 59 0 989.5 NA 0.0000 9999 1440 0 0 0
2019/10/05 21:28:01 BASE 1.17 35 3.14 51 -11.0 81 -13.6 58 0 989.5 NA 0.0000 9999 1480 0 0 0
2019/10/05 21:29:01 BASE 0.81 28 3.14 51 -11.0 81 -13.6 59 0 989.5 NA 0.0000 9999 1510 21330 0 0
2019/10/05 21:30:01 BASE 0.97 25 3.14 51 -11.0 81 -13.6 61 0 989.5 NA 0.0000 9999 1540 0 0 0
2019/10/05 21:31:01 BASE 1.04 34 2.47 27 -11.0 81 -13.6 61 0 989.5 NA 0.0000 9999 1540 0 0 0
2019/10/05 21:32:01 BASE 0.73 55 2.47 27 -11.0 81 -13.6 60 0 989.5 NA 0.0000 9999 1540 0 0 0
2019/10/05 21:33:01 BASE 0.31 72 2.47 27 -11.0 81 -13.6 60 0 989.5 NA 0.0000 9999 1570 0 0 0
2019/10/05 21:34:01 BASE 0.00 82 2.47 27 -11.0 81 -13.6 59 0 989.6 NA 0.0000 9999 1570 0 0 0
2019/10/05 21:35:01 BASE 0.00 106 2.47 27 -11.0 81 -13.6 59 0 989.6 NA 0.0000 9999 1640 0 0 0
2019/10/05 21:36:01 BASE 0.00 158 2.11 26 -11.0 81 -13.6 59 0 989.6 NA 0.0000 9999 1640 0 0 0
2019/10/05 21:37:00 BASE 0.00 180 1.95 61 -11.0 81 -13.6 59 0 989.6 NA 0.0000 9999 1570 0 0 0
2019/10/05 21:38:00 BASE 0.00 172 1.95 61 -11.0 81 -13.6 59 0 989.6 NA 0.0000 9999 1570 0 0 0
2019/10/05 21:39:00 BASE 0.00 183 1.95 61 -11.0 81 -13.6 60 0 989.6 NA 0.0000 9999 1570 0 0 0
2019/10/05 21:40:01 BASE 0.15 195 1.95 61 -11.0 80 -13.7 60 0 989.6 NA 0.0000 9999 1540 0 0 0
2019/10/05 21:41:00 BASE 0.67 223 2.01 252 -11.0 80 -13.7 60 0 989.6 NA 0.0000 9999 1540 0 0 0
2019/10/05 21:42:01 BASE 2.53 254 4.89 259 -11.0 80 -13.7 59 0 989.6 NA 0.0000 9999 1480 0 0 0
2019/10/05 21:43:00 BASE 3.68 248 4.89 259 -11.0 80 -13.7 59 0 989.6 NA 0.0000 9999 1480 0 0 0
2019/10/05 21:44:01 BASE 2.98 236 4.89 259 -11.0 80 -13.7 59 0 989.6 NA 0.0000 9999 1540 0 0 0
2019/10/05 21:45:01 BASE 2.86 229 4.89 259 -10.9 80 -13.6 57 0 989.6 NA 0.0000 9999 1540 0 0 0
2019/10/05 21:46:01 BASE 3.17 222 4.89 259 -10.9 81 -13.6 55 0 989.6 NA 0.0000 9999 1570 0 0 0
2019/10/05 21:47:00 BASE 3.59 214 4.89 259 -11.0 81 -13.6 52 0 989.6 NA 0.0000 9999 1570 0 0 0
2019/10/05 21:48:01 BASE 3.76 204 4.89 259 -11.0 81 -13.6 51 0 989.6 NA 0.0000 9999 1540 23590 0 0
2019/10/05 21:49:00 BASE 3.82 207 4.89 259 -11.0 81 -13.6 51 0 989.6 NA 0.0000 9999 1510 0 0 0
2019/10/05 21:50:00 BASE 3.69 213 4.89 259 -11.0 81 -13.6 50 0 989.6 NA 0.0000 9999 1540 0 0 0
2019/10/05 21:51:00 BASE 3.25 225 4.89 259 -11.0 81 -13.6 49 0 989.6 NA 0.0000 9999 1510 0 0 0
2019/10/05 21:52:00 BASE 3.11 231 4.63 232 -11.0 81 -13.6 47 0 989.6 NA 0.0000 9999 1510 0 0 0
2019/10/05 21:53:00 BASE 3.18 226 4.63 232 -11.0 81 -13.7 46 0 989.6 NA 0.0000 9999 1510 0 0 0
2019/10/05 21:54:00 BASE 3.24 225 4.63 232 -11.1 81 -13.7 44 0 989.6 NA 0.0000 9999 1480 0 0 0
2019/10/05 21:55:00 BASE 3.25 227 4.63 232 -11.1 81 -13.7 42 0 989.6 NA 0.0000 9999 1480 0 0 0
2019/10/05 21:56:00 BASE 3.14 230 4.63 232 -11.1 81 -13.7 41 0 989.6 NA 0.0000 9999 1480 0 0 0
2019/10/05 21:57:00 BASE 2.86 234 4.63 232 -11.1 81 -13.7 40 0 989.6 NA 0.0000 9999 1510 0 0 0
2019/10/05 21:58:01 BASE 2.93 238 4.63 232 -11.1 81 -13.7 40 0 989.6 NA 0.0000 9999 1510 0 0 0
2019/10/05 21:59:00 BASE 2.79 242 4.63 232 -11.1 81 -13.7 40 0 989.6 NA 0.0000 9999 1540 0 0 0
2019/10/05 22:00:00 BASE 2.34 242 4.63 232 -11.1 81 -13.7 41 0 989.6 NA 0.0000 9999 1670 0 0 0
2019/10/05 22:01:00 BASE 2.22 232 4.12 236 -11.1 81 -13.7 41 0 989.6 NA 0.0000 9999 1570 0 0 0
2019/10/05 22:02:00 BASE 2.70 220 4.12 236 -11.1 81 -13.7 42 0 989.5 NA 0.0000 9999 1610 0 0 0
2019/10/05 22:03:00 BASE 3.32 212 4.17 199 -11.1 81 -13.7 41 0 989.5 NA 0.0000 9999 1570 0 0 0
2019/10/05 22:04:01 BASE 3.06 198 4.17 199 -11.1 81 -13.7 40 0 989.5 NA 0.0000 9999 1570 0 0 0
2019/10/05 22:05:00 BASE 2.77 187 4.17 199 -11.1 81 -13.7 37 0 989.5 NA 0.0000 9999 1540 0 0 0
2019/10/05 22:06:00 BASE 2.76 175 4.17 199 -11.1 81 -13.7 34 0 989.5 NA 0.0000 9999 1540 0 0 0
2019/10/05 22:07:00 BASE 2.33 168 4.17 199 -11.1 81 -13.7 33 0 989.5 NA 0.0000 9999 1640 0 0 0
2019/10/05 22:08:00 BASE 2.14 177 4.17 199 -11.1 81 -13.7 33 0 989.5 NA 0.0000 9999 1640 0 0 0
2019/10/05 22:09:00 BASE 2.11 177 4.17 199 -11.1 81 -13.7 32 0 989.5 NA 0.0000 9999 1570 0 0 0
2019/10/05 22:10:00 BASE 2.06 170 4.17 199 -11.1 81 -13.7 31 0 989.5 NA 0.0000 9999 1570 0 0 0
2019/10/05 22:11:00 BASE 2.31 173 4.17 199 -11.1 81 -13.7 30 0 989.5 NA 0.0000 9999 1540 0 0 0
2019/10/05 22:12:00 BASE 2.29 180 4.17 199 -11.1 81 -13.7 29 0 989.5 NA 0.0000 9999 1570 0 0 0
2019/10/05 22:13:00 BASE 2.03 172 3.65 190 -11.1 81 -13.7 29 0 989.5 NA 0.0000 9999 1570 0 0 0
2019/10/05 22:14:00 BASE 2.07 155 3.45 164 -11.1 81 -13.7 28 0 989.5 NA 0.0000 9999 1540 0 0 0
2019/10/05 22:15:00 BASE 2.02 155 3.40 168 -11.1 81 -13.7 27 0 989.5 NA 0.0000 9999 1510 0 0 0
2019/10/05 22:16:00 BASE 1.21 168 2.78 173 -11.1 81 -13.7 27 0 989.5 NA 0.0000 9999 1570 0 0 0
2019/10/05 22:17:00 BASE 0.61 160 2.78 173 -11.1 81 -13.7 26 0 989.5 NA 0.0000 9999 1610 0 0 0
2019/10/05 22:18:01 BASE 1.32 133 2.78 173 -11.1 82 -13.7 23 0 989.6 NA 0.0000 9999 1610 0 0 0
2019/10/05 22:19:00 BASE 2.07 123 2.78 173 -11.2 82 -13.7 20 0 989.6 NA 0.0000 9999 1570 0 0 0
2019/10/05 22:20:00 BASE 2.01 126 2.78 173 -11.2 82 -13.6 17 0 989.6 NA 0.0000 9999 1610 0 0 0
2019/10/05 22:21:00 BASE 1.76 131 2.57 160 -11.2 82 -13.6 14 0 989.6 NA 0.0000 9999 1540 0 0 0
2019/10/05 22:22:01 BASE 1.61 140 2.57 160 -11.2 82 -13.7 12 0 989.5 NA 0.0000 9999 1480 0 0 0
2019/10/05 22:23:01 BASE 0.92 171 2.57 160 -11.2 82 -13.7 11 0 989.5 NA 0.0000 9999 1510 0 0 0
2019/10/05 22:24:01 BASE 1.06 203 2.37 120 -11.2 82 -13.7 11 0 989.5 NA 0.0000 9999 1570 0 0 0
2019/10/05 22:25:01 BASE 1.34 211 2.37 120 -11.2 82 -13.7 10 0 989.5 NA 0.0000 9999 1570 0 0 0
2019/10/05 22:26:01 BASE 0.60 215 2.37 120 -11.2 82 -13.7 10 0 989.5 NA 0.0000 9999 1570 0 0 0
2019/10/05 22:27:01 BASE 0.19 216 2.37 120 -11.2 82 -13.7 10 0 989.4 NA 0.0000 9999 1610 0 0 0
2019/10/05 22:28:01 BASE 0.00 189 2.21 126 -11.2 82 -13.7 10 0 989.4 NA 0.0000 9999 1570 0 0 0
2019/10/05 22:29:01 BASE 0.23 111 2.16 209 -11.2 82 -13.7 10 0 989.4 NA 0.0000 9999 1540 0 0 0
2019/10/05 22:30:01 BASE 0.68 64 2.16 209 -11.2 82 -13.7 10 0 989.4 NA 0.0000 9999 1540 0 0 0
2019/10/05 22:31:01 BASE 1.06 79 2.16 209 -11.2 82 -13.7 10 0 989.4 NA 0.0000 9999 1570 0 0 0
2019/10/05 22:32:01 BASE 1.39 91 2.16 209 -11.2 82 -13.7 10 0 989.4 NA 0.0000 9999 1510 0 0 0
2019/10/05 22:33:01 BASE 1.62 91 2.16 209 -11.2 82 -13.7 9 0 989.4 NA 0.0000 9999 1540 0 0 0
2019/10/05 22:34:01 BASE 2.22 97 3.14 115 -11.3 82 -13.7 9 0 989.4 NA 0.0000 9999 1570 0 0 0
2019/10/05 22:35:01 BASE 3.24 102 4.32 102 -11.3 82 -13.7 8 0 989.4 NA 0.0000 9999 1540 0 0 0
2019/10/05 22:36:01 BASE 3.05 102 4.32 102 -11.3 82 -13.8 8 0 989.4 NA 0.0000 9999 1540 0 0 0
2019/10/05 22:37:01 BASE 2.76 107 4.32 102 -11.3 82 -13.8 7 0 989.3 NA 0.0000 9999 1570 0 0 0
2019/10/05 22:38:01 BASE 3.15 115 4.32 102 -11.3 82 -13.8 7 0 989.3 NA 0.0000 9999 1570 0 0 0
2019/10/05 22:39:01 BASE 3.27 125 4.32 102 -11.3 82 -13.8 6 0 989.2 NA 0.0000 9999 1540 0 0 0
2019/10/05 22:40:01 BASE 2.88 134 4.32 102 -11.3 82 -13.8 6 0 989.2 NA 0.0000 9999 1480 0 0 0
2019/10/05 22:41:01 BASE 2.02 138 4.32 102 -11.3 82 -13.8 6 0 989.2 NA 0.0000 9999 1570 0 0 0
2019/10/05 22:42:01 BASE 1.55 147 4.32 102 -11.3 82 -13.7 5 0 989.2 NA 0.0000 9999 1610 0 0 0
2019/10/05 22:43:01 BASE 1.10 151 4.32 102 -11.3 82 -13.7 5 0 989.2 NA 0.0000 9999 1540 0 0 0
2019/10/05 22:44:01 BASE 0.99 143 4.32 102 -11.3 82 -13.7 5 0 989.2 NA 0.0000 9999 1540 0 0 0
2019/10/05 22:45:01 BASE 0.83 147 4.01 112 -11.3 82 -13.7 5 0 989.2 NA 0.0000 9999 1540 0 0 0
2019/10/05 22:46:01 BASE 0.23 150 4.01 112 -11.2 82 -13.8 5 0 989.2 NA 0.0000 9999 1540 0 0 0
2019/10/05 22:47:01 BASE 0.00 143 4.01 112 -11.2 81 -13.8 4 0 989.2 NA 0.0000 9999 1480 0 0 0
2019/10/05 22:48:01 BASE 0.00 141 3.65 126 -11.2 81 -13.8 4 0 989.2 NA 0.0000 9999 1510 0 0 0
2019/10/05 22:49:01 BASE 0.00 138 2.68 133 -11.2 81 -13.8 4 0 989.2 NA 0.0000 9999 1480 0 0 0
2019/10/05 22:50:01 BASE 0.00 136 2.16 135 -11.2 81 -13.8 4 0 989.2 NA 0.0000 9999 1540 0 0 0
2019/10/05 22:51:01 BASE 0.00 128 1.59 169 -11.2 81 -13.8 3 0 989.2 NA 0.0000 9999 1570 0 0 0
2019/10/05 22:52:01 BASE 0.00 109 1.54 134 -11.2 81 -13.8 3 0 989.2 NA 0.0000 9999 1570 0 0 0
2019/10/05 22:53:01 BASE 0.00 99 1.54 134 -11.2 81 -13.8 3 0 989.2 NA 0.0000 9999 1640 0 0 0
2019/10/05 22:54:01 BASE 0.00 105 1.18 143 -11.2 81 -13.8 3 0 989.2 NA 0.0000 9999 1610 0 0 0
2019/10/05 22:55:01 BASE 0.30 112 1.34 112 -11.2 81 -13.8 2 0 989.2 NA 0.0000 9999 1610 0 0 0
2019/10/05 22:56:01 BASE 0.74 107 1.34 112 -11.2 81 -13.9 2 0 989.2 NA 0.0000 9999 1570 0 0 0
2019/10/05 22:57:01 BASE 0.94 105 1.59 111 -11.3 81 -13.9 2 0 989.2 NA 0.0000 9999 1540 0 0 0
2019/10/05 22:58:01 BASE 1.22 106 2.26 99 -11.3 81 -13.9 2 0 989.2 NA 0.0000 9999 1610 0 0 0
2019/10/05 22:59:01 BASE 1.69 106 2.26 99 -11.3 81 -13.9 2 0 989.1 NA 0.0000 9999 1610 0 0 0
2019/10/05 23:00:01 BASE 2.16 113 4.37 115 -11.3 81 -13.9 2 0 989.1 NA 0.0000 9999 1640 0 0 0
2019/10/05 23:01:01 BASE 2.92 125 4.68 134 -11.3 81 -13.9 1 0 989.1 NA 0.0000 9999 1640 0 0 0
2019/10/05 23:02:01 BASE 3.14 136 4.68 134 -11.3 81 -13.9 1 0 989.1 NA 0.0000 9999 1640 0 0 0
2019/10/05 23:03:01 BASE 3.00 142 4.68 134 -11.3 81 -13.9 1 0 989.1 NA 0.0000 9999 1610 0 0 0
2019/10/05 23:04:01 BASE 2.95 139 4.68 134 -11.3 81 -13.9 1 0 989.1 NA 0.0000 9999 1570 0 0 0
2019/10/05 23:05:01 BASE 3.31 145 5.40 155 -11.3 81 -13.8 1 0 989.1 NA 0.0000 9999 1610 0 0 0
2019/10/05 23:06:01 BASE 4.29 154 5.50 152 -11.3 82 -13.8 1 0 989.1 NA 0.0000 9999 1670 0 0 0
2019/10/05 23:07:01 BASE 4.78 159 5.50 152 -11.2 82 -13.7 1 0 989.1 NA 0.0000 9999 1640 0 0 0
2019/10/05 23:08:01 BASE 4.80 167 5.56 167 -11.2 82 -13.7 1 0 989.1 NA 0.0000 9999 1510 0 0 0
2019/10/05 23:09:01 BASE 4.91 170 5.71 168 -11.2 82 -13.7 1 0 989.1 NA 0.0000 9999 1510 0 0 0
2019/10/05 23:10:01 BASE 4.29 170 5.71 168 -11.2 82 -13.7 1 0 989.1 NA 0.0000 9999 1540 0 0 0
2019/10/05 23:11:01 BASE 3.19 169 5.71 168 -11.2 82 -13.7 1 0 989.1 NA 0.0000 9999 1570 0 0 0
2019/10/05 23:12:01 BASE 2.97 166 5.71 168 -11.2 82 -13.7 0 0 989.1 NA 0.0000 9999 1540 0 0 0
2019/10/05 23:13:01 BASE 2.92 158 5.71 168 -11.2 82 -13.7 0 0 989.1 NA 0.0000 9999 1540 0 0 0
2019/10/05 23:14:01 BASE 2.76 115 5.71 168 -11.2 82 -13.7 0 0 989.1 NA 0.0000 9999 1540 0 0 0
2019/10/05 23:15:01 BASE 2.71 83 5.71 168 -11.3 82 -13.8 0 0 989.1 NA 0.0000 9999 1510 0 0 0
2019/10/05 23:16:01 BASE 2.62 85 5.71 168 -11.4 82 -13.9 0 0 989.1 NA 0.0000 9999 1540 0 0 0
2019/10/05 23:17:01 BASE 2.91 87 5.71 168 -11.5 82 -14.0 0 0 989.1 NA 0.0000 9999 1570 0 0 0
2019/10/05 23:18:00 BASE 4.14 89 5.92 91 -11.6 82 -14.1 0 0 989.1 NA 0.0000 9999 1570 0 0 0
2019/10/05 23:19:01 BASE 5.01 91 5.92 91 -11.6 82 -14.1 0 0 989.1 NA 0.0000 9999 1510 0 0 0
2019/10/05 23:20:01 BASE 5.03 95 5.92 91 -11.6 82 -14.0 0 0 989.1 NA 0.0000 9999 1540 0 0 0
2019/10/05 23:21:00 BASE 5.02 93 5.92 91 -11.6 82 -14.0 0 0 989.1 NA 0.0000 9999 1540 0 0 0
2019/10/05 23:22:01 BASE 5.38 80 6.17 70 -11.6 82 -14.0 0 0 989.1 NA 0.0000 9999 1570 0 0 0
2019/10/05 23:23:00 BASE 5.60 73 6.17 70 -11.6 82 -14.0 0 0 989.1 NA 0.0000 9999 1540 0 0 0
2019/10/05 23:24:01 BASE 5.80 78 6.69 81 -11.6 82 -14.1 0 0 989.1 NA 0.0000 9999 1570 0 0 0
2019/10/05 23:25:01 BASE 6.08 81 6.74 78 -11.6 82 -14.1 0 0 989.1 NA 0.0000 9999 1540 0 0 0
2019/10/05 23:26:01 BASE 6.06 80 6.74 78 -11.6 82 -14.1 0 0 989.1 NA 0.0000 9999 1570 0 0 0
2019/10/05 23:27:01 BASE 6.03 78 6.74 78 -11.6 82 -14.1 0 0 989.1 NA 0.0000 9999 1570 0 0 0
2019/10/05 23:28:00 BASE 6.09 76 6.74 69 -11.6 82 -14.1 0 0 989.1 NA 0.0000 9999 1570 0 0 0
2019/10/05 23:29:00 BASE 6.32 75 7.20 74 -11.6 82 -14.1 0 0 989.1 NA 0.0000 9999 1540 0 0 0
2019/10/05 23:30:00 BASE 6.09 75 7.20 74 -11.7 82 -14.1 0 0 989.1 NA 0.0000 9999 1570 0 0 0
2019/10/05 23:31:00 BASE 5.43 74 7.20 74 -11.7 82 -14.1 0 0 989.1 NA 0.0000 9999 1570 0 0 0
2019/10/05 23:32:00 BASE 5.02 70 7.20 74 -11.7 82 -14.1 0 0 989.1 NA 0.0000 9999 1610 0 0 0
2019/10/05 23:33:00 BASE 4.71 71 7.20 74 -11.7 82 -14.1 0 0 989.1 NA 0.0000 9999 1610 0 0 0
2019/10/05 23:34:01 BASE 4.69 73 7.20 74 -11.7 82 -14.1 0 0 989.1 NA 0.0000 9999 1640 0 0 0
2019/10/05 23:35:00 BASE 4.58 76 7.20 74 -11.7 82 -14.1 0 0 989.1 NA 0.0000 9999 1610 0 0 0
2019/10/05 23:36:01 BASE 4.18 82 7.20 74 -11.7 82 -14.1 0 0 989.1 NA 0.0000 9999 1570 0 0 0
2019/10/05 23:37:00 BASE 4.35 86 7.20 74 -11.7 82 -14.1 0 0 989.1 NA 0.0000 9999 1540 0 0 0
2019/10/05 23:38:00 BASE 4.97 87 7.20 74 -11.7 82 -14.1 0 0 989.1 NA 0.0000 9999 1570 0 0 0
2019/10/05 23:39:00 BASE 5.12 84 6.28 71 -11.7 82 -14.2 0 0 989.1 NA 0.0000 9999 1510 0 0 0
2019/10/05 23:40:00 BASE 4.41 75 5.92 82 -11.7 82 -14.2 0 0 989.1 NA 0.0000 9999 1480 0 0 0
2019/10/05 23:41:01 BASE 5.07 68 6.94 67 -11.7 82 -14.2 0 0 989.1 NA 0.0000 9999 1440 0 0 0
2019/10/05 23:42:01 BASE 5.81 70 6.94 67 -11.8 82 -14.2 0 0 989.1 NA 0.0000 9999 1480 1840 0 0
2019/10/05 23:43:00 BASE 5.36 73 6.94 67 -11.8 82 -14.3 0 0 989.1 NA 0.0000 9999 1540 0 0 0
2019/10/05 23:44:00 BASE 5.14 76 6.94 67 -11.9 82 -14.3 0 0 989.1 NA 0.0000 9999 1640 0 0 0
2019/10/05 23:45:00 BASE 5.21 77 6.94 67 -11.9 82 -14.4 0 0 989.1 NA 0.0000 9999 1670 0 0 0
2019/10/05 23:46:01 BASE 5.76 80 6.94 67 -12.0 82 -14.5 0 0 989.1 NA 0.0000 9999 0 0 0 0
2019/10/05 23:47:00 BASE 6.01 82 6.94 67 -12.1 82 -14.6 0 0 989.1 NA 0.0000 9999 0 0 0 0
2019/10/05 23:48:01 BASE 5.91 84 6.94 67 -12.2 82 -14.7 0 0 989.1 NA 0.0000 9999 0 0 0 0
2019/10/05 23:49:00 BASE 5.81 83 6.94 67 -12.3 82 -14.7 0 0 989.1 NA 0.0000 9999 0 0 0 0
2019/10/05 23:50:00 BASE 5.82 80 6.94 67 -12.4 82 -14.8 0 0 989.1 NA 0.0000 9999 0 0 0 0
2019/10/05 23:51:00 BASE 5.81 79 6.58 85 -12.4 82 -14.9 0 0 989.1 NA 0.0000 9999 0 0 0 0
2019/10/05 23:52:00 BASE 5.79 80 6.58 85 -12.5 82 -14.9 0 0 989.1 NA 0.0000 9999 1670 0 0 0
2019/10/05 23:53:00 BASE 5.75 80 6.58 85 -12.5 82 -14.9 0 0 989.1 NA 0.0000 9999 0 0 0 0
2019/10/05 23:54:00 BASE 5.33 79 6.58 85 -12.5 82 -14.9 0 0 989.1 NA 0.0000 9999 0 0 0 0
2019/10/05 23:55:00 BASE 4.95 78 6.58 85 -12.5 83 -14.9 0 0 989.1 NA 0.0000 9999 1670 0 0 0
2019/10/05 23:56:00 BASE 4.83 79 6.58 85 -12.5 83 -14.9 0 0 989.1 NA 0.0000 9999 1610 0 0 0
2019/10/05 23:57:00 BASE 4.77 79 6.58 85 -12.5 83 -14.8 0 0 989.1 NA 0.0000 9999 1570 0 0 0
2019/10/05 23:58:01 BASE 5.00 80 6.22 84 -12.6 83 -14.8 0 0 989.1 NA 0.0000 9999 1570 0 0 0
2019/10/05 23:59:00 BASE 5.33 84 6.17 81 -12.6 83 -14.9 0 0 989.1 NA 0.0000 9999 1540 0 0 0